<?xml version='1.0' encoding='UTF-8'?><gpx version="1.1" creator="JPX - https://github.com/jenetics/jpx" xmlns="http://www.topografix.com/GPX/1/1"><trk><trkseg><trkpt lat="41.8537738198109" lon="12.63064750841499"><ele>73.0</ele><time>2026-04-01T13:13:05.005Z</time></trkpt><trkpt lat="41.853698102818925" lon="12.630670487586865"><ele>73.0</ele><time>2026-04-01T13:13:07.004Z</time></trkpt><trkpt lat="41.85363614109945" lon="12.630705110582978"><ele>73.0</ele><time>2026-04-01T13:13:08.004Z</time></trkpt><trkpt lat="41.85356960949534" lon="12.630737026834108"><ele>73.0</ele><time>2026-04-01T13:13:09.003Z</time></trkpt><trkpt lat="41.853498070879105" lon="12.630764196131185"><ele>73.0</ele><time>2026-04-01T13:13:10.003Z</time></trkpt><trkpt lat="41.85342802177187" lon="12.63079967267342"><ele>73.0</ele><time>2026-04-01T13:13:11.003Z</time></trkpt><trkpt lat="41.85336053013974" lon="12.63081729955365"><ele>73.0</ele><time>2026-04-01T13:13:12.003Z</time></trkpt><trkpt lat="41.85329260191163" lon="12.630849595009584"><ele>74.0</ele><time>2026-04-01T13:13:13.003Z</time></trkpt><trkpt lat="41.85322409302603" lon="12.630876814214691"><ele>75.0</ele><time>2026-04-01T13:13:14.002Z</time></trkpt><trkpt lat="41.85315238739089" lon="12.630905902716993"><ele>76.0</ele><time>2026-04-01T13:13:15.002Z</time></trkpt><trkpt lat="41.853089803552514" lon="12.630931259930472"><ele>77.0</ele><time>2026-04-01T13:13:16.002Z</time></trkpt><trkpt lat="41.85300975674454" lon="12.630974168828297"><ele>78.0</ele><time>2026-04-01T13:13:18.002Z</time></trkpt><trkpt lat="41.85294196932977" lon="12.631033372270434"><ele>79.0</ele><time>2026-04-01T13:13:21.001Z</time></trkpt><trkpt lat="41.85287605484859" lon="12.631092879651876"><ele>78.83333333333333</ele><time>2026-04-01T13:13:24.001Z</time></trkpt><trkpt lat="41.85284665349704" lon="12.631173206067096"><ele>78.66666666666666</ele><time>2026-04-01T13:13:25.001Z</time></trkpt><trkpt lat="41.852845019618755" lon="12.631274242813708"><ele>78.5</ele><time>2026-04-01T13:13:26.001Z</time></trkpt><trkpt lat="41.85286340198479" lon="12.63140404648294"><ele>78.33333333333333</ele><time>2026-04-01T13:13:27.001Z</time></trkpt><trkpt lat="41.85291285160138" lon="12.631526717988516"><ele>78.16666666666667</ele><time>2026-04-01T13:13:28.001Z</time></trkpt><trkpt lat="41.85293444939036" lon="12.631655736656198"><ele>78.0</ele><time>2026-04-01T13:13:29.001Z</time></trkpt><trkpt lat="41.852974022182934" lon="12.631812375080038"><ele>77.75</ele><time>2026-04-01T13:13:30Z</time></trkpt><trkpt lat="41.853009492669756" lon="12.63199675614643"><ele>77.5</ele><time>2026-04-01T13:13:31Z</time></trkpt><trkpt lat="41.853029650003855" lon="12.632155773080328"><ele>77.25</ele><time>2026-04-01T13:13:32Z</time></trkpt><trkpt lat="41.85305185066795" lon="12.632280997045974"><ele>77.0</ele><time>2026-04-01T13:13:33Z</time></trkpt><trkpt lat="41.853070046507405" lon="12.632425580622542"><ele>77.0</ele><time>2026-04-01T13:13:34Z</time></trkpt><trkpt lat="41.85305689984552" lon="12.63258019480042"><ele>77.0</ele><time>2026-04-01T13:13:35Z</time></trkpt><trkpt lat="41.85299738508265" lon="12.632722932830404"><ele>77.0</ele><time>2026-04-01T13:13:36Z</time></trkpt><trkpt lat="41.85292855040042" lon="12.632835465720735"><ele>77.0</ele><time>2026-04-01T13:13:37Z</time></trkpt><trkpt lat="41.85290469123041" lon="12.632933535735852"><ele>77.0</ele><time>2026-04-01T13:13:38Z</time></trkpt><trkpt lat="41.85295479630809" lon="12.633070901007288"><ele>76.75</ele><time>2026-04-01T13:13:40Z</time></trkpt><trkpt lat="41.85309349137789" lon="12.633145596608212"><ele>76.5</ele><time>2026-04-01T13:13:42Z</time></trkpt><trkpt lat="41.85318148464935" lon="12.63311785798339"><ele>76.25</ele><time>2026-04-01T13:13:43Z</time></trkpt><trkpt lat="41.85326057896038" lon="12.633047521615747"><ele>76.0</ele><time>2026-04-01T13:13:44Z</time></trkpt><trkpt lat="41.85337686457706" lon="12.632955898130405"><ele>76.0</ele><time>2026-04-01T13:13:45Z</time></trkpt><trkpt lat="41.85344035713957" lon="12.632836816234855"><ele>76.0</ele><time>2026-04-01T13:13:46Z</time></trkpt><trkpt lat="41.853471480842764" lon="12.632689122616158"><ele>76.0</ele><time>2026-04-01T13:13:47Z</time></trkpt><trkpt lat="41.853512632722236" lon="12.632536286239262"><ele>76.0</ele><time>2026-04-01T13:13:47.999Z</time></trkpt><trkpt lat="41.853565863501885" lon="12.632405218512574"><ele>75.0</ele><time>2026-04-01T13:13:48.999Z</time></trkpt><trkpt lat="41.85365970883365" lon="12.632308495621718"><ele>74.0</ele><time>2026-04-01T13:13:49.999Z</time></trkpt><trkpt lat="41.853752021821116" lon="12.632215393289473"><ele>73.0</ele><time>2026-04-01T13:13:50.999Z</time></trkpt><trkpt lat="41.853846432033144" lon="12.632113401261702"><ele>72.0</ele><time>2026-04-01T13:13:51.999Z</time></trkpt><trkpt lat="41.85394608915819" lon="12.632001585192468"><ele>72.0</ele><time>2026-04-01T13:13:52.999Z</time></trkpt><trkpt lat="41.85404464866615" lon="12.631896585076127"><ele>72.0</ele><time>2026-04-01T13:13:53.999Z</time></trkpt><trkpt lat="41.854131958299405" lon="12.631801761881631"><ele>72.0</ele><time>2026-04-01T13:13:54.999Z</time></trkpt><trkpt lat="41.85421980861955" lon="12.631706584907045"><ele>72.0</ele><time>2026-04-01T13:13:55.999Z</time></trkpt><trkpt lat="41.85430790471514" lon="12.631599157805606"><ele>71.0</ele><time>2026-04-01T13:13:56.999Z</time></trkpt><trkpt lat="41.8544091725253" lon="12.631498141396582"><ele>70.0</ele><time>2026-04-01T13:13:57.999Z</time></trkpt><trkpt lat="41.85449693871072" lon="12.63140073745237"><ele>69.0</ele><time>2026-04-01T13:13:58.999Z</time></trkpt><trkpt lat="41.854573757446396" lon="12.631319532826772"><ele>68.0</ele><time>2026-04-01T13:13:59.999Z</time></trkpt><trkpt lat="41.85464257621551" lon="12.63124756755616"><ele>67.0</ele><time>2026-04-01T13:14:00.999Z</time></trkpt><trkpt lat="41.85470313606224" lon="12.63118776033248"><ele>67.0</ele><time>2026-04-01T13:14:01.999Z</time></trkpt><trkpt lat="41.85479039372615" lon="12.63110110175363"><ele>67.0</ele><time>2026-04-01T13:14:03.999Z</time></trkpt><trkpt lat="41.854847790220454" lon="12.631188154487806"><ele>67.0</ele><time>2026-04-01T13:14:06.999Z</time></trkpt><trkpt lat="41.85483369771325" lon="12.63133110790328"><ele>67.0</ele><time>2026-04-01T13:14:08.999Z</time></trkpt><trkpt lat="41.854843706392394" lon="12.631430091262176"><ele>67.0</ele><time>2026-04-01T13:14:09.999Z</time></trkpt><trkpt lat="41.854861354408875" lon="12.631524743601748"><ele>67.0</ele><time>2026-04-01T13:14:10.999Z</time></trkpt><trkpt lat="41.85488706088297" lon="12.631621035529976"><ele>67.0</ele><time>2026-04-01T13:14:11.999Z</time></trkpt><trkpt lat="41.85490013214001" lon="12.631739563346668"><ele>67.0</ele><time>2026-04-01T13:14:12.999Z</time></trkpt><trkpt lat="41.8549446194018" lon="12.63184651050829"><ele>67.0</ele><time>2026-04-01T13:14:13.999Z</time></trkpt><trkpt lat="41.85494038101713" lon="12.631968131535555"><ele>67.0</ele><time>2026-04-01T13:14:14.999Z</time></trkpt><trkpt lat="41.85489666908534" lon="12.63207991439731"><ele>67.0</ele><time>2026-04-01T13:14:15.999Z</time></trkpt><trkpt lat="41.85483996882739" lon="12.632183743966989"><ele>67.33333333333333</ele><time>2026-04-01T13:14:16.999Z</time></trkpt><trkpt lat="41.85479714970875" lon="12.632287009860699"><ele>67.66666666666666</ele><time>2026-04-01T13:14:17.999Z</time></trkpt><trkpt lat="41.85475573561488" lon="12.632373256747899"><ele>68.0</ele><time>2026-04-01T13:14:18.999Z</time></trkpt><trkpt lat="41.85471140459622" lon="12.632465578275772"><ele>68.33333333333333</ele><time>2026-04-01T13:14:19.999Z</time></trkpt><trkpt lat="41.85466661909626" lon="12.632558846279212"><ele>68.66666666666667</ele><time>2026-04-01T13:14:20.999Z</time></trkpt><trkpt lat="41.85461341468144" lon="12.632669647098458"><ele>69.0</ele><time>2026-04-01T13:14:22.998Z</time></trkpt><trkpt lat="41.854570497517585" lon="12.632758817970808"><ele>69.5</ele><time>2026-04-01T13:14:24.998Z</time></trkpt><trkpt lat="41.85462436545297" lon="12.632846473003857"><ele>70.0</ele><time>2026-04-01T13:14:26.998Z</time></trkpt><trkpt lat="41.854703484922204" lon="12.632975216915082"><ele>70.5</ele><time>2026-04-01T13:14:28.998Z</time></trkpt><trkpt lat="41.8547166182645" lon="12.633066178867116"><ele>71.0</ele><time>2026-04-01T13:14:29.998Z</time></trkpt><trkpt lat="41.85473627862466" lon="12.633175677371801"><ele>71.5</ele><time>2026-04-01T13:14:30.998Z</time></trkpt><trkpt lat="41.85475314027543" lon="12.633265476921038"><ele>72.0</ele><time>2026-04-01T13:14:31.998Z</time></trkpt><trkpt lat="41.854770014739735" lon="12.633361382031758"><ele>72.0</ele><time>2026-04-01T13:14:32.998Z</time></trkpt><trkpt lat="41.85479180628872" lon="12.633445940989088"><ele>72.0</ele><time>2026-04-01T13:14:33.998Z</time></trkpt><trkpt lat="41.85483122042086" lon="12.633571792497191"><ele>72.0</ele><time>2026-04-01T13:14:35.998Z</time></trkpt><trkpt lat="41.85480072083139" lon="12.63367350844725"><ele>72.0</ele><time>2026-04-01T13:14:36.998Z</time></trkpt><trkpt lat="41.85475279116177" lon="12.633792526235492"><ele>72.0</ele><time>2026-04-01T13:14:37.998Z</time></trkpt><trkpt lat="41.85471018359904" lon="12.633895593124347"><ele>72.0</ele><time>2026-04-01T13:14:38.998Z</time></trkpt><trkpt lat="41.8546687276375" lon="12.634009092616756"><ele>72.25</ele><time>2026-04-01T13:14:39.998Z</time></trkpt><trkpt lat="41.8546281796794" lon="12.634137085591956"><ele>72.5</ele><time>2026-04-01T13:14:40.998Z</time></trkpt><trkpt lat="41.85457912646821" lon="12.63428244750828"><ele>72.75</ele><time>2026-04-01T13:14:41.998Z</time></trkpt><trkpt lat="41.85452588661581" lon="12.634440735527914"><ele>73.0</ele><time>2026-04-01T13:14:42.998Z</time></trkpt><trkpt lat="41.854481953764946" lon="12.634586811025574"><ele>72.5</ele><time>2026-04-01T13:14:43.998Z</time></trkpt><trkpt lat="41.854420323724874" lon="12.634726240823035"><ele>72.0</ele><time>2026-04-01T13:14:44.998Z</time></trkpt><trkpt lat="41.85437639593084" lon="12.634868641192806"><ele>71.5</ele><time>2026-04-01T13:14:45.998Z</time></trkpt><trkpt lat="41.85433342173777" lon="12.6350079502811"><ele>71.0</ele><time>2026-04-01T13:14:46.998Z</time></trkpt><trkpt lat="41.85429939034206" lon="12.6351742242522"><ele>72.0</ele><time>2026-04-01T13:14:47.998Z</time></trkpt><trkpt lat="41.85423879140319" lon="12.635356942709652"><ele>73.0</ele><time>2026-04-01T13:14:48.998Z</time></trkpt><trkpt lat="41.85417339193399" lon="12.635546089729845"><ele>74.0</ele><time>2026-04-01T13:14:49.998Z</time></trkpt><trkpt lat="41.85410283686604" lon="12.635706103671264"><ele>75.0</ele><time>2026-04-01T13:14:50.998Z</time></trkpt><trkpt lat="41.85405159161332" lon="12.635850077662221"><ele>75.0</ele><time>2026-04-01T13:14:51.998Z</time></trkpt><trkpt lat="41.85402164215521" lon="12.63598734853994"><ele>75.0</ele><time>2026-04-01T13:14:52.998Z</time></trkpt><trkpt lat="41.8540127378612" lon="12.636119064323099"><ele>75.0</ele><time>2026-04-01T13:14:53.998Z</time></trkpt><trkpt lat="41.85401118224748" lon="12.636248099295836"><ele>75.0</ele><time>2026-04-01T13:14:54.998Z</time></trkpt><trkpt lat="41.85409418025546" lon="12.636360073183306"><ele>75.0</ele><time>2026-04-01T13:14:55.998Z</time></trkpt><trkpt lat="41.854175115653376" lon="12.636455351455181"><ele>75.0</ele><time>2026-04-01T13:14:56.998Z</time></trkpt><trkpt lat="41.854262607009204" lon="12.636550032511947"><ele>75.0</ele><time>2026-04-01T13:14:58Z</time></trkpt><trkpt lat="41.85431826633694" lon="12.636679857494657"><ele>75.0</ele><time>2026-04-01T13:14:59Z</time></trkpt><trkpt lat="41.854374927562255" lon="12.636805109731618"><ele>75.0</ele><time>2026-04-01T13:15:00Z</time></trkpt><trkpt lat="41.85441928939412" lon="12.636897214502596"><ele>75.0</ele><time>2026-04-01T13:15:01Z</time></trkpt><trkpt lat="41.85444688016553" lon="12.636990849117488"><ele>75.0</ele><time>2026-04-01T13:15:02Z</time></trkpt><trkpt lat="41.85445245831701" lon="12.63710160674828"><ele>75.0</ele><time>2026-04-01T13:15:03Z</time></trkpt><trkpt lat="41.854440426561936" lon="12.63722499701931"><ele>75.0</ele><time>2026-04-01T13:15:04Z</time></trkpt><trkpt lat="41.854420580113555" lon="12.637337616209809"><ele>75.0</ele><time>2026-04-01T13:15:05Z</time></trkpt><trkpt lat="41.854380487269204" lon="12.637430840542462"><ele>75.0</ele><time>2026-04-01T13:15:06Z</time></trkpt><trkpt lat="41.85433628997224" lon="12.63752716263833"><ele>75.0</ele><time>2026-04-01T13:15:07Z</time></trkpt><trkpt lat="41.854303061928775" lon="12.637644798835428"><ele>75.0</ele><time>2026-04-01T13:15:08Z</time></trkpt><trkpt lat="41.85425013058549" lon="12.637744542251257"><ele>75.0</ele><time>2026-04-01T13:15:09Z</time></trkpt><trkpt lat="41.85419631781612" lon="12.63782220561423"><ele>75.0</ele><time>2026-04-01T13:15:10Z</time></trkpt><trkpt lat="41.85415145659053" lon="12.637906740740867"><ele>75.0</ele><time>2026-04-01T13:15:11Z</time></trkpt><trkpt lat="41.854099553443326" lon="12.637982850302683"><ele>75.0</ele><time>2026-04-01T13:15:12Z</time></trkpt><trkpt lat="41.85405261293247" lon="12.638064458176395"><ele>75.0</ele><time>2026-04-01T13:15:13Z</time></trkpt><trkpt lat="41.85403791148331" lon="12.638166285598986"><ele>75.0</ele><time>2026-04-01T13:15:14Z</time></trkpt><trkpt lat="41.8540589695759" lon="12.638275650441527"><ele>75.0</ele><time>2026-04-01T13:15:15Z</time></trkpt><trkpt lat="41.8541111949316" lon="12.638376699658904"><ele>75.0</ele><time>2026-04-01T13:15:16Z</time></trkpt><trkpt lat="41.85415836418209" lon="12.63847735650846"><ele>75.0</ele><time>2026-04-01T13:15:17Z</time></trkpt><trkpt lat="41.85418684547426" lon="12.638584542250786"><ele>75.0</ele><time>2026-04-01T13:15:18Z</time></trkpt><trkpt lat="41.854177780570154" lon="12.638719326879768"><ele>75.6</ele><time>2026-04-01T13:15:19Z</time></trkpt><trkpt lat="41.85414380334373" lon="12.638851484624789"><ele>76.2</ele><time>2026-04-01T13:15:20Z</time></trkpt><trkpt lat="41.85410202380068" lon="12.63898396271059"><ele>76.8</ele><time>2026-04-01T13:15:21Z</time></trkpt><trkpt lat="41.85405149407018" lon="12.639102052728123"><ele>77.4</ele><time>2026-04-01T13:15:22Z</time></trkpt><trkpt lat="41.853995782010024" lon="12.639214543639984"><ele>78.0</ele><time>2026-04-01T13:15:23Z</time></trkpt><trkpt lat="41.85393009439552" lon="12.639342296811227"><ele>78.0</ele><time>2026-04-01T13:15:24Z</time></trkpt><trkpt lat="41.85385638646215" lon="12.639462024625672"><ele>78.0</ele><time>2026-04-01T13:15:25Z</time></trkpt><trkpt lat="41.85377505790554" lon="12.639566802235828"><ele>78.0</ele><time>2026-04-01T13:15:26Z</time></trkpt><trkpt lat="41.85367617471256" lon="12.639663601308389"><ele>78.0</ele><time>2026-04-01T13:15:27Z</time></trkpt><trkpt lat="41.85356936155775" lon="12.639754851618724"><ele>78.0</ele><time>2026-04-01T13:15:28Z</time></trkpt><trkpt lat="41.85347131356504" lon="12.639822886547352"><ele>78.0</ele><time>2026-04-01T13:15:29Z</time></trkpt><trkpt lat="41.85338553926311" lon="12.639885582778772"><ele>78.0</ele><time>2026-04-01T13:15:30Z</time></trkpt><trkpt lat="41.85330622172043" lon="12.639940191086422"><ele>78.0</ele><time>2026-04-01T13:15:31Z</time></trkpt><trkpt lat="41.85322326172208" lon="12.639979927369811"><ele>78.0</ele><time>2026-04-01T13:15:32Z</time></trkpt><trkpt lat="41.853128133049715" lon="12.64001151482701"><ele>78.0</ele><time>2026-04-01T13:15:33Z</time></trkpt><trkpt lat="41.85302298836056" lon="12.6400294705435"><ele>78.0</ele><time>2026-04-01T13:15:34Z</time></trkpt><trkpt lat="41.85291743654329" lon="12.640026633801886"><ele>78.0</ele><time>2026-04-01T13:15:35Z</time></trkpt><trkpt lat="41.85280563167706" lon="12.640028649661794"><ele>78.0</ele><time>2026-04-01T13:15:36Z</time></trkpt><trkpt lat="41.85268881396698" lon="12.640002939906937"><ele>78.0</ele><time>2026-04-01T13:15:37Z</time></trkpt><trkpt lat="41.8525727302346" lon="12.639968503652373"><ele>77.8</ele><time>2026-04-01T13:15:38Z</time></trkpt><trkpt lat="41.85247375362151" lon="12.639930489672162"><ele>77.6</ele><time>2026-04-01T13:15:39Z</time></trkpt><trkpt lat="41.85238073148856" lon="12.639881459317934"><ele>77.4</ele><time>2026-04-01T13:15:40Z</time></trkpt><trkpt lat="41.8522909152046" lon="12.639822362187978"><ele>77.2</ele><time>2026-04-01T13:15:41Z</time></trkpt><trkpt lat="41.852226107530186" lon="12.639784353727235"><ele>77.0</ele><time>2026-04-01T13:15:42Z</time></trkpt><trkpt lat="41.8521149433867" lon="12.639721009595236"><ele>77.0</ele><time>2026-04-01T13:15:44Z</time></trkpt><trkpt lat="41.852044981902594" lon="12.639685595417838"><ele>77.0</ele><time>2026-04-01T13:15:45Z</time></trkpt><trkpt lat="41.85197171486902" lon="12.63963044545453"><ele>77.0</ele><time>2026-04-01T13:15:46Z</time></trkpt><trkpt lat="41.85188600183662" lon="12.639572630680684"><ele>77.0</ele><time>2026-04-01T13:15:46.999Z</time></trkpt><trkpt lat="41.85179731589809" lon="12.63953659083888"><ele>77.0</ele><time>2026-04-01T13:15:47.999Z</time></trkpt><trkpt lat="41.85171942732482" lon="12.639484077317496"><ele>77.0</ele><time>2026-04-01T13:15:48.999Z</time></trkpt><trkpt lat="41.85164209729883" lon="12.639441540411154"><ele>76.83333333333334</ele><time>2026-04-01T13:15:49.999Z</time></trkpt><trkpt lat="41.85158112906916" lon="12.639391508220758"><ele>76.66666666666667</ele><time>2026-04-01T13:15:50.999Z</time></trkpt><trkpt lat="41.851509656475095" lon="12.639339978050877"><ele>76.5</ele><time>2026-04-01T13:15:51.999Z</time></trkpt><trkpt lat="41.85145145348748" lon="12.639292207604328"><ele>76.33333333333333</ele><time>2026-04-01T13:15:52.999Z</time></trkpt><trkpt lat="41.85137773074187" lon="12.639295855463084"><ele>76.16666666666666</ele><time>2026-04-01T13:15:54.999Z</time></trkpt><trkpt lat="41.85132914975207" lon="12.639420328087784"><ele>76.0</ele><time>2026-04-01T13:15:56.999Z</time></trkpt><trkpt lat="41.85127955575288" lon="12.639505902689239"><ele>76.0</ele><time>2026-04-01T13:15:57.999Z</time></trkpt><trkpt lat="41.851200574201144" lon="12.63958001326463"><ele>76.0</ele><time>2026-04-01T13:15:58.999Z</time></trkpt><trkpt lat="41.851113128037056" lon="12.639656492321015"><ele>76.0</ele><time>2026-04-01T13:15:59.999Z</time></trkpt><trkpt lat="41.85102602046392" lon="12.639750146598004"><ele>76.0</ele><time>2026-04-01T13:16:00.999Z</time></trkpt><trkpt lat="41.850924808871305" lon="12.639846494800095"><ele>76.0</ele><time>2026-04-01T13:16:01.999Z</time></trkpt><trkpt lat="41.85081679612518" lon="12.639950744827852"><ele>76.5</ele><time>2026-04-01T13:16:02.999Z</time></trkpt><trkpt lat="41.85071077871294" lon="12.640052721491"><ele>77.0</ele><time>2026-04-01T13:16:03.999Z</time></trkpt><trkpt lat="41.85060781557719" lon="12.640144636097132"><ele>77.5</ele><time>2026-04-01T13:16:04.999Z</time></trkpt><trkpt lat="41.850509697036145" lon="12.64022843387043"><ele>78.0</ele><time>2026-04-01T13:16:05.999Z</time></trkpt><trkpt lat="41.85043025456565" lon="12.640301399140505"><ele>78.6</ele><time>2026-04-01T13:16:06.999Z</time></trkpt><trkpt lat="41.85035724557694" lon="12.640367944005844"><ele>79.19999999999999</ele><time>2026-04-01T13:16:07.999Z</time></trkpt><trkpt lat="41.85027620177494" lon="12.640454491594367"><ele>79.8</ele><time>2026-04-01T13:16:08.999Z</time></trkpt><trkpt lat="41.85019232965953" lon="12.640542281319606"><ele>80.39999999999999</ele><time>2026-04-01T13:16:09.999Z</time></trkpt><trkpt lat="41.85009305834106" lon="12.640628439397878"><ele>81.0</ele><time>2026-04-01T13:16:10.999Z</time></trkpt><trkpt lat="41.849988209176765" lon="12.640728152038411"><ele>81.0</ele><time>2026-04-01T13:16:11.999Z</time></trkpt><trkpt lat="41.84987512153134" lon="12.640834721555482"><ele>81.0</ele><time>2026-04-01T13:16:12.999Z</time></trkpt><trkpt lat="41.84977603456998" lon="12.640940676578124"><ele>81.0</ele><time>2026-04-01T13:16:13.999Z</time></trkpt><trkpt lat="41.849689629960594" lon="12.641031926085553"><ele>81.0</ele><time>2026-04-01T13:16:14.999Z</time></trkpt><trkpt lat="41.849597038098636" lon="12.641120693581893"><ele>81.19999999999999</ele><time>2026-04-01T13:16:15.999Z</time></trkpt><trkpt lat="41.84949459110702" lon="12.641194734643006"><ele>81.39999999999999</ele><time>2026-04-01T13:16:16.999Z</time></trkpt><trkpt lat="41.849405729927675" lon="12.641258956059998"><ele>81.6</ele><time>2026-04-01T13:16:17.999Z</time></trkpt><trkpt lat="41.849342897892065" lon="12.641291815634485"><ele>81.8</ele><time>2026-04-01T13:16:18.999Z</time></trkpt><trkpt lat="41.8492748497353" lon="12.641264231749311"><ele>82.0</ele><time>2026-04-01T13:16:20.999Z</time></trkpt><trkpt lat="41.849254806587815" lon="12.641089265992521"><ele>82.19999999999999</ele><time>2026-04-01T13:16:22.999Z</time></trkpt><trkpt lat="41.84925159395846" lon="12.640972268410016"><ele>82.4</ele><time>2026-04-01T13:16:23.999Z</time></trkpt><trkpt lat="41.84921700936592" lon="12.64086302415231"><ele>82.6</ele><time>2026-04-01T13:16:25.999Z</time></trkpt><trkpt lat="41.84914733963444" lon="12.640924768544476"><ele>82.80000000000001</ele><time>2026-04-01T13:17:15Z</time></trkpt><trkpt lat="41.849171319456985" lon="12.641069156971914"><ele>83.0</ele><time>2026-04-01T13:17:17Z</time></trkpt><trkpt lat="41.84922992819649" lon="12.64121126366145"><ele>82.80000000000001</ele><time>2026-04-01T13:17:19Z</time></trkpt><trkpt lat="41.84931820217969" lon="12.641282135747767"><ele>82.6</ele><time>2026-04-01T13:17:21Z</time></trkpt><trkpt lat="41.84938389825169" lon="12.641277458271166"><ele>82.4</ele><time>2026-04-01T13:17:22Z</time></trkpt><trkpt lat="41.84946374846704" lon="12.64124148904004"><ele>82.19999999999999</ele><time>2026-04-01T13:17:23Z</time></trkpt><trkpt lat="41.84955677123781" lon="12.641163052127599"><ele>82.0</ele><time>2026-04-01T13:17:24Z</time></trkpt><trkpt lat="41.849656801455154" lon="12.641077311963961"><ele>81.75</ele><time>2026-04-01T13:17:25Z</time></trkpt><trkpt lat="41.84974949519992" lon="12.640981121636674"><ele>81.5</ele><time>2026-04-01T13:17:26Z</time></trkpt><trkpt lat="41.849835889987816" lon="12.64087395510699"><ele>81.25</ele><time>2026-04-01T13:17:27Z</time></trkpt><trkpt lat="41.849920018150165" lon="12.640759211459695"><ele>81.0</ele><time>2026-04-01T13:17:28Z</time></trkpt><trkpt lat="41.85000154894507" lon="12.640648745040805"><ele>81.0</ele><time>2026-04-01T13:17:29Z</time></trkpt><trkpt lat="41.85010819225057" lon="12.640543623455343"><ele>81.0</ele><time>2026-04-01T13:17:30Z</time></trkpt><trkpt lat="41.850217236504164" lon="12.64043351241882"><ele>81.0</ele><time>2026-04-01T13:17:31Z</time></trkpt><trkpt lat="41.850310765385046" lon="12.640325700335469"><ele>81.0</ele><time>2026-04-01T13:17:32Z</time></trkpt><trkpt lat="41.85037810304877" lon="12.640222703878198"><ele>80.5</ele><time>2026-04-01T13:17:33Z</time></trkpt><trkpt lat="41.85043022276819" lon="12.640142967576056"><ele>80.0</ele><time>2026-04-01T13:17:34Z</time></trkpt><trkpt lat="41.85047458294738" lon="12.640081857981494"><ele>79.5</ele><time>2026-04-01T13:17:35Z</time></trkpt><trkpt lat="41.850510711419695" lon="12.639998108524624"><ele>79.0</ele><time>2026-04-01T13:17:37Z</time></trkpt><trkpt lat="41.8505040339173" lon="12.63991089152681"><ele>78.5</ele><time>2026-04-01T13:18:27.999Z</time></trkpt><trkpt lat="41.85057077738567" lon="12.639954744694926"><ele>78.0</ele><time>2026-04-01T13:18:31.999Z</time></trkpt><trkpt lat="41.85051334752571" lon="12.640062031109874"><ele>78.0</ele><time>2026-04-01T13:18:33.999Z</time></trkpt><trkpt lat="41.85045855757875" lon="12.64011518479932"><ele>78.0</ele><time>2026-04-01T13:18:34.999Z</time></trkpt><trkpt lat="41.85040568251107" lon="12.64018099743985"><ele>78.0</ele><time>2026-04-01T13:18:35.999Z</time></trkpt><trkpt lat="41.85034281679938" lon="12.640261598010847"><ele>78.0</ele><time>2026-04-01T13:18:36.999Z</time></trkpt><trkpt lat="41.8502697648564" lon="12.640363627357077"><ele>78.0</ele><time>2026-04-01T13:18:37.999Z</time></trkpt><trkpt lat="41.85018094319721" lon="12.64047204971893"><ele>78.75</ele><time>2026-04-01T13:18:38.998Z</time></trkpt><trkpt lat="41.85007456165305" lon="12.640574631654639"><ele>79.5</ele><time>2026-04-01T13:18:39.998Z</time></trkpt><trkpt lat="41.84997379949787" lon="12.640696438080445"><ele>80.25</ele><time>2026-04-01T13:18:40.998Z</time></trkpt><trkpt lat="41.84986998339076" lon="12.640829743034956"><ele>81.0</ele><time>2026-04-01T13:18:41.998Z</time></trkpt><trkpt lat="41.84975850673762" lon="12.64097139623374"><ele>81.0</ele><time>2026-04-01T13:18:42.998Z</time></trkpt><trkpt lat="41.84965066791413" lon="12.641074292109153"><ele>81.0</ele><time>2026-04-01T13:18:43.998Z</time></trkpt><trkpt lat="41.849566538775775" lon="12.641151543469016"><ele>81.0</ele><time>2026-04-01T13:18:44.998Z</time></trkpt><trkpt lat="41.84949031482307" lon="12.641206516483486"><ele>81.0</ele><time>2026-04-01T13:18:45.998Z</time></trkpt><trkpt lat="41.849434400728725" lon="12.641248341068977"><ele>81.0</ele><time>2026-04-01T13:18:46.998Z</time></trkpt><trkpt lat="41.84934651804448" lon="12.641272093448952"><ele>81.4</ele><time>2026-04-01T13:18:48.998Z</time></trkpt><trkpt lat="41.849282866795875" lon="12.64116056605395"><ele>81.8</ele><time>2026-04-01T13:18:50.998Z</time></trkpt><trkpt lat="41.849255417921135" lon="12.641049829333252"><ele>82.2</ele><time>2026-04-01T13:18:51.998Z</time></trkpt><trkpt lat="41.849231365752274" lon="12.640930520589643"><ele>82.60000000000001</ele><time>2026-04-01T13:18:52.998Z</time></trkpt><trkpt lat="41.849198493685805" lon="12.64080355786245"><ele>83.0</ele><time>2026-04-01T13:18:53.998Z</time></trkpt><trkpt lat="41.849157693072534" lon="12.640665251904354"><ele>83.0</ele><time>2026-04-01T13:18:54.998Z</time></trkpt><trkpt lat="41.849116370748774" lon="12.640533127403307"><ele>83.0</ele><time>2026-04-01T13:18:55.998Z</time></trkpt><trkpt lat="41.849083914847185" lon="12.64042111283087"><ele>83.0</ele><time>2026-04-01T13:18:56.998Z</time></trkpt><trkpt lat="41.84905329766394" lon="12.640324477752085"><ele>83.0</ele><time>2026-04-01T13:18:57.998Z</time></trkpt><trkpt lat="41.849025032113" lon="12.640246670443092"><ele>83.0</ele><time>2026-04-01T13:18:58.998Z</time></trkpt><trkpt lat="41.84898764152417" lon="12.640125457342059"><ele>83.0</ele><time>2026-04-01T13:19:00.998Z</time></trkpt><trkpt lat="41.8489558344845" lon="12.640051906479707"><ele>82.66666666666667</ele><time>2026-04-01T13:19:02.998Z</time></trkpt><trkpt lat="41.84885493949989" lon="12.640067886193068"><ele>82.33333333333334</ele><time>2026-04-01T13:19:05.998Z</time></trkpt><trkpt lat="41.84878905155493" lon="12.640029171322848"><ele>82.0</ele><time>2026-04-01T13:19:08.998Z</time></trkpt><trkpt lat="41.84873576892891" lon="12.639955165180933"><ele>81.66666666666667</ele><time>2026-04-01T13:19:11Z</time></trkpt><trkpt lat="41.848687931858514" lon="12.63989969855828"><ele>81.33333333333333</ele><time>2026-04-01T13:19:14Z</time></trkpt><trkpt lat="41.848699480315396" lon="12.639793758437161"><ele>81.0</ele><time>2026-04-01T13:19:58.999Z</time></trkpt><trkpt lat="41.84880090127693" lon="12.639720761910613"><ele>81.0</ele><time>2026-04-01T13:20:00.999Z</time></trkpt><trkpt lat="41.8488938381703" lon="12.63969032498197"><ele>81.0</ele><time>2026-04-01T13:20:01.999Z</time></trkpt><trkpt lat="41.84898517786683" lon="12.639610115422666"><ele>81.0</ele><time>2026-04-01T13:20:02.999Z</time></trkpt><trkpt lat="41.84909749700096" lon="12.639560465644825"><ele>81.0</ele><time>2026-04-01T13:20:03.999Z</time></trkpt><trkpt lat="41.84922054913407" lon="12.63950111986694"><ele>80.5</ele><time>2026-04-01T13:20:04.999Z</time></trkpt><trkpt lat="41.84935546171414" lon="12.639451137192484"><ele>80.0</ele><time>2026-04-01T13:20:05.999Z</time></trkpt><trkpt lat="41.84948785701872" lon="12.63940207489088"><ele>79.5</ele><time>2026-04-01T13:20:06.999Z</time></trkpt><trkpt lat="41.84962915211288" lon="12.639342256121441"><ele>79.0</ele><time>2026-04-01T13:20:07.999Z</time></trkpt><trkpt lat="41.849773139832024" lon="12.639263828386527"><ele>79.0</ele><time>2026-04-01T13:20:08.999Z</time></trkpt><trkpt lat="41.849918261302406" lon="12.639162614404956"><ele>79.0</ele><time>2026-04-01T13:20:09.999Z</time></trkpt><trkpt lat="41.85004940649238" lon="12.639056851351594"><ele>79.0</ele><time>2026-04-01T13:20:10.999Z</time></trkpt><trkpt lat="41.850181833072185" lon="12.638941917954762"><ele>79.33333333333333</ele><time>2026-04-01T13:20:11.999Z</time></trkpt><trkpt lat="41.85030828584868" lon="12.63880969393733"><ele>79.66666666666667</ele><time>2026-04-01T13:20:12.999Z</time></trkpt><trkpt lat="41.85043682456649" lon="12.638666509485812"><ele>80.0</ele><time>2026-04-01T13:20:13.999Z</time></trkpt><trkpt lat="41.8505598260354" lon="12.638508633258244"><ele>80.0</ele><time>2026-04-01T13:20:14.999Z</time></trkpt><trkpt lat="41.850675621123536" lon="12.63833369009762"><ele>80.0</ele><time>2026-04-01T13:20:15.999Z</time></trkpt><trkpt lat="41.85078609455194" lon="12.63814964881387"><ele>80.0</ele><time>2026-04-01T13:20:16.999Z</time></trkpt><trkpt lat="41.8508848677564" lon="12.637964422678326"><ele>81.66666666666667</ele><time>2026-04-01T13:20:17.999Z</time></trkpt><trkpt lat="41.85096983501998" lon="12.637776005341308"><ele>83.33333333333333</ele><time>2026-04-01T13:20:18.999Z</time></trkpt><trkpt lat="41.851033616138366" lon="12.637571495731612"><ele>85.0</ele><time>2026-04-01T13:20:19.999Z</time></trkpt><trkpt lat="41.85108919687451" lon="12.637366658685552"><ele>85.0</ele><time>2026-04-01T13:20:20.999Z</time></trkpt><trkpt lat="41.85112883564735" lon="12.637154476137386"><ele>85.0</ele><time>2026-04-01T13:20:21.999Z</time></trkpt><trkpt lat="41.85115902678283" lon="12.63693690217353"><ele>85.0</ele><time>2026-04-01T13:20:22.999Z</time></trkpt><trkpt lat="41.85117344779195" lon="12.636713472930156"><ele>83.33333333333333</ele><time>2026-04-01T13:20:23.999Z</time></trkpt><trkpt lat="41.8511744447075" lon="12.6364901775611"><ele>81.66666666666667</ele><time>2026-04-01T13:20:24.999Z</time></trkpt><trkpt lat="41.85117869646387" lon="12.636259691227336"><ele>80.0</ele><time>2026-04-01T13:20:25.999Z</time></trkpt><trkpt lat="41.851195104236574" lon="12.636029801019344"><ele>79.66666666666667</ele><time>2026-04-01T13:20:26.999Z</time></trkpt><trkpt lat="41.85123133199476" lon="12.635799091300663"><ele>79.33333333333333</ele><time>2026-04-01T13:20:27.999Z</time></trkpt><trkpt lat="41.85128856845593" lon="12.635570026039595"><ele>79.0</ele><time>2026-04-01T13:20:28.999Z</time></trkpt><trkpt lat="41.851354189501556" lon="12.635349599183904"><ele>78.33333333333333</ele><time>2026-04-01T13:20:29.999Z</time></trkpt><trkpt lat="41.85143226764746" lon="12.635135561202006"><ele>77.66666666666667</ele><time>2026-04-01T13:20:30.999Z</time></trkpt><trkpt lat="41.85152431801002" lon="12.634926934021566"><ele>77.0</ele><time>2026-04-01T13:20:31.999Z</time></trkpt><trkpt lat="41.85162057888412" lon="12.63474143819691"><ele>77.0</ele><time>2026-04-01T13:20:32.999Z</time></trkpt><trkpt lat="41.85171672647708" lon="12.63458098931793"><ele>77.0</ele><time>2026-04-01T13:20:33.999Z</time></trkpt><trkpt lat="41.85181911778744" lon="12.63442803059906"><ele>77.0</ele><time>2026-04-01T13:20:34.999Z</time></trkpt><trkpt lat="41.851930649118934" lon="12.634281579152153"><ele>77.0</ele><time>2026-04-01T13:20:35.998Z</time></trkpt><trkpt lat="41.85204252062537" lon="12.634133670973313"><ele>77.0</ele><time>2026-04-01T13:20:36.998Z</time></trkpt><trkpt lat="41.85215498492915" lon="12.633987316409248"><ele>77.0</ele><time>2026-04-01T13:20:37.998Z</time></trkpt><trkpt lat="41.85227257643566" lon="12.633844378195644"><ele>77.0</ele><time>2026-04-01T13:20:38.998Z</time></trkpt><trkpt lat="41.85238826955126" lon="12.633697308866415"><ele>77.0</ele><time>2026-04-01T13:20:39.998Z</time></trkpt><trkpt lat="41.85250827875648" lon="12.633550652848005"><ele>77.0</ele><time>2026-04-01T13:20:40.998Z</time></trkpt><trkpt lat="41.85263954602935" lon="12.633405640919754"><ele>76.75</ele><time>2026-04-01T13:20:41.998Z</time></trkpt><trkpt lat="41.85276180531155" lon="12.633281844170995"><ele>76.5</ele><time>2026-04-01T13:20:42.998Z</time></trkpt><trkpt lat="41.852871244678084" lon="12.63320606692135"><ele>76.25</ele><time>2026-04-01T13:20:43.998Z</time></trkpt><trkpt lat="41.85293482652478" lon="12.63316448460412"><ele>76.0</ele><time>2026-04-01T13:20:44.998Z</time></trkpt><trkpt lat="41.85304322082666" lon="12.633121893569294"><ele>76.0</ele><time>2026-04-01T13:20:47.998Z</time></trkpt><trkpt lat="41.85311427892509" lon="12.633105775140702"><ele>76.0</ele><time>2026-04-01T13:20:48.998Z</time></trkpt><trkpt lat="41.853189698764396" lon="12.633106162023472"><ele>76.0</ele><time>2026-04-01T13:20:49.998Z</time></trkpt><trkpt lat="41.8532779400743" lon="12.633058753688577"><ele>76.0</ele><time>2026-04-01T13:20:50.998Z</time></trkpt><trkpt lat="41.85334486903883" lon="12.632995701554517"><ele>76.0</ele><time>2026-04-01T13:20:51.998Z</time></trkpt><trkpt lat="41.85340854771712" lon="12.632916297958927"><ele>76.0</ele><time>2026-04-01T13:20:52.998Z</time></trkpt><trkpt lat="41.85345534820695" lon="12.632807822885754"><ele>76.2</ele><time>2026-04-01T13:20:53.998Z</time></trkpt><trkpt lat="41.853462848297404" lon="12.632678343612602"><ele>76.39999999999999</ele><time>2026-04-01T13:20:54.998Z</time></trkpt><trkpt lat="41.853424946094336" lon="12.632556680167276"><ele>76.6</ele><time>2026-04-01T13:20:55.998Z</time></trkpt><trkpt lat="41.85334009425301" lon="12.632478140431557"><ele>76.8</ele><time>2026-04-01T13:20:56.998Z</time></trkpt><trkpt lat="41.85325005191788" lon="12.632435203988736"><ele>77.0</ele><time>2026-04-01T13:20:57.998Z</time></trkpt><trkpt lat="41.853145525466736" lon="12.632448578912616"><ele>77.0</ele><time>2026-04-01T13:20:58.998Z</time></trkpt><trkpt lat="41.85304841291504" lon="12.632501887485718"><ele>77.0</ele><time>2026-04-01T13:20:59.998Z</time></trkpt><trkpt lat="41.85296349822268" lon="12.632619057241921"><ele>77.0</ele><time>2026-04-01T13:21:00.998Z</time></trkpt><trkpt lat="41.85289485728044" lon="12.632762933197519"><ele>77.0</ele><time>2026-04-01T13:21:01.998Z</time></trkpt><trkpt lat="41.852859453327966" lon="12.632906257588203"><ele>76.75</ele><time>2026-04-01T13:21:02.998Z</time></trkpt><trkpt lat="41.852835636423926" lon="12.63304771728333"><ele>76.5</ele><time>2026-04-01T13:21:03.998Z</time></trkpt><trkpt lat="41.8527422095822" lon="12.633160070626253"><ele>76.25</ele><time>2026-04-01T13:21:04.998Z</time></trkpt><trkpt lat="41.852643689243465" lon="12.63327587511706"><ele>76.0</ele><time>2026-04-01T13:21:05.998Z</time></trkpt><trkpt lat="41.85252717663606" lon="12.63341065161809"><ele>76.0</ele><time>2026-04-01T13:21:06.998Z</time></trkpt><trkpt lat="41.8524282650864" lon="12.633535502844946"><ele>76.0</ele><time>2026-04-01T13:21:07.998Z</time></trkpt><trkpt lat="41.85230683204942" lon="12.633670810228146"><ele>76.0</ele><time>2026-04-01T13:21:08.998Z</time></trkpt><trkpt lat="41.85219939646465" lon="12.633790520961023"><ele>76.0</ele><time>2026-04-01T13:21:09.998Z</time></trkpt><trkpt lat="41.852082046465235" lon="12.633900063995851"><ele>76.33333333333333</ele><time>2026-04-01T13:21:10.998Z</time></trkpt><trkpt lat="41.851976352629265" lon="12.63403646768824"><ele>76.66666666666667</ele><time>2026-04-01T13:21:11.998Z</time></trkpt><trkpt lat="41.851867344213424" lon="12.634189302412281"><ele>77.0</ele><time>2026-04-01T13:21:12.998Z</time></trkpt><trkpt lat="41.851763803721035" lon="12.63433305821795"><ele>77.0</ele><time>2026-04-01T13:21:13.998Z</time></trkpt><trkpt lat="41.85166158149361" lon="12.634488461121743"><ele>77.0</ele><time>2026-04-01T13:21:14.998Z</time></trkpt><trkpt lat="41.85156172794646" lon="12.634652272024677"><ele>77.0</ele><time>2026-04-01T13:21:16Z</time></trkpt><trkpt lat="41.851462991456486" lon="12.634831428314527"><ele>77.0</ele><time>2026-04-01T13:21:17Z</time></trkpt><trkpt lat="41.85138638983881" lon="12.635035374508861"><ele>77.0</ele><time>2026-04-01T13:21:18Z</time></trkpt><trkpt lat="41.851296052181496" lon="12.635213693344433"><ele>77.0</ele><time>2026-04-01T13:21:19Z</time></trkpt><trkpt lat="41.851248095447964" lon="12.635419551482173"><ele>77.66666666666667</ele><time>2026-04-01T13:21:20Z</time></trkpt><trkpt lat="41.85119129134016" lon="12.635624246436375"><ele>78.33333333333333</ele><time>2026-04-01T13:21:21Z</time></trkpt><trkpt lat="41.85114459838379" lon="12.635839609938117"><ele>79.0</ele><time>2026-04-01T13:21:22Z</time></trkpt><trkpt lat="41.85111223196938" lon="12.6360576480687"><ele>79.33333333333333</ele><time>2026-04-01T13:21:23Z</time></trkpt><trkpt lat="41.85109063933824" lon="12.636279884161555"><ele>79.66666666666667</ele><time>2026-04-01T13:21:24Z</time></trkpt><trkpt lat="41.851078095962315" lon="12.636505642527029"><ele>80.0</ele><time>2026-04-01T13:21:25Z</time></trkpt><trkpt lat="41.85107360642258" lon="12.636733634010724"><ele>80.0</ele><time>2026-04-01T13:21:26Z</time></trkpt><trkpt lat="41.85105790264692" lon="12.636966521691438"><ele>80.0</ele><time>2026-04-01T13:21:27Z</time></trkpt><trkpt lat="41.85101954500663" lon="12.637198013926625"><ele>80.0</ele><time>2026-04-01T13:21:28Z</time></trkpt><trkpt lat="41.8509739499371" lon="12.637432461760236"><ele>80.0</ele><time>2026-04-01T13:21:29Z</time></trkpt><trkpt lat="41.850902043578024" lon="12.637660178733295"><ele>80.0</ele><time>2026-04-01T13:21:30Z</time></trkpt><trkpt lat="41.850815219273755" lon="12.637881568436452"><ele>80.0</ele><time>2026-04-01T13:21:31Z</time></trkpt><trkpt lat="41.85071216345882" lon="12.638093077141056"><ele>80.0</ele><time>2026-04-01T13:21:32Z</time></trkpt><trkpt lat="41.85058961041639" lon="12.638289602046383"><ele>80.0</ele><time>2026-04-01T13:21:33Z</time></trkpt><trkpt lat="41.85044673811191" lon="12.638475253392674"><ele>80.0</ele><time>2026-04-01T13:21:34Z</time></trkpt><trkpt lat="41.850297391147045" lon="12.638654348171622"><ele>80.33333333333334</ele><time>2026-04-01T13:21:35Z</time></trkpt><trkpt lat="41.850152617522475" lon="12.638807643330761"><ele>80.66666666666667</ele><time>2026-04-01T13:21:36Z</time></trkpt><trkpt lat="41.85000532937364" lon="12.638944654164616"><ele>81.0</ele><time>2026-04-01T13:21:37Z</time></trkpt><trkpt lat="41.84984875395131" lon="12.63906953938968"><ele>80.33333333333333</ele><time>2026-04-01T13:21:38Z</time></trkpt><trkpt lat="41.8496848434945" lon="12.639182704575367"><ele>79.66666666666666</ele><time>2026-04-01T13:21:39Z</time></trkpt><trkpt lat="41.8495138246416" lon="12.639273060309781"><ele>79.0</ele><time>2026-04-01T13:21:40Z</time></trkpt><trkpt lat="41.849334882594356" lon="12.639348835587672"><ele>79.0</ele><time>2026-04-01T13:21:41Z</time></trkpt><trkpt lat="41.84915324067142" lon="12.639423902367763"><ele>79.0</ele><time>2026-04-01T13:21:42Z</time></trkpt><trkpt lat="41.84896977878129" lon="12.639497622029154"><ele>79.0</ele><time>2026-04-01T13:21:43Z</time></trkpt><trkpt lat="41.848783222167484" lon="12.639571357525288"><ele>79.66666666666666</ele><time>2026-04-01T13:21:44Z</time></trkpt><trkpt lat="41.84859717906025" lon="12.639653490035105"><ele>80.33333333333333</ele><time>2026-04-01T13:21:45Z</time></trkpt><trkpt lat="41.848408083909526" lon="12.639748389718621"><ele>81.0</ele><time>2026-04-01T13:21:46Z</time></trkpt><trkpt lat="41.84821109528364" lon="12.639808483234855"><ele>81.33333333333333</ele><time>2026-04-01T13:21:47Z</time></trkpt><trkpt lat="41.84801777740353" lon="12.639907799573852"><ele>81.66666666666666</ele><time>2026-04-01T13:21:48Z</time></trkpt><trkpt lat="41.84781865404943" lon="12.639986200045971"><ele>82.0</ele><time>2026-04-01T13:21:49Z</time></trkpt><trkpt lat="41.84761814309858" lon="12.64006702603747"><ele>82.66666666666666</ele><time>2026-04-01T13:21:50Z</time></trkpt><trkpt lat="41.84740921743325" lon="12.640145401127235"><ele>83.33333333333333</ele><time>2026-04-01T13:21:50.999Z</time></trkpt><trkpt lat="41.84721354114934" lon="12.640220167886445"><ele>84.0</ele><time>2026-04-01T13:21:51.999Z</time></trkpt><trkpt lat="41.847026502731644" lon="12.640295630974274"><ele>84.0</ele><time>2026-04-01T13:21:52.999Z</time></trkpt><trkpt lat="41.846840332836564" lon="12.640369631352208"><ele>84.0</ele><time>2026-04-01T13:21:53.999Z</time></trkpt><trkpt lat="41.846653094707975" lon="12.64044446983724"><ele>84.0</ele><time>2026-04-01T13:21:54.999Z</time></trkpt><trkpt lat="41.84646113244671" lon="12.640498321002097"><ele>83.66666666666667</ele><time>2026-04-01T13:21:55.999Z</time></trkpt><trkpt lat="41.84626651975278" lon="12.640561536833578"><ele>83.33333333333334</ele><time>2026-04-01T13:21:56.999Z</time></trkpt><trkpt lat="41.846074979349986" lon="12.640643517726389"><ele>83.0</ele><time>2026-04-01T13:21:57.999Z</time></trkpt><trkpt lat="41.845882054820876" lon="12.640718296764959"><ele>82.33333333333334</ele><time>2026-04-01T13:21:58.999Z</time></trkpt><trkpt lat="41.845685408295274" lon="12.6407929245971"><ele>81.66666666666667</ele><time>2026-04-01T13:21:59.999Z</time></trkpt><trkpt lat="41.84548307660055" lon="12.640877128261364"><ele>81.0</ele><time>2026-04-01T13:22:00.999Z</time></trkpt><trkpt lat="41.84529917543547" lon="12.640946569607248"><ele>83.0</ele><time>2026-04-01T13:22:01.999Z</time></trkpt><trkpt lat="41.84511664863464" lon="12.641018546573916"><ele>85.0</ele><time>2026-04-01T13:22:02.999Z</time></trkpt><trkpt lat="41.84493331901958" lon="12.641092330255534"><ele>87.0</ele><time>2026-04-01T13:22:03.999Z</time></trkpt><trkpt lat="41.844750062536114" lon="12.641165182145981"><ele>87.66666666666667</ele><time>2026-04-01T13:22:04.999Z</time></trkpt><trkpt lat="41.84456705591786" lon="12.641237257564764"><ele>88.33333333333334</ele><time>2026-04-01T13:22:05.999Z</time></trkpt><trkpt lat="41.844384216792015" lon="12.641311801642892"><ele>89.0</ele><time>2026-04-01T13:22:06.999Z</time></trkpt><trkpt lat="41.844200559796086" lon="12.641390313231817"><ele>90.0</ele><time>2026-04-01T13:22:07.999Z</time></trkpt><trkpt lat="41.84401667304454" lon="12.641465822385024"><ele>91.0</ele><time>2026-04-01T13:22:08.999Z</time></trkpt><trkpt lat="41.843828537632895" lon="12.641542276079148"><ele>92.0</ele><time>2026-04-01T13:22:09.999Z</time></trkpt><trkpt lat="41.84364356916539" lon="12.641613831488543"><ele>92.0</ele><time>2026-04-01T13:22:10.999Z</time></trkpt><trkpt lat="41.84347090878339" lon="12.641680421033184"><ele>92.0</ele><time>2026-04-01T13:22:11.999Z</time></trkpt><trkpt lat="41.84331629577819" lon="12.64173878541462"><ele>92.0</ele><time>2026-04-01T13:22:12.999Z</time></trkpt><trkpt lat="41.843167709359676" lon="12.641794388407185"><ele>92.25</ele><time>2026-04-01T13:22:13.999Z</time></trkpt><trkpt lat="41.84303072345671" lon="12.641835185189972"><ele>92.5</ele><time>2026-04-01T13:22:14.999Z</time></trkpt><trkpt lat="41.842893434331806" lon="12.641855631281038"><ele>92.75</ele><time>2026-04-01T13:22:15.999Z</time></trkpt><trkpt lat="41.842756645417744" lon="12.641847400906478"><ele>93.0</ele><time>2026-04-01T13:22:16.999Z</time></trkpt><trkpt lat="41.842621211666696" lon="12.641810696742136"><ele>93.0</ele><time>2026-04-01T13:22:17.999Z</time></trkpt><trkpt lat="41.84248964149311" lon="12.641746286621784"><ele>93.0</ele><time>2026-04-01T13:22:18.999Z</time></trkpt><trkpt lat="41.8423636960006" lon="12.641667518804276"><ele>93.0</ele><time>2026-04-01T13:22:19.999Z</time></trkpt><trkpt lat="41.84225021231112" lon="12.641606307833722"><ele>93.0</ele><time>2026-04-01T13:22:20.999Z</time></trkpt><trkpt lat="41.8421446906496" lon="12.641598146975007"><ele>93.0</ele><time>2026-04-01T13:22:21.999Z</time></trkpt><trkpt lat="41.842037733303215" lon="12.641628533206097"><ele>93.0</ele><time>2026-04-01T13:22:22.999Z</time></trkpt><trkpt lat="41.84193274709925" lon="12.641686409641267"><ele>93.0</ele><time>2026-04-01T13:22:23.999Z</time></trkpt><trkpt lat="41.84183769801559" lon="12.641779870069612"><ele>93.0</ele><time>2026-04-01T13:22:24.999Z</time></trkpt><trkpt lat="41.84175653031918" lon="12.64190079735091"><ele>94.25</ele><time>2026-04-01T13:22:25.999Z</time></trkpt><trkpt lat="41.84170191615186" lon="12.64204303006787"><ele>95.5</ele><time>2026-04-01T13:22:26.999Z</time></trkpt><trkpt lat="41.84168262922237" lon="12.642187721961772"><ele>96.75</ele><time>2026-04-01T13:22:27.999Z</time></trkpt><trkpt lat="41.84168104294092" lon="12.642338658783366"><ele>98.0</ele><time>2026-04-01T13:22:28.999Z</time></trkpt><trkpt lat="41.84170569640594" lon="12.642484932028342"><ele>98.0</ele><time>2026-04-01T13:22:29.999Z</time></trkpt><trkpt lat="41.841762052297895" lon="12.642626270903364"><ele>98.0</ele><time>2026-04-01T13:22:30.999Z</time></trkpt><trkpt lat="41.84184156141117" lon="12.64275053506664"><ele>98.0</ele><time>2026-04-01T13:22:31.999Z</time></trkpt><trkpt lat="41.84194157521674" lon="12.64286066544793"><ele>98.0</ele><time>2026-04-01T13:22:32.999Z</time></trkpt><trkpt lat="41.84206797059186" lon="12.642937478939647"><ele>97.0</ele><time>2026-04-01T13:22:33.999Z</time></trkpt><trkpt lat="41.84217749164693" lon="12.643067800320155"><ele>96.0</ele><time>2026-04-01T13:22:34.999Z</time></trkpt><trkpt lat="41.84228192597935" lon="12.64323409272066"><ele>95.0</ele><time>2026-04-01T13:22:35.999Z</time></trkpt><trkpt lat="41.842352632498184" lon="12.643387963484297"><ele>94.0</ele><time>2026-04-01T13:22:36.999Z</time></trkpt><trkpt lat="41.84239651408947" lon="12.643574944649732"><ele>94.66666666666666</ele><time>2026-04-01T13:22:37.999Z</time></trkpt><trkpt lat="41.84244230344542" lon="12.64376549388538"><ele>95.33333333333333</ele><time>2026-04-01T13:22:38.999Z</time></trkpt><trkpt lat="41.842501395745074" lon="12.643961756701085"><ele>96.0</ele><time>2026-04-01T13:22:39.999Z</time></trkpt><trkpt lat="41.84253193685366" lon="12.64417666357274"><ele>96.0</ele><time>2026-04-01T13:22:40.999Z</time></trkpt><trkpt lat="41.842579596249536" lon="12.644378126028727"><ele>96.0</ele><time>2026-04-01T13:22:41.998Z</time></trkpt><trkpt lat="41.842616791659424" lon="12.644558292718758"><ele>96.0</ele><time>2026-04-01T13:22:42.998Z</time></trkpt><trkpt lat="41.84266272986143" lon="12.644739992755738"><ele>96.0</ele><time>2026-04-01T13:22:43.998Z</time></trkpt><trkpt lat="41.84270884348612" lon="12.644920608793138"><ele>96.0</ele><time>2026-04-01T13:22:44.998Z</time></trkpt><trkpt lat="41.84274749369341" lon="12.645102410385794"><ele>96.0</ele><time>2026-04-01T13:22:45.998Z</time></trkpt><trkpt lat="41.842783899124896" lon="12.645289342676303"><ele>96.0</ele><time>2026-04-01T13:22:46.998Z</time></trkpt><trkpt lat="41.8428286283663" lon="12.645474714238842"><ele>96.0</ele><time>2026-04-01T13:22:47.998Z</time></trkpt><trkpt lat="41.84287766596603" lon="12.645664396432737"><ele>97.0</ele><time>2026-04-01T13:22:48.998Z</time></trkpt><trkpt lat="41.842922981406645" lon="12.645853871300327"><ele>98.0</ele><time>2026-04-01T13:22:49.998Z</time></trkpt><trkpt lat="41.84296612295997" lon="12.646053691788909"><ele>99.0</ele><time>2026-04-01T13:22:50.998Z</time></trkpt><trkpt lat="41.84301355718124" lon="12.6462561307385"><ele>99.75</ele><time>2026-04-01T13:22:51.998Z</time></trkpt><trkpt lat="41.84305912749283" lon="12.646445829101872"><ele>100.5</ele><time>2026-04-01T13:22:52.998Z</time></trkpt><trkpt lat="41.8430964838124" lon="12.646616192978142"><ele>101.25</ele><time>2026-04-01T13:22:53.998Z</time></trkpt><trkpt lat="41.843129554457924" lon="12.646778110835951"><ele>102.0</ele><time>2026-04-01T13:22:54.998Z</time></trkpt><trkpt lat="41.84315363729193" lon="12.646929126272948"><ele>103.0</ele><time>2026-04-01T13:22:55.998Z</time></trkpt><trkpt lat="41.84315812992609" lon="12.647088012769464"><ele>104.0</ele><time>2026-04-01T13:22:56.998Z</time></trkpt><trkpt lat="41.84313307732739" lon="12.64725109955884"><ele>105.0</ele><time>2026-04-01T13:22:57.998Z</time></trkpt><trkpt lat="41.84307748058434" lon="12.647405010876472"><ele>106.0</ele><time>2026-04-01T13:22:58.998Z</time></trkpt><trkpt lat="41.84303426598954" lon="12.647567334542853"><ele>106.0</ele><time>2026-04-01T13:22:59.998Z</time></trkpt><trkpt lat="41.842897096837774" lon="12.647667176152718"><ele>106.0</ele><time>2026-04-01T13:23:00.998Z</time></trkpt><trkpt lat="41.842770387434896" lon="12.64774695490099"><ele>106.0</ele><time>2026-04-01T13:23:01.998Z</time></trkpt><trkpt lat="41.84264116864408" lon="12.647808917935304"><ele>106.0</ele><time>2026-04-01T13:23:02.998Z</time></trkpt><trkpt lat="41.84252256691687" lon="12.647888272791535"><ele>105.5</ele><time>2026-04-01T13:23:03.998Z</time></trkpt><trkpt lat="41.84241913996675" lon="12.648002501082022"><ele>105.0</ele><time>2026-04-01T13:23:04.998Z</time></trkpt><trkpt lat="41.842333075946705" lon="12.64813993287852"><ele>104.5</ele><time>2026-04-01T13:23:05.998Z</time></trkpt><trkpt lat="41.842256731537304" lon="12.64828692452679"><ele>104.0</ele><time>2026-04-01T13:23:06.998Z</time></trkpt><trkpt lat="41.84219748229027" lon="12.648437314591705"><ele>104.0</ele><time>2026-04-01T13:23:07.998Z</time></trkpt><trkpt lat="41.842172297038736" lon="12.648568044022493"><ele>104.0</ele><time>2026-04-01T13:23:08.998Z</time></trkpt><trkpt lat="41.84212757893135" lon="12.64866078388592"><ele>104.0</ele><time>2026-04-01T13:23:09.998Z</time></trkpt><trkpt lat="41.84196073798831" lon="12.64876332602779"><ele>104.0</ele><time>2026-04-01T13:23:11.998Z</time></trkpt><trkpt lat="41.84185929693653" lon="12.648774433272976"><ele>103.25</ele><time>2026-04-01T13:23:12.998Z</time></trkpt><trkpt lat="41.84175016044934" lon="12.648765291572795"><ele>102.5</ele><time>2026-04-01T13:23:13.998Z</time></trkpt><trkpt lat="41.84163727556736" lon="12.648756852001828"><ele>101.75</ele><time>2026-04-01T13:23:14.998Z</time></trkpt><trkpt lat="41.841521353470206" lon="12.648747869890455"><ele>101.0</ele><time>2026-04-01T13:23:15.998Z</time></trkpt><trkpt lat="41.84139228478318" lon="12.648730587306988"><ele>101.0</ele><time>2026-04-01T13:23:16.998Z</time></trkpt><trkpt lat="41.84129348288921" lon="12.648717457138693"><ele>101.0</ele><time>2026-04-01T13:23:17.998Z</time></trkpt><trkpt lat="41.84118317133923" lon="12.64869181166493"><ele>101.0</ele><time>2026-04-01T13:23:18.998Z</time></trkpt><trkpt lat="41.84106930946451" lon="12.648681018279328"><ele>101.0</ele><time>2026-04-01T13:23:19.998Z</time></trkpt><trkpt lat="41.84095735626316" lon="12.648671592985533"><ele>101.0</ele><time>2026-04-01T13:23:20.998Z</time></trkpt><trkpt lat="41.840859053581866" lon="12.648663316922924"><ele>100.6</ele><time>2026-04-01T13:23:22Z</time></trkpt><trkpt lat="41.84076869669911" lon="12.648679253301237"><ele>100.19999999999999</ele><time>2026-04-01T13:23:23Z</time></trkpt><trkpt lat="41.84067106998225" lon="12.648676971771552"><ele>99.80000000000001</ele><time>2026-04-01T13:23:24Z</time></trkpt><trkpt lat="41.84057309178333" lon="12.64867997384449"><ele>99.4</ele><time>2026-04-01T13:23:25Z</time></trkpt><trkpt lat="41.84047971264132" lon="12.648694514950737"><ele>99.0</ele><time>2026-04-01T13:23:26Z</time></trkpt><trkpt lat="41.84040838062069" lon="12.648700708483892"><ele>99.0</ele><time>2026-04-01T13:23:27Z</time></trkpt><trkpt lat="41.840287890787366" lon="12.648722949842933"><ele>99.0</ele><time>2026-04-01T13:23:29Z</time></trkpt><trkpt lat="41.84016522610319" lon="12.648764309363688"><ele>99.0</ele><time>2026-04-01T13:23:31Z</time></trkpt><trkpt lat="41.84022034361907" lon="12.649216533225697"><ele>99.0</ele><time>2026-04-01T13:23:34Z</time></trkpt><trkpt lat="41.840265288438296" lon="12.649296593491604"><ele>99.0</ele><time>2026-04-01T13:23:35Z</time></trkpt><trkpt lat="41.84032986406004" lon="12.64937584463841"><ele>99.0</ele><time>2026-04-01T13:23:36Z</time></trkpt><trkpt lat="41.84040744910041" lon="12.649443084434482"><ele>99.0</ele><time>2026-04-01T13:23:37Z</time></trkpt><trkpt lat="41.84049512997699" lon="12.649506402489395"><ele>99.0</ele><time>2026-04-01T13:23:38Z</time></trkpt><trkpt lat="41.840585655223734" lon="12.649580878313696"><ele>98.6</ele><time>2026-04-01T13:23:39Z</time></trkpt><trkpt lat="41.840674079786034" lon="12.649642669395677"><ele>98.2</ele><time>2026-04-01T13:23:40Z</time></trkpt><trkpt lat="41.84076559421085" lon="12.649711587605328"><ele>97.8</ele><time>2026-04-01T13:23:41Z</time></trkpt><trkpt lat="41.84085345907661" lon="12.649773155262665"><ele>97.39999999999999</ele><time>2026-04-01T13:23:42Z</time></trkpt><trkpt lat="41.84093259089923" lon="12.649816916976244"><ele>97.0</ele><time>2026-04-01T13:23:43Z</time></trkpt><trkpt lat="41.840994833056314" lon="12.649861397249833"><ele>97.00000000000001</ele><time>2026-04-01T13:23:44Z</time></trkpt><trkpt lat="41.841048243592354" lon="12.64991599092252"><ele>97.0</ele><time>2026-04-01T13:23:45Z</time></trkpt><trkpt lat="41.8411350998901" lon="12.649990284781289"><ele>97.0</ele><time>2026-04-01T13:23:47Z</time></trkpt><trkpt lat="41.84119414607959" lon="12.650029505257994"><ele>97.0</ele><time>2026-04-01T13:23:49Z</time></trkpt><trkpt lat="41.84124069234362" lon="12.650112511714516"><ele>97.00000000000001</ele><time>2026-04-01T13:23:51Z</time></trkpt><trkpt lat="41.84124679578944" lon="12.650274326515156"><ele>97.0</ele><time>2026-04-01T13:23:53Z</time></trkpt><trkpt lat="41.841255903653625" lon="12.650367020403243"><ele>97.0</ele><time>2026-04-01T13:23:54Z</time></trkpt><trkpt lat="41.841250120635" lon="12.650469358725362"><ele>97.0</ele><time>2026-04-01T13:23:56Z</time></trkpt><trkpt lat="41.84125196202031" lon="12.650607974870834"><ele>97.0</ele><time>2026-04-01T13:23:58Z</time></trkpt><trkpt lat="41.841245156133176" lon="12.650749140594117"><ele>97.0</ele><time>2026-04-01T13:24:00Z</time></trkpt><trkpt lat="41.841198931880896" lon="12.650899278784724"><ele>97.0</ele><time>2026-04-01T13:24:02Z</time></trkpt><trkpt lat="41.841163422696894" lon="12.650976928238824"><ele>97.00000000000001</ele><time>2026-04-01T13:24:02.999Z</time></trkpt><trkpt lat="41.84112250211827" lon="12.65105165847485"><ele>97.0</ele><time>2026-04-01T13:24:03.999Z</time></trkpt><trkpt lat="41.84108065190709" lon="12.651133831155255"><ele>97.0</ele><time>2026-04-01T13:24:04.999Z</time></trkpt><trkpt lat="41.8410468342278" lon="12.651216382048139"><ele>97.0</ele><time>2026-04-01T13:24:05.999Z</time></trkpt><trkpt lat="41.84106377235978" lon="12.651339772435117"><ele>97.00000000000001</ele><time>2026-04-01T13:24:07.999Z</time></trkpt><trkpt lat="41.84117266996342" lon="12.651404476173516"><ele>97.0</ele><time>2026-04-01T13:24:09.999Z</time></trkpt><trkpt lat="41.84123484676049" lon="12.651428589041764"><ele>97.00000000000001</ele><time>2026-04-01T13:24:10.999Z</time></trkpt><trkpt lat="41.8413194225146" lon="12.651389959343375"><ele>97.0</ele><time>2026-04-01T13:24:12.999Z</time></trkpt><trkpt lat="41.841372364021005" lon="12.65129516947864"><ele>97.0</ele><time>2026-04-01T13:24:13.999Z</time></trkpt><trkpt lat="41.841424891881736" lon="12.651200459034168"><ele>97.0</ele><time>2026-04-01T13:24:14.999Z</time></trkpt><trkpt lat="41.841455694170946" lon="12.651118503516994"><ele>97.00000000000001</ele><time>2026-04-01T13:24:15.999Z</time></trkpt><trkpt lat="41.84146952213018" lon="12.650990145901511"><ele>97.0</ele><time>2026-04-01T13:24:17.999Z</time></trkpt><trkpt lat="41.841427938557246" lon="12.650844139567507"><ele>97.00000000000001</ele><time>2026-04-01T13:24:19.999Z</time></trkpt><trkpt lat="41.84136767790781" lon="12.650723809978775"><ele>97.0</ele><time>2026-04-01T13:24:21.999Z</time></trkpt><trkpt lat="41.84134097209229" lon="12.650642887964533"><ele>97.0</ele><time>2026-04-01T13:24:22.999Z</time></trkpt><trkpt lat="41.84131052793547" lon="12.650552962711277"><ele>97.0</ele><time>2026-04-01T13:24:23.999Z</time></trkpt><trkpt lat="41.84128416359942" lon="12.650464350857309"><ele>97.00000000000001</ele><time>2026-04-01T13:24:24.999Z</time></trkpt><trkpt lat="41.84125709775752" lon="12.650349131399482"><ele>97.0</ele><time>2026-04-01T13:24:26.999Z</time></trkpt><trkpt lat="41.841238334011976" lon="12.65025199343598"><ele>97.00000000000001</ele><time>2026-04-01T13:24:28.999Z</time></trkpt><trkpt lat="41.84123259143489" lon="12.650161332778378"><ele>97.0</ele><time>2026-04-01T13:24:29.999Z</time></trkpt><trkpt lat="41.84122292941592" lon="12.650049007889661"><ele>97.0</ele><time>2026-04-01T13:24:30.999Z</time></trkpt><trkpt lat="41.84117681260783" lon="12.649965379897539"><ele>97.0</ele><time>2026-04-01T13:24:31.999Z</time></trkpt><trkpt lat="41.84110897257437" lon="12.64990696499866"><ele>97.00000000000001</ele><time>2026-04-01T13:24:32.999Z</time></trkpt><trkpt lat="41.8410372831757" lon="12.649854262113825"><ele>97.0</ele><time>2026-04-01T13:24:33.999Z</time></trkpt><trkpt lat="41.84093512604342" lon="12.64978155393074"><ele>97.0</ele><time>2026-04-01T13:24:34.999Z</time></trkpt><trkpt lat="41.840858832343436" lon="12.64970116605786"><ele>97.0</ele><time>2026-04-01T13:24:35.999Z</time></trkpt><trkpt lat="41.84074989054714" lon="12.649633627187646"><ele>97.0</ele><time>2026-04-01T13:24:36.999Z</time></trkpt><trkpt lat="41.840631603913145" lon="12.649581429359158"><ele>97.0</ele><time>2026-04-01T13:24:37.999Z</time></trkpt><trkpt lat="41.84051033644302" lon="12.649531394356785"><ele>97.0</ele><time>2026-04-01T13:24:38.999Z</time></trkpt><trkpt lat="41.84038820589428" lon="12.64948436710044"><ele>97.0</ele><time>2026-04-01T13:24:39.999Z</time></trkpt><trkpt lat="41.84026922403962" lon="12.649451386466719"><ele>97.0</ele><time>2026-04-01T13:24:40.999Z</time></trkpt><trkpt lat="41.84014729981503" lon="12.649413063579763"><ele>97.0</ele><time>2026-04-01T13:24:41.999Z</time></trkpt><trkpt lat="41.8400135348705" lon="12.649363636778352"><ele>98.0</ele><time>2026-04-01T13:24:42.999Z</time></trkpt><trkpt lat="41.839890701269375" lon="12.649327317662042"><ele>99.0</ele><time>2026-04-01T13:24:43.999Z</time></trkpt><trkpt lat="41.83979014980395" lon="12.649304961860171"><ele>100.0</ele><time>2026-04-01T13:24:44.999Z</time></trkpt><trkpt lat="41.839693893733546" lon="12.649290449307573"><ele>101.0</ele><time>2026-04-01T13:24:45.999Z</time></trkpt><trkpt lat="41.839602637700324" lon="12.649277028836975"><ele>102.0</ele><time>2026-04-01T13:24:46.999Z</time></trkpt><trkpt lat="41.83953389088746" lon="12.64926772225001"><ele>102.0</ele><time>2026-04-01T13:24:47.999Z</time></trkpt><trkpt lat="41.83943258916219" lon="12.649264045579484"><ele>102.0</ele><time>2026-04-01T13:24:49.999Z</time></trkpt><trkpt lat="41.83932769898163" lon="12.649070970197174"><ele>102.0</ele><time>2026-04-01T13:24:50.999Z</time></trkpt><trkpt lat="41.83926158099379" lon="12.64909784341653"><ele>102.0</ele><time>2026-04-01T13:24:51.999Z</time></trkpt><trkpt lat="41.839185923594925" lon="12.649128593640608"><ele>102.0</ele><time>2026-04-01T13:24:52.999Z</time></trkpt><trkpt lat="41.839113208394984" lon="12.649157446951671"><ele>102.66666666666667</ele><time>2026-04-01T13:24:53.998Z</time></trkpt><trkpt lat="41.83903513799544" lon="12.649187427315704"><ele>103.33333333333334</ele><time>2026-04-01T13:24:54.998Z</time></trkpt><trkpt lat="41.83896708722552" lon="12.649213559978966"><ele>104.0</ele><time>2026-04-01T13:24:55.998Z</time></trkpt><trkpt lat="41.83890514183236" lon="12.649237348058636"><ele>104.66666666666667</ele><time>2026-04-01T13:24:56.998Z</time></trkpt><trkpt lat="41.8388406280272" lon="12.649262120798056"><ele>105.33333333333334</ele><time>2026-04-01T13:24:58.998Z</time></trkpt><trkpt lat="41.83883128858532" lon="12.64940003411497"><ele>106.0</ele><time>2026-04-01T13:25:00.998Z</time></trkpt><trkpt lat="41.83876796340222" lon="12.649344937293169"><ele>106.00000000000001</ele><time>2026-04-01T13:25:03.998Z</time></trkpt><trkpt lat="41.83866654919515" lon="12.649299395935692"><ele>106.0</ele><time>2026-04-01T13:25:06.998Z</time></trkpt><trkpt lat="41.83859252138033" lon="12.64935296839269"><ele>106.0</ele><time>2026-04-01T13:25:07.998Z</time></trkpt><trkpt lat="41.83850804890421" lon="12.649393087788349"><ele>106.0</ele><time>2026-04-01T13:25:08.998Z</time></trkpt><trkpt lat="41.83843694500385" lon="12.64941285942432"><ele>106.00000000000001</ele><time>2026-04-01T13:25:09.998Z</time></trkpt><trkpt lat="41.83836021801498" lon="12.649437566083048"><ele>106.0</ele><time>2026-04-01T13:25:10.998Z</time></trkpt><trkpt lat="41.83828285187473" lon="12.649469275920358"><ele>106.66666666666667</ele><time>2026-04-01T13:25:11.998Z</time></trkpt><trkpt lat="41.83820476513759" lon="12.649507455926344"><ele>107.33333333333334</ele><time>2026-04-01T13:25:12.998Z</time></trkpt><trkpt lat="41.83812249306986" lon="12.64954433794716"><ele>108.0</ele><time>2026-04-01T13:25:13.998Z</time></trkpt><trkpt lat="41.838034289075004" lon="12.649575073344248"><ele>108.66666666666666</ele><time>2026-04-01T13:25:14.998Z</time></trkpt><trkpt lat="41.837949465586725" lon="12.649617038412803"><ele>109.33333333333333</ele><time>2026-04-01T13:25:15.998Z</time></trkpt><trkpt lat="41.83785729625642" lon="12.649658297060585"><ele>110.0</ele><time>2026-04-01T13:25:16.998Z</time></trkpt><trkpt lat="41.83775665957036" lon="12.649685019134349"><ele>110.0</ele><time>2026-04-01T13:25:17.998Z</time></trkpt><trkpt lat="41.837660448789684" lon="12.649719151748291"><ele>110.0</ele><time>2026-04-01T13:25:18.998Z</time></trkpt><trkpt lat="41.837557848009766" lon="12.649763987066315"><ele>110.0</ele><time>2026-04-01T13:25:19.998Z</time></trkpt><trkpt lat="41.83744814050157" lon="12.64980485716602"><ele>110.0</ele><time>2026-04-01T13:25:20.998Z</time></trkpt><trkpt lat="41.83733289347515" lon="12.649839699696749"><ele>110.0</ele><time>2026-04-01T13:25:21.998Z</time></trkpt><trkpt lat="41.83723344987767" lon="12.649878358881473"><ele>110.25</ele><time>2026-04-01T13:25:22.998Z</time></trkpt><trkpt lat="41.837136750227494" lon="12.649919889029817"><ele>110.5</ele><time>2026-04-01T13:25:23.998Z</time></trkpt><trkpt lat="41.83702738577905" lon="12.649960556354921"><ele>110.75</ele><time>2026-04-01T13:25:24.998Z</time></trkpt><trkpt lat="41.83690807678614" lon="12.649998154367584"><ele>111.0</ele><time>2026-04-01T13:25:25.998Z</time></trkpt><trkpt lat="41.83678286146647" lon="12.650045807351475"><ele>112.0</ele><time>2026-04-01T13:25:26.998Z</time></trkpt><trkpt lat="41.83664862478358" lon="12.650103310680116"><ele>113.0</ele><time>2026-04-01T13:25:28Z</time></trkpt><trkpt lat="41.836533750602456" lon="12.650144510893577"><ele>114.0</ele><time>2026-04-01T13:25:29Z</time></trkpt><trkpt lat="41.83641849939858" lon="12.650184177334253"><ele>115.0</ele><time>2026-04-01T13:25:30Z</time></trkpt><trkpt lat="41.8363061886958" lon="12.650227883788775"><ele>115.00000000000001</ele><time>2026-04-01T13:25:31Z</time></trkpt><trkpt lat="41.836199615444066" lon="12.65027283356894"><ele>115.0</ele><time>2026-04-01T13:25:32Z</time></trkpt><trkpt lat="41.83610654824691" lon="12.650310368991967"><ele>115.0</ele><time>2026-04-01T13:25:33Z</time></trkpt><trkpt lat="41.83602135568317" lon="12.650324318117985"><ele>115.0</ele><time>2026-04-01T13:25:34Z</time></trkpt><trkpt lat="41.83595320304488" lon="12.650348384466863"><ele>115.00000000000001</ele><time>2026-04-01T13:25:35Z</time></trkpt><trkpt lat="41.835889484409144" lon="12.650370127612863"><ele>115.0</ele><time>2026-04-01T13:25:36Z</time></trkpt><trkpt lat="41.83582782864662" lon="12.650390943754237"><ele>115.00000000000001</ele><time>2026-04-01T13:25:37Z</time></trkpt><trkpt lat="41.83574746350844" lon="12.650385173034257"><ele>115.0</ele><time>2026-04-01T13:25:39Z</time></trkpt><trkpt lat="41.83573199209377" lon="12.650187980159842"><ele>115.0</ele><time>2026-04-01T13:25:40Z</time></trkpt><trkpt lat="41.83571599730442" lon="12.650090701088747"><ele>115.0</ele><time>2026-04-01T13:25:41Z</time></trkpt><trkpt lat="41.83569870704586" lon="12.649988584786284"><ele>115.00000000000001</ele><time>2026-04-01T13:25:42Z</time></trkpt><trkpt lat="41.83568121706767" lon="12.649906625303238"><ele>115.0</ele><time>2026-04-01T13:25:43Z</time></trkpt><trkpt lat="41.83565052627634" lon="12.649776413746864"><ele>115.0</ele><time>2026-04-01T13:25:45Z</time></trkpt><trkpt lat="41.83564832754496" lon="12.649675362289004"><ele>115.0</ele><time>2026-04-01T13:25:47Z</time></trkpt><trkpt lat="41.83577931576815" lon="12.649490052933745"><ele>115.0</ele><time>2026-04-01T13:25:49Z</time></trkpt><trkpt lat="41.83581781023646" lon="12.649386673160212"><ele>115.0</ele><time>2026-04-01T13:25:50Z</time></trkpt><trkpt lat="41.83584302886509" lon="12.649281748215765"><ele>115.0</ele><time>2026-04-01T13:25:51Z</time></trkpt><trkpt lat="41.83587373006217" lon="12.649178682924028"><ele>115.0</ele><time>2026-04-01T13:25:52Z</time></trkpt><trkpt lat="41.835910934336965" lon="12.649055529919014"><ele>115.0</ele><time>2026-04-01T13:25:53Z</time></trkpt><trkpt lat="41.835951141629586" lon="12.648915397857845"><ele>115.0</ele><time>2026-04-01T13:25:54Z</time></trkpt><trkpt lat="41.83598315455874" lon="12.648747546008014"><ele>115.0</ele><time>2026-04-01T13:25:55Z</time></trkpt><trkpt lat="41.83601918196578" lon="12.648563516031555"><ele>114.0</ele><time>2026-04-01T13:25:56Z</time></trkpt><trkpt lat="41.83605774010156" lon="12.648409299304445"><ele>113.0</ele><time>2026-04-01T13:25:57Z</time></trkpt><trkpt lat="41.836096940132926" lon="12.64826554687575"><ele>112.0</ele><time>2026-04-01T13:25:58Z</time></trkpt><trkpt lat="41.83612932236793" lon="12.648108428462786"><ele>111.0</ele><time>2026-04-01T13:25:59Z</time></trkpt><trkpt lat="41.836151552355325" lon="12.647955306614264"><ele>111.0</ele><time>2026-04-01T13:26:00Z</time></trkpt><trkpt lat="41.836178945739675" lon="12.647810740133128"><ele>111.0</ele><time>2026-04-01T13:26:01Z</time></trkpt><trkpt lat="41.836211394983174" lon="12.64766760011234"><ele>111.0</ele><time>2026-04-01T13:26:02Z</time></trkpt><trkpt lat="41.83624420383298" lon="12.647519558225031"><ele>111.0</ele><time>2026-04-01T13:26:03Z</time></trkpt><trkpt lat="41.83628104896295" lon="12.647388817590114"><ele>111.0</ele><time>2026-04-01T13:26:04Z</time></trkpt><trkpt lat="41.83632357460482" lon="12.647280543833192"><ele>110.8</ele><time>2026-04-01T13:26:05Z</time></trkpt><trkpt lat="41.83636815017245" lon="12.647172172529311"><ele>110.6</ele><time>2026-04-01T13:26:06Z</time></trkpt><trkpt lat="41.83640633791582" lon="12.64706525241069"><ele>110.4</ele><time>2026-04-01T13:26:07Z</time></trkpt><trkpt lat="41.836438529195256" lon="12.64697678642808"><ele>110.2</ele><time>2026-04-01T13:26:08Z</time></trkpt><trkpt lat="41.83648875007075" lon="12.646832953486571"><ele>110.0</ele><time>2026-04-01T13:26:09.999Z</time></trkpt><trkpt lat="41.83650994871223" lon="12.646718529820891"><ele>109.33333333333333</ele><time>2026-04-01T13:26:11.999Z</time></trkpt><trkpt lat="41.83649633275176" lon="12.64662743403036"><ele>108.66666666666666</ele><time>2026-04-01T13:26:38.999Z</time></trkpt><trkpt lat="41.836426983192354" lon="12.646599155996569"><ele>108.0</ele><time>2026-04-01T13:26:40.999Z</time></trkpt><trkpt lat="41.83632880900817" lon="12.646569465916757"><ele>107.33333333333334</ele><time>2026-04-01T13:26:42.999Z</time></trkpt><trkpt lat="41.83624591933696" lon="12.646584990610705"><ele>106.66666666666667</ele><time>2026-04-01T13:26:44.999Z</time></trkpt><trkpt lat="41.83618358362051" lon="12.646518541960983"><ele>106.0</ele><time>2026-04-01T13:26:47.999Z</time></trkpt><trkpt lat="41.83616336594794" lon="12.646399503519985"><ele>106.00000000000001</ele><time>2026-04-01T13:26:49.999Z</time></trkpt><trkpt lat="41.83613742679515" lon="12.646313988283394"><ele>106.0</ele><time>2026-04-01T13:26:51.999Z</time></trkpt><trkpt lat="41.836113469547605" lon="12.646215119392417"><ele>106.0</ele><time>2026-04-01T13:26:54.999Z</time></trkpt><trkpt lat="41.836058500500634" lon="12.646136385534815"><ele>106.0</ele><time>2026-04-01T13:26:57.998Z</time></trkpt><trkpt lat="41.83596132118381" lon="12.646190339983027"><ele>106.00000000000001</ele><time>2026-04-01T13:26:59.998Z</time></trkpt><trkpt lat="41.835919109155796" lon="12.646256394511473"><ele>106.0</ele><time>2026-04-01T13:27:00.998Z</time></trkpt><trkpt lat="41.835879084297716" lon="12.646361102903436"><ele>105.8</ele><time>2026-04-01T13:27:01.998Z</time></trkpt><trkpt lat="41.83583440011612" lon="12.646450464010025"><ele>105.6</ele><time>2026-04-01T13:27:02.998Z</time></trkpt><trkpt lat="41.83578408984259" lon="12.646542390361558"><ele>105.4</ele><time>2026-04-01T13:27:03.998Z</time></trkpt><trkpt lat="41.83570975303045" lon="12.646636821149956"><ele>105.2</ele><time>2026-04-01T13:27:04.998Z</time></trkpt><trkpt lat="41.83563712627755" lon="12.646720604787614"><ele>105.0</ele><time>2026-04-01T13:27:05.998Z</time></trkpt><trkpt lat="41.83556591366441" lon="12.646806130080861"><ele>105.0</ele><time>2026-04-01T13:27:06.998Z</time></trkpt><trkpt lat="41.835504645050065" lon="12.646893528693864"><ele>105.0</ele><time>2026-04-01T13:27:07.998Z</time></trkpt><trkpt lat="41.83546177282111" lon="12.647007623261034"><ele>105.0</ele><time>2026-04-01T13:27:08.998Z</time></trkpt><trkpt lat="41.835425497714894" lon="12.647126422376745"><ele>105.0</ele><time>2026-04-01T13:27:09.998Z</time></trkpt><trkpt lat="41.83540186665021" lon="12.64721458742843"><ele>105.0</ele><time>2026-04-01T13:27:10.998Z</time></trkpt><trkpt lat="41.83534810264217" lon="12.647372048528675"><ele>105.83333333333333</ele><time>2026-04-01T13:27:12.998Z</time></trkpt><trkpt lat="41.83531557461952" lon="12.647453298248667"><ele>106.66666666666666</ele><time>2026-04-01T13:27:13.998Z</time></trkpt><trkpt lat="41.83529096239216" lon="12.647539110358256"><ele>107.5</ele><time>2026-04-01T13:27:14.998Z</time></trkpt><trkpt lat="41.83525203238141" lon="12.647653827908218"><ele>108.33333333333333</ele><time>2026-04-01T13:27:16.998Z</time></trkpt><trkpt lat="41.83520108891147" lon="12.647767496632612"><ele>109.16666666666666</ele><time>2026-04-01T13:27:18.998Z</time></trkpt><trkpt lat="41.835160975334745" lon="12.647863201679746"><ele>110.0</ele><time>2026-04-01T13:27:20.998Z</time></trkpt><trkpt lat="41.83511361179173" lon="12.647972623884472"><ele>109.99999999999999</ele><time>2026-04-01T13:27:22.998Z</time></trkpt><trkpt lat="41.83507371128135" lon="12.648047401285918"><ele>110.0</ele><time>2026-04-01T13:27:24.998Z</time></trkpt><trkpt lat="41.835131706302796" lon="12.647965388902831"><ele>110.0</ele><time>2026-04-01T13:27:35Z</time></trkpt><trkpt lat="41.835169611576354" lon="12.647847950779877"><ele>110.0</ele><time>2026-04-01T13:27:37Z</time></trkpt><trkpt lat="41.835213809273114" lon="12.64775641261483"><ele>109.99999999999999</ele><time>2026-04-01T13:27:39Z</time></trkpt><trkpt lat="41.83526035158513" lon="12.647654933714469"><ele>110.0</ele><time>2026-04-01T13:27:42Z</time></trkpt><trkpt lat="41.83530142965322" lon="12.647520811628718"><ele>110.0</ele><time>2026-04-01T13:27:44Z</time></trkpt><trkpt lat="41.83534730980128" lon="12.647384951190006"><ele>110.0</ele><time>2026-04-01T13:27:46Z</time></trkpt><trkpt lat="41.83537320364165" lon="12.647302611417294"><ele>110.0</ele><time>2026-04-01T13:27:47Z</time></trkpt><trkpt lat="41.83528809171088" lon="12.64716442932071"><ele>110.0</ele><time>2026-04-01T13:27:48Z</time></trkpt><trkpt lat="41.83533467406823" lon="12.647036347657503"><ele>110.0</ele><time>2026-04-01T13:27:50Z</time></trkpt><trkpt lat="41.83538217701134" lon="12.646905734774249"><ele>109.0</ele><time>2026-04-01T13:27:52Z</time></trkpt><trkpt lat="41.835422201727106" lon="12.646795683827499"><ele>108.0</ele><time>2026-04-01T13:27:54Z</time></trkpt><trkpt lat="41.83545309809765" lon="12.64671073196325"><ele>107.0</ele><time>2026-04-01T13:27:56Z</time></trkpt><trkpt lat="41.83548598318986" lon="12.646620311910876"><ele>106.0</ele><time>2026-04-01T13:27:58Z</time></trkpt><trkpt lat="41.835684222183666" lon="12.64669644915726"><ele>105.0</ele><time>2026-04-01T13:28:01Z</time></trkpt><trkpt lat="41.83573233252188" lon="12.64664031092292"><ele>105.0</ele><time>2026-04-01T13:28:25.999Z</time></trkpt><trkpt lat="41.83578023585447" lon="12.646514605781496"><ele>105.0</ele><time>2026-04-01T13:28:27.999Z</time></trkpt><trkpt lat="41.835832214194106" lon="12.646426744905904"><ele>105.0</ele><time>2026-04-01T13:28:29.999Z</time></trkpt><trkpt lat="41.835890750390604" lon="12.646389866702336"><ele>105.0</ele><time>2026-04-01T13:28:50.999Z</time></trkpt><trkpt lat="41.83597494807679" lon="12.646428090891916"><ele>105.0</ele><time>2026-04-01T13:28:52.999Z</time></trkpt><trkpt lat="41.836049104844655" lon="12.646465222296412"><ele>105.0</ele><time>2026-04-01T13:28:54.999Z</time></trkpt><trkpt lat="41.836143883269145" lon="12.646521529384502"><ele>105.16666666666667</ele><time>2026-04-01T13:28:56.999Z</time></trkpt><trkpt lat="41.83621703019158" lon="12.646583304774751"><ele>105.33333333333334</ele><time>2026-04-01T13:28:58.999Z</time></trkpt><trkpt lat="41.83630765799737" lon="12.646608262579525"><ele>105.5</ele><time>2026-04-01T13:29:00.998Z</time></trkpt><trkpt lat="41.83640007602259" lon="12.646602206834432"><ele>105.66666666666667</ele><time>2026-04-01T13:29:02.998Z</time></trkpt><trkpt lat="41.836458075058246" lon="12.646637883004592"><ele>105.83333333333334</ele><time>2026-04-01T13:29:04.998Z</time></trkpt><trkpt lat="41.83649181130318" lon="12.646736855863116"><ele>106.0</ele><time>2026-04-01T13:29:07.998Z</time></trkpt><trkpt lat="41.83644387093681" lon="12.646907859895546"><ele>106.66666666666667</ele><time>2026-04-01T13:29:09.998Z</time></trkpt><trkpt lat="41.836425514751106" lon="12.646994362563976"><ele>107.33333333333334</ele><time>2026-04-01T13:29:10.998Z</time></trkpt><trkpt lat="41.836415905031046" lon="12.647106055809692"><ele>108.0</ele><time>2026-04-01T13:29:11.998Z</time></trkpt><trkpt lat="41.836392945909296" lon="12.647203929223588"><ele>108.66666666666666</ele><time>2026-04-01T13:29:12.998Z</time></trkpt><trkpt lat="41.83635669463759" lon="12.647317067610759"><ele>109.33333333333333</ele><time>2026-04-01T13:29:13.998Z</time></trkpt><trkpt lat="41.836315230871215" lon="12.647441068227229"><ele>110.0</ele><time>2026-04-01T13:29:14.998Z</time></trkpt><trkpt lat="41.836268018722826" lon="12.64757403466292"><ele>110.0</ele><time>2026-04-01T13:29:15.998Z</time></trkpt><trkpt lat="41.83622088761957" lon="12.647707914416088"><ele>110.0</ele><time>2026-04-01T13:29:16.998Z</time></trkpt><trkpt lat="41.836186327481286" lon="12.647850454806798"><ele>110.0</ele><time>2026-04-01T13:29:17.998Z</time></trkpt><trkpt lat="41.836156515525474" lon="12.64799640869263"><ele>110.0</ele><time>2026-04-01T13:29:18.998Z</time></trkpt><trkpt lat="41.83612749191547" lon="12.648141062469112"><ele>110.0</ele><time>2026-04-01T13:29:19.998Z</time></trkpt><trkpt lat="41.836096827338146" lon="12.648277005783243"><ele>110.2</ele><time>2026-04-01T13:29:20.998Z</time></trkpt><trkpt lat="41.8360655004773" lon="12.648411839596399"><ele>110.4</ele><time>2026-04-01T13:29:21.998Z</time></trkpt><trkpt lat="41.83603602403183" lon="12.648546259979307"><ele>110.6</ele><time>2026-04-01T13:29:22.998Z</time></trkpt><trkpt lat="41.836006927455806" lon="12.648681703310043"><ele>110.8</ele><time>2026-04-01T13:29:23.998Z</time></trkpt><trkpt lat="41.8359820932169" lon="12.648805942135832"><ele>111.0</ele><time>2026-04-01T13:29:24.998Z</time></trkpt><trkpt lat="41.835958736832495" lon="12.648932911536207"><ele>111.19999999999999</ele><time>2026-04-01T13:29:25.998Z</time></trkpt><trkpt lat="41.835937383973075" lon="12.649061454015115"><ele>111.39999999999999</ele><time>2026-04-01T13:29:26.998Z</time></trkpt><trkpt lat="41.8359103901479" lon="12.649186734526555"><ele>111.6</ele><time>2026-04-01T13:29:27.998Z</time></trkpt><trkpt lat="41.835883977692916" lon="12.649316687293117"><ele>111.8</ele><time>2026-04-01T13:29:28.998Z</time></trkpt><trkpt lat="41.83585627760828" lon="12.649431046653074"><ele>112.0</ele><time>2026-04-01T13:29:29.998Z</time></trkpt><trkpt lat="41.835824526306766" lon="12.649512787994466"><ele>112.50000000000001</ele><time>2026-04-01T13:29:30.998Z</time></trkpt><trkpt lat="41.83577368519439" lon="12.64960334983192"><ele>113.0</ele><time>2026-04-01T13:29:32.998Z</time></trkpt><trkpt lat="41.83571996518426" lon="12.649658773941816"><ele>113.5</ele><time>2026-04-01T13:29:35.998Z</time></trkpt><trkpt lat="41.835664943844776" lon="12.649739064365537"><ele>114.0</ele><time>2026-04-01T13:29:38.998Z</time></trkpt><trkpt lat="41.83563002511184" lon="12.649849603053596"><ele>114.50000000000001</ele><time>2026-04-01T13:29:41Z</time></trkpt><trkpt lat="41.835631364463005" lon="12.649946259407882"><ele>115.0</ele><time>2026-04-01T13:29:42Z</time></trkpt><trkpt lat="41.83564745410761" lon="12.650045340889363"><ele>115.00000000000001</ele><time>2026-04-01T13:29:43Z</time></trkpt><trkpt lat="41.83567331269315" lon="12.650143359622994"><ele>115.0</ele><time>2026-04-01T13:29:44Z</time></trkpt><trkpt lat="41.835694211149956" lon="12.650227503436868"><ele>115.0</ele><time>2026-04-01T13:29:45Z</time></trkpt><trkpt lat="41.83572086585832" lon="12.65035036699159"><ele>115.0</ele><time>2026-04-01T13:29:47Z</time></trkpt><trkpt lat="41.83579646145675" lon="12.650454165570292"><ele>115.00000000000001</ele><time>2026-04-01T13:29:49Z</time></trkpt><trkpt lat="41.835861186119374" lon="12.650443006291797"><ele>115.0</ele><time>2026-04-01T13:29:50Z</time></trkpt><trkpt lat="41.83593657826536" lon="12.650401961894342"><ele>114.99999999999999</ele><time>2026-04-01T13:29:51Z</time></trkpt><trkpt lat="41.836009752950105" lon="12.650376082096036"><ele>115.0</ele><time>2026-04-01T13:29:52Z</time></trkpt><trkpt lat="41.83607201209796" lon="12.650357579871516"><ele>114.99999999999999</ele><time>2026-04-01T13:29:53Z</time></trkpt><trkpt lat="41.83613548240954" lon="12.650333901761327"><ele>114.99999999999999</ele><time>2026-04-01T13:29:54Z</time></trkpt><trkpt lat="41.836204857659965" lon="12.650302303679844"><ele>115.0</ele><time>2026-04-01T13:29:55Z</time></trkpt><trkpt lat="41.83627991784714" lon="12.650268796045701"><ele>114.99999999999999</ele><time>2026-04-01T13:29:56Z</time></trkpt><trkpt lat="41.836360545977" lon="12.650237989275848"><ele>114.99999999999999</ele><time>2026-04-01T13:29:57Z</time></trkpt><trkpt lat="41.836447117972234" lon="12.650208663012767"><ele>115.0</ele><time>2026-04-01T13:29:58Z</time></trkpt><trkpt lat="41.83654007980918" lon="12.65017866837416"><ele>115.0</ele><time>2026-04-01T13:29:59Z</time></trkpt><trkpt lat="41.83663717437649" lon="12.650139005240666"><ele>115.0</ele><time>2026-04-01T13:30:00Z</time></trkpt><trkpt lat="41.83674423025931" lon="12.650092926304128"><ele>115.0</ele><time>2026-04-01T13:30:01Z</time></trkpt><trkpt lat="41.836862214546855" lon="12.650045202614475"><ele>115.0</ele><time>2026-04-01T13:30:02Z</time></trkpt><trkpt lat="41.83698110654079" lon="12.649992354070081"><ele>114.0</ele><time>2026-04-01T13:30:03Z</time></trkpt><trkpt lat="41.83710032513455" lon="12.649976474435638"><ele>113.0</ele><time>2026-04-01T13:30:04Z</time></trkpt><trkpt lat="41.83721963638424" lon="12.649930839711628"><ele>112.0</ele><time>2026-04-01T13:30:05Z</time></trkpt><trkpt lat="41.8373436608705" lon="12.649869422856073"><ele>111.0</ele><time>2026-04-01T13:30:06Z</time></trkpt><trkpt lat="41.83745655397084" lon="12.649833709862094"><ele>111.0</ele><time>2026-04-01T13:30:07Z</time></trkpt><trkpt lat="41.83753368188935" lon="12.649801773443546"><ele>111.0</ele><time>2026-04-01T13:30:08Z</time></trkpt><trkpt lat="41.83762450299565" lon="12.649780064904451"><ele>111.0</ele><time>2026-04-01T13:30:10Z</time></trkpt><trkpt lat="41.83771171840403" lon="12.649759211289966"><ele>111.0</ele><time>2026-04-01T13:30:13Z</time></trkpt><trkpt lat="41.83780893388419" lon="12.649704576655317"><ele>111.0</ele><time>2026-04-01T13:30:15Z</time></trkpt><trkpt lat="41.83787682791019" lon="12.649678509379548"><ele>111.0</ele><time>2026-04-01T13:30:15.999Z</time></trkpt><trkpt lat="41.837952462975586" lon="12.64964947000129"><ele>110.83333333333333</ele><time>2026-04-01T13:30:16.999Z</time></trkpt><trkpt lat="41.838029164278836" lon="12.649603615042356"><ele>110.66666666666666</ele><time>2026-04-01T13:30:17.999Z</time></trkpt><trkpt lat="41.83810633749459" lon="12.649580571078658"><ele>110.5</ele><time>2026-04-01T13:30:18.999Z</time></trkpt><trkpt lat="41.8381791108218" lon="12.649551109289906"><ele>110.33333333333333</ele><time>2026-04-01T13:30:19.999Z</time></trkpt><trkpt lat="41.83825996608133" lon="12.64951814116724"><ele>110.16666666666666</ele><time>2026-04-01T13:30:20.999Z</time></trkpt><trkpt lat="41.83832947339654" lon="12.64950171694426"><ele>110.0</ele><time>2026-04-01T13:30:21.999Z</time></trkpt><trkpt lat="41.83840841962158" lon="12.649482510402782"><ele>109.2</ele><time>2026-04-01T13:30:22.999Z</time></trkpt><trkpt lat="41.83849040102319" lon="12.649467190305408"><ele>108.4</ele><time>2026-04-01T13:30:23.999Z</time></trkpt><trkpt lat="41.83855920062322" lon="12.649405757824287"><ele>107.6</ele><time>2026-04-01T13:30:24.999Z</time></trkpt><trkpt lat="41.83864876819285" lon="12.649382130118035"><ele>106.8</ele><time>2026-04-01T13:30:25.999Z</time></trkpt><trkpt lat="41.83874408876391" lon="12.649345532672859"><ele>106.0</ele><time>2026-04-01T13:30:26.999Z</time></trkpt><trkpt lat="41.83883225318511" lon="12.649295737806401"><ele>106.00000000000001</ele><time>2026-04-01T13:30:27.999Z</time></trkpt><trkpt lat="41.83893156830988" lon="12.64925921341907"><ele>106.0</ele><time>2026-04-01T13:30:28.999Z</time></trkpt><trkpt lat="41.83901241403405" lon="12.649223922486813"><ele>106.0</ele><time>2026-04-01T13:30:29.999Z</time></trkpt><trkpt lat="41.839087938950904" lon="12.64919706305001"><ele>106.0</ele><time>2026-04-01T13:30:30.999Z</time></trkpt><trkpt lat="41.839166396745604" lon="12.649162259130325"><ele>106.00000000000001</ele><time>2026-04-01T13:30:31.999Z</time></trkpt><trkpt lat="41.839238772982746" lon="12.649126364017574"><ele>106.0</ele><time>2026-04-01T13:30:32.999Z</time></trkpt><trkpt lat="41.83930077352494" lon="12.649094701578685"><ele>105.33333333333334</ele><time>2026-04-01T13:30:33.999Z</time></trkpt><trkpt lat="41.83942151828045" lon="12.649060754189405"><ele>104.66666666666667</ele><time>2026-04-01T13:30:35.999Z</time></trkpt><trkpt lat="41.839495806116396" lon="12.649032305278382"><ele>104.0</ele><time>2026-04-01T13:30:36.999Z</time></trkpt><trkpt lat="41.83957951315731" lon="12.64900049495458"><ele>103.33333333333334</ele><time>2026-04-01T13:30:37.999Z</time></trkpt><trkpt lat="41.8396590770451" lon="12.648975820266008"><ele>102.66666666666667</ele><time>2026-04-01T13:30:38.999Z</time></trkpt><trkpt lat="41.839731947147904" lon="12.648955870540183"><ele>102.0</ele><time>2026-04-01T13:30:39.999Z</time></trkpt><trkpt lat="41.839800289910585" lon="12.648929795950158"><ele>102.0</ele><time>2026-04-01T13:30:40.999Z</time></trkpt><trkpt lat="41.83986706034174" lon="12.648894309013132"><ele>102.0</ele><time>2026-04-01T13:30:41.999Z</time></trkpt><trkpt lat="41.83994485176301" lon="12.648865465822002"><ele>102.0</ele><time>2026-04-01T13:30:42.999Z</time></trkpt><trkpt lat="41.8400250622879" lon="12.648860323954194"><ele>102.0</ele><time>2026-04-01T13:30:43.999Z</time></trkpt><trkpt lat="41.840089689838535" lon="12.648852235847551"><ele>102.0</ele><time>2026-04-01T13:30:44.999Z</time></trkpt><trkpt lat="41.84019887668307" lon="12.64881956689617"><ele>102.0</ele><time>2026-04-01T13:30:46.999Z</time></trkpt><trkpt lat="41.840258229822716" lon="12.648773891200955"><ele>101.5</ele><time>2026-04-01T13:30:48.999Z</time></trkpt><trkpt lat="41.84033368174212" lon="12.648791804224334"><ele>101.0</ele><time>2026-04-01T13:30:50.999Z</time></trkpt><trkpt lat="41.84040158946927" lon="12.648882208410546"><ele>100.5</ele><time>2026-04-01T13:30:52.999Z</time></trkpt><trkpt lat="41.84044455407276" lon="12.64896217296254"><ele>100.0</ele><time>2026-04-01T13:30:53.999Z</time></trkpt><trkpt lat="41.84054614601056" lon="12.649062940974593"><ele>99.5</ele><time>2026-04-01T13:30:55.999Z</time></trkpt><trkpt lat="41.84059874916774" lon="12.649126813766651"><ele>99.0</ele><time>2026-04-01T13:30:56.999Z</time></trkpt><trkpt lat="41.84064941477995" lon="12.649197737079275"><ele>99.0</ele><time>2026-04-01T13:30:57.999Z</time></trkpt><trkpt lat="41.840701107388135" lon="12.649262914814582"><ele>99.0</ele><time>2026-04-01T13:30:58.999Z</time></trkpt><trkpt lat="41.84076799795432" lon="12.649322764478464"><ele>99.0</ele><time>2026-04-01T13:30:59.999Z</time></trkpt><trkpt lat="41.840848799479126" lon="12.649389522799536"><ele>99.0</ele><time>2026-04-01T13:31:00.999Z</time></trkpt><trkpt lat="41.84094179340681" lon="12.64945862834353"><ele>99.0</ele><time>2026-04-01T13:31:01.999Z</time></trkpt><trkpt lat="41.84100446812204" lon="12.649511668608021"><ele>99.0</ele><time>2026-04-01T13:31:02.998Z</time></trkpt><trkpt lat="41.84105810696175" lon="12.649567647601613"><ele>98.5</ele><time>2026-04-01T13:31:03.998Z</time></trkpt><trkpt lat="41.84110632616364" lon="12.64964096136683"><ele>98.0</ele><time>2026-04-01T13:31:04.998Z</time></trkpt><trkpt lat="41.84116511745179" lon="12.649701717142674"><ele>97.5</ele><time>2026-04-01T13:31:05.998Z</time></trkpt><trkpt lat="41.84124615678179" lon="12.649761298300307"><ele>97.0</ele><time>2026-04-01T13:31:06.998Z</time></trkpt><trkpt lat="41.84133361362103" lon="12.649813350874417"><ele>96.5</ele><time>2026-04-01T13:31:07.998Z</time></trkpt><trkpt lat="41.841426344470044" lon="12.649860078694246"><ele>96.0</ele><time>2026-04-01T13:31:08.998Z</time></trkpt><trkpt lat="41.841527431693535" lon="12.64990365455082"><ele>96.0</ele><time>2026-04-01T13:31:09.998Z</time></trkpt><trkpt lat="41.84161100758154" lon="12.649961585593887"><ele>96.0</ele><time>2026-04-01T13:31:10.998Z</time></trkpt><trkpt lat="41.841669487561724" lon="12.650028523836703"><ele>96.0</ele><time>2026-04-01T13:31:11.998Z</time></trkpt><trkpt lat="41.84175391788984" lon="12.650101394612419"><ele>96.0</ele><time>2026-04-01T13:31:13.998Z</time></trkpt><trkpt lat="41.84183293651295" lon="12.65012212816699"><ele>96.0</ele><time>2026-04-01T13:31:15.998Z</time></trkpt><trkpt lat="41.841953901640025" lon="12.650124875953727"><ele>95.19999999999999</ele><time>2026-04-01T13:31:17.998Z</time></trkpt><trkpt lat="41.842041217377684" lon="12.650136768496028"><ele>94.39999999999999</ele><time>2026-04-01T13:31:18.998Z</time></trkpt><trkpt lat="41.84210896543599" lon="12.650142949588854"><ele>93.6</ele><time>2026-04-01T13:31:19.998Z</time></trkpt><trkpt lat="41.842225773573404" lon="12.650149642806108"><ele>92.8</ele><time>2026-04-01T13:31:21.998Z</time></trkpt><trkpt lat="41.842334135684276" lon="12.650175935118101"><ele>92.0</ele><time>2026-04-01T13:31:23.998Z</time></trkpt><trkpt lat="41.84240808780681" lon="12.650167390090665"><ele>92.0</ele><time>2026-04-01T13:31:24.998Z</time></trkpt><trkpt lat="41.84248932274941" lon="12.650151470055134"><ele>92.0</ele><time>2026-04-01T13:31:25.998Z</time></trkpt><trkpt lat="41.84256116054898" lon="12.650133499816972"><ele>92.0</ele><time>2026-04-01T13:31:26.998Z</time></trkpt><trkpt lat="41.84263820590496" lon="12.650131472962203"><ele>92.0</ele><time>2026-04-01T13:31:27.998Z</time></trkpt><trkpt lat="41.842716395121144" lon="12.650134137132147"><ele>92.0</ele><time>2026-04-01T13:31:28.998Z</time></trkpt><trkpt lat="41.84279630540493" lon="12.650151196278506"><ele>92.0</ele><time>2026-04-01T13:31:29.998Z</time></trkpt><trkpt lat="41.84289291244906" lon="12.650177076253774"><ele>92.6</ele><time>2026-04-01T13:31:30.998Z</time></trkpt><trkpt lat="41.84300004482383" lon="12.65017612743068"><ele>93.19999999999999</ele><time>2026-04-01T13:31:31.998Z</time></trkpt><trkpt lat="41.8431158660173" lon="12.650172220950648"><ele>93.8</ele><time>2026-04-01T13:31:32.998Z</time></trkpt><trkpt lat="41.843225905315556" lon="12.650178773270785"><ele>94.4</ele><time>2026-04-01T13:31:33.998Z</time></trkpt><trkpt lat="41.843335090377366" lon="12.650170218657282"><ele>95.0</ele><time>2026-04-01T13:31:34.998Z</time></trkpt><trkpt lat="41.84343714223817" lon="12.650149530207335"><ele>94.33333333333334</ele><time>2026-04-01T13:31:35.998Z</time></trkpt><trkpt lat="41.84353455115483" lon="12.650117927193698"><ele>93.66666666666667</ele><time>2026-04-01T13:31:36.998Z</time></trkpt><trkpt lat="41.84362899769678" lon="12.650069518780432"><ele>93.0</ele><time>2026-04-01T13:31:37.998Z</time></trkpt><trkpt lat="41.84370381825943" lon="12.65003302424964"><ele>92.33333333333333</ele><time>2026-04-01T13:31:38.998Z</time></trkpt><trkpt lat="41.84379813718437" lon="12.650007616991308"><ele>91.66666666666666</ele><time>2026-04-01T13:31:40.998Z</time></trkpt><trkpt lat="41.843739241123295" lon="12.650046777807308"><ele>91.0</ele><time>2026-04-01T13:31:59Z</time></trkpt><trkpt lat="41.84361376496967" lon="12.650038592617387"><ele>91.0</ele><time>2026-04-01T13:32:01Z</time></trkpt><trkpt lat="41.84354795851336" lon="12.649998909275483"><ele>91.0</ele><time>2026-04-01T13:32:02Z</time></trkpt><trkpt lat="41.84348477015921" lon="12.64993448345062"><ele>91.0</ele><time>2026-04-01T13:32:03Z</time></trkpt><trkpt lat="41.84343534099045" lon="12.649824663636883"><ele>91.0</ele><time>2026-04-01T13:32:04Z</time></trkpt><trkpt lat="41.84340413980028" lon="12.649718362593676"><ele>91.0</ele><time>2026-04-01T13:32:05Z</time></trkpt><trkpt lat="41.84336705398611" lon="12.649616023141245"><ele>91.0</ele><time>2026-04-01T13:32:06Z</time></trkpt><trkpt lat="41.84333506457283" lon="12.649471494287182"><ele>92.0</ele><time>2026-04-01T13:32:07Z</time></trkpt><trkpt lat="41.84330272734877" lon="12.649339840124036"><ele>93.0</ele><time>2026-04-01T13:32:08Z</time></trkpt><trkpt lat="41.84326833273455" lon="12.649219999835209"><ele>94.0</ele><time>2026-04-01T13:32:09Z</time></trkpt><trkpt lat="41.84323912553662" lon="12.649094915996967"><ele>95.0</ele><time>2026-04-01T13:32:10Z</time></trkpt><trkpt lat="41.84321489131059" lon="12.6489672525329"><ele>96.0</ele><time>2026-04-01T13:32:11Z</time></trkpt><trkpt lat="41.843186918082495" lon="12.648832340712481"><ele>96.0</ele><time>2026-04-01T13:32:12Z</time></trkpt><trkpt lat="41.84315967468745" lon="12.648685608963438"><ele>96.0</ele><time>2026-04-01T13:32:13Z</time></trkpt><trkpt lat="41.84313726456574" lon="12.648549109704323"><ele>96.0</ele><time>2026-04-01T13:32:14Z</time></trkpt><trkpt lat="41.8431176362206" lon="12.648430188711197"><ele>96.0</ele><time>2026-04-01T13:32:15Z</time></trkpt><trkpt lat="41.84310571332684" lon="12.648336965001826"><ele>96.0</ele><time>2026-04-01T13:32:16Z</time></trkpt><trkpt lat="41.84310173617256" lon="12.648241350082472"><ele>96.0</ele><time>2026-04-01T13:32:16.999Z</time></trkpt><trkpt lat="41.84307592732508" lon="12.648098332696666"><ele>96.8</ele><time>2026-04-01T13:32:18.999Z</time></trkpt><trkpt lat="41.84297469707478" lon="12.64807306337693"><ele>97.6</ele><time>2026-04-01T13:32:20.999Z</time></trkpt><trkpt lat="41.84291230794606" lon="12.648148329882313"><ele>98.4</ele><time>2026-04-01T13:32:21.999Z</time></trkpt><trkpt lat="41.842877311802184" lon="12.648252404130766"><ele>99.2</ele><time>2026-04-01T13:32:22.999Z</time></trkpt><trkpt lat="41.8428738482756" lon="12.648394554657026"><ele>100.0</ele><time>2026-04-01T13:32:23.999Z</time></trkpt><trkpt lat="41.84289180383807" lon="12.648527025415316"><ele>100.00000000000001</ele><time>2026-04-01T13:32:24.999Z</time></trkpt><trkpt lat="41.84290491356832" lon="12.648625762165647"><ele>100.0</ele><time>2026-04-01T13:32:25.999Z</time></trkpt><trkpt lat="41.84291842440287" lon="12.648720608465224"><ele>100.0</ele><time>2026-04-01T13:32:26.999Z</time></trkpt><trkpt lat="41.84293988787732" lon="12.64880911505353"><ele>100.0</ele><time>2026-04-01T13:32:27.999Z</time></trkpt><trkpt lat="41.84297891033828" lon="12.648965950826057"><ele>100.00000000000001</ele><time>2026-04-01T13:32:29.999Z</time></trkpt><trkpt lat="41.84301104821398" lon="12.649103878734149"><ele>100.0</ele><time>2026-04-01T13:32:31.999Z</time></trkpt><trkpt lat="41.84304436294774" lon="12.649206321163227"><ele>99.2</ele><time>2026-04-01T13:32:33.999Z</time></trkpt><trkpt lat="41.843090592502826" lon="12.649339341026183"><ele>98.4</ele><time>2026-04-01T13:32:35.999Z</time></trkpt><trkpt lat="41.84310227683588" lon="12.649472871526745"><ele>97.6</ele><time>2026-04-01T13:32:37.999Z</time></trkpt><trkpt lat="41.84306555086816" lon="12.649555112782261"><ele>96.8</ele><time>2026-04-01T13:32:38.999Z</time></trkpt><trkpt lat="41.84300076092552" lon="12.649643467284717"><ele>96.0</ele><time>2026-04-01T13:32:39.999Z</time></trkpt><trkpt lat="41.84291205636626" lon="12.649731411929462"><ele>95.8</ele><time>2026-04-01T13:32:40.999Z</time></trkpt><trkpt lat="41.84280847823555" lon="12.649814033180869"><ele>95.6</ele><time>2026-04-01T13:32:41.999Z</time></trkpt><trkpt lat="41.842709028249466" lon="12.64988376909174"><ele>95.4</ele><time>2026-04-01T13:32:42.999Z</time></trkpt><trkpt lat="41.84261196276283" lon="12.649943826366965"><ele>95.2</ele><time>2026-04-01T13:32:43.999Z</time></trkpt><trkpt lat="41.842529965819985" lon="12.650000406842063"><ele>95.0</ele><time>2026-04-01T13:32:44.999Z</time></trkpt><trkpt lat="41.84246002005095" lon="12.65004386860311"><ele>94.4</ele><time>2026-04-01T13:32:45.999Z</time></trkpt><trkpt lat="41.842373862075895" lon="12.650094980614437"><ele>93.8</ele><time>2026-04-01T13:32:47.999Z</time></trkpt><trkpt lat="41.84230810962218" lon="12.650154286035278"><ele>93.19999999999999</ele><time>2026-04-01T13:32:50.999Z</time></trkpt><trkpt lat="41.84220184852606" lon="12.650152170713966"><ele>92.6</ele><time>2026-04-01T13:32:52.999Z</time></trkpt><trkpt lat="41.84210352081491" lon="12.650129058998163"><ele>92.0</ele><time>2026-04-01T13:32:54.999Z</time></trkpt><trkpt lat="41.84199209561868" lon="12.650106670540714"><ele>92.0</ele><time>2026-04-01T13:32:56.999Z</time></trkpt><trkpt lat="41.84190664521378" lon="12.650115549941734"><ele>92.0</ele><time>2026-04-01T13:32:57.999Z</time></trkpt><trkpt lat="41.84184017204346" lon="12.650086727614148"><ele>92.0</ele><time>2026-04-01T13:32:58.999Z</time></trkpt><trkpt lat="41.841763059870104" lon="12.65004189766401"><ele>92.0</ele><time>2026-04-01T13:32:59.999Z</time></trkpt><trkpt lat="41.8416876586709" lon="12.649994981456457"><ele>92.0</ele><time>2026-04-01T13:33:00.999Z</time></trkpt><trkpt lat="41.84161712245711" lon="12.649941941953056"><ele>92.0</ele><time>2026-04-01T13:33:01.999Z</time></trkpt><trkpt lat="41.841551994792" lon="12.649895510977212"><ele>92.8</ele><time>2026-04-01T13:33:02.998Z</time></trkpt><trkpt lat="41.841418033240316" lon="12.64988386933208"><ele>93.6</ele><time>2026-04-01T13:33:04.998Z</time></trkpt><trkpt lat="41.841326419581236" lon="12.649901861216295"><ele>94.39999999999999</ele><time>2026-04-01T13:33:06.998Z</time></trkpt><trkpt lat="41.84124920460155" lon="12.649869931877197"><ele>95.19999999999999</ele><time>2026-04-01T13:33:08.998Z</time></trkpt><trkpt lat="41.84123339035457" lon="12.649766882285393"><ele>96.0</ele><time>2026-04-01T13:33:10.998Z</time></trkpt><trkpt lat="41.841340461766855" lon="12.649657801806049"><ele>96.0</ele><time>2026-04-01T13:33:12.998Z</time></trkpt><trkpt lat="41.8414404371067" lon="12.649647404964403"><ele>96.0</ele><time>2026-04-01T13:33:13.998Z</time></trkpt><trkpt lat="41.84152524031859" lon="12.649676094900125"><ele>96.0</ele><time>2026-04-01T13:33:14.998Z</time></trkpt><trkpt lat="41.84161738252468" lon="12.649784412370444"><ele>96.0</ele><time>2026-04-01T13:33:16.998Z</time></trkpt><trkpt lat="41.841666322062224" lon="12.649864294846635"><ele>96.0</ele><time>2026-04-01T13:33:17.998Z</time></trkpt><trkpt lat="41.84172112292515" lon="12.649954137846528"><ele>96.0</ele><time>2026-04-01T13:33:18.998Z</time></trkpt><trkpt lat="41.84177146542178" lon="12.650019314934783"><ele>96.0</ele><time>2026-04-01T13:33:19.998Z</time></trkpt><trkpt lat="41.841846183117084" lon="12.650084156823135"><ele>96.0</ele><time>2026-04-01T13:33:21.998Z</time></trkpt><trkpt lat="41.841914296137205" lon="12.65011540552305"><ele>96.0</ele><time>2026-04-01T13:33:23.998Z</time></trkpt><trkpt lat="41.842016509359226" lon="12.650131444100563"><ele>96.0</ele><time>2026-04-01T13:33:25.998Z</time></trkpt><trkpt lat="41.84213611174032" lon="12.650152204574102"><ele>95.19999999999999</ele><time>2026-04-01T13:33:27.998Z</time></trkpt><trkpt lat="41.842249071089775" lon="12.650163651503213"><ele>94.39999999999999</ele><time>2026-04-01T13:33:29.998Z</time></trkpt><trkpt lat="41.842404042814564" lon="12.650156328180941"><ele>93.6</ele><time>2026-04-01T13:33:31.998Z</time></trkpt><trkpt lat="41.842490034394736" lon="12.650135780528325"><ele>92.8</ele><time>2026-04-01T13:33:33.998Z</time></trkpt><trkpt lat="41.84253560145533" lon="12.650067270369718"><ele>92.0</ele><time>2026-04-01T13:33:35.998Z</time></trkpt><trkpt lat="41.84246540076044" lon="12.6500222195899"><ele>92.0</ele><time>2026-04-01T13:33:38.998Z</time></trkpt><trkpt lat="41.8423888155464" lon="12.650089446980264"><ele>92.0</ele><time>2026-04-01T13:34:16.999Z</time></trkpt><trkpt lat="41.84234044055292" lon="12.650160329913575"><ele>92.0</ele><time>2026-04-01T13:34:18.999Z</time></trkpt><trkpt lat="41.84221215973836" lon="12.65016141227465"><ele>92.0</ele><time>2026-04-01T13:34:20.999Z</time></trkpt><trkpt lat="41.84213334477383" lon="12.650150372681889"><ele>92.0</ele><time>2026-04-01T13:34:21.999Z</time></trkpt><trkpt lat="41.84207056016129" lon="12.650137301273642"><ele>92.0</ele><time>2026-04-01T13:34:22.999Z</time></trkpt><trkpt lat="41.84200256259428" lon="12.650125789609081"><ele>92.0</ele><time>2026-04-01T13:34:23.999Z</time></trkpt><trkpt lat="41.841925108234335" lon="12.650104517174954"><ele>92.0</ele><time>2026-04-01T13:34:24.999Z</time></trkpt><trkpt lat="41.84186094449846" lon="12.650089681193586"><ele>92.0</ele><time>2026-04-01T13:34:25.999Z</time></trkpt><trkpt lat="41.84178855370932" lon="12.650038316019222"><ele>92.0</ele><time>2026-04-01T13:34:26.999Z</time></trkpt><trkpt lat="41.841705726832046" lon="12.64999162296024"><ele>92.0</ele><time>2026-04-01T13:34:27.999Z</time></trkpt><trkpt lat="41.841607502580196" lon="12.649957191446129"><ele>92.0</ele><time>2026-04-01T13:34:28.999Z</time></trkpt><trkpt lat="41.84151134002571" lon="12.64994908083282"><ele>92.66666666666667</ele><time>2026-04-01T13:34:29.999Z</time></trkpt><trkpt lat="41.84142802992959" lon="12.649959901670798"><ele>93.33333333333334</ele><time>2026-04-01T13:34:30.999Z</time></trkpt><trkpt lat="41.8413554509363" lon="12.649974236145091"><ele>94.0</ele><time>2026-04-01T13:34:31.999Z</time></trkpt><trkpt lat="41.8412934664929" lon="12.650004459105286"><ele>94.66666666666667</ele><time>2026-04-01T13:34:32.999Z</time></trkpt><trkpt lat="41.84124642024665" lon="12.650066263730045"><ele>95.33333333333333</ele><time>2026-04-01T13:34:33.999Z</time></trkpt><trkpt lat="41.841210222672224" lon="12.650222040866462"><ele>96.0</ele><time>2026-04-01T13:34:35.999Z</time></trkpt><trkpt lat="41.84121828801732" lon="12.650311404847152"><ele>96.16666666666667</ele><time>2026-04-01T13:34:36.999Z</time></trkpt><trkpt lat="41.841240333324436" lon="12.650395257679829"><ele>96.33333333333334</ele><time>2026-04-01T13:34:37.999Z</time></trkpt><trkpt lat="41.84125127065463" lon="12.650525140747664"><ele>96.5</ele><time>2026-04-01T13:34:39.999Z</time></trkpt><trkpt lat="41.84126038531142" lon="12.650609204813783"><ele>96.66666666666667</ele><time>2026-04-01T13:34:41.999Z</time></trkpt><trkpt lat="41.84119351558473" lon="12.650583146957441"><ele>96.83333333333334</ele><time>2026-04-01T13:35:09.998Z</time></trkpt><trkpt lat="41.84120763637743" lon="12.650450929223018"><ele>97.0</ele><time>2026-04-01T13:35:11.998Z</time></trkpt><trkpt lat="41.84124511785959" lon="12.650330274427342"><ele>96.8</ele><time>2026-04-01T13:35:14.998Z</time></trkpt><trkpt lat="41.84124771034356" lon="12.650210013814933"><ele>96.6</ele><time>2026-04-01T13:35:16.998Z</time></trkpt><trkpt lat="41.84124931784519" lon="12.6500926405834"><ele>96.39999999999999</ele><time>2026-04-01T13:35:18.998Z</time></trkpt><trkpt lat="41.8413499437259" lon="12.650016900634897"><ele>96.19999999999999</ele><time>2026-04-01T13:35:20.998Z</time></trkpt><trkpt lat="41.841439663450025" lon="12.649997407506447"><ele>96.0</ele><time>2026-04-01T13:35:21.998Z</time></trkpt><trkpt lat="41.84151024714857" lon="12.64998280219966"><ele>96.0</ele><time>2026-04-01T13:35:22.998Z</time></trkpt><trkpt lat="41.8415971440675" lon="12.649981931917106"><ele>96.0</ele><time>2026-04-01T13:35:23.998Z</time></trkpt><trkpt lat="41.841694422096815" lon="12.65001720331013"><ele>96.0</ele><time>2026-04-01T13:35:24.998Z</time></trkpt><trkpt lat="41.84178207035815" lon="12.650072374994906"><ele>96.0</ele><time>2026-04-01T13:35:25.998Z</time></trkpt><trkpt lat="41.84185276872162" lon="12.65009866107202"><ele>96.0</ele><time>2026-04-01T13:35:26.998Z</time></trkpt><trkpt lat="41.84193356818656" lon="12.650120704009964"><ele>96.0</ele><time>2026-04-01T13:35:28.998Z</time></trkpt><trkpt lat="41.8420607672395" lon="12.650140215843571"><ele>95.33333333333333</ele><time>2026-04-01T13:35:30.998Z</time></trkpt><trkpt lat="41.84213040944512" lon="12.65014620113456"><ele>94.66666666666667</ele><time>2026-04-01T13:35:31.998Z</time></trkpt><trkpt lat="41.84220445826596" lon="12.650153948071942"><ele>94.0</ele><time>2026-04-01T13:35:32.998Z</time></trkpt><trkpt lat="41.842276561085725" lon="12.650194154189045"><ele>93.33333333333334</ele><time>2026-04-01T13:35:33.998Z</time></trkpt><trkpt lat="41.84233843762883" lon="12.650165121778464"><ele>92.66666666666667</ele><time>2026-04-01T13:35:34.998Z</time></trkpt><trkpt lat="41.84242288007978" lon="12.650112816289015"><ele>92.0</ele><time>2026-04-01T13:35:35.998Z</time></trkpt><trkpt lat="41.842495856023184" lon="12.650049664683726"><ele>92.0</ele><time>2026-04-01T13:35:36.998Z</time></trkpt><trkpt lat="41.8425907129168" lon="12.650011479620169"><ele>92.0</ele><time>2026-04-01T13:35:39.998Z</time></trkpt><trkpt lat="41.842670035811416" lon="12.650001808284552"><ele>92.0</ele><time>2026-04-01T13:35:42.998Z</time></trkpt><trkpt lat="41.84265164995728" lon="12.649908351278224"><ele>92.0</ele><time>2026-04-01T13:35:45.998Z</time></trkpt><trkpt lat="41.84255100896136" lon="12.649977597340177"><ele>92.0</ele><time>2026-04-01T13:36:11Z</time></trkpt><trkpt lat="41.84249230720374" lon="12.650060230515834"><ele>92.0</ele><time>2026-04-01T13:36:12Z</time></trkpt><trkpt lat="41.8424029632898" lon="12.650113594796794"><ele>92.0</ele><time>2026-04-01T13:36:14Z</time></trkpt><trkpt lat="41.84230053202447" lon="12.650143262938828"><ele>92.0</ele><time>2026-04-01T13:36:16Z</time></trkpt><trkpt lat="41.842213099900604" lon="12.650157048714734"><ele>92.0</ele><time>2026-04-01T13:36:17Z</time></trkpt><trkpt lat="41.842135684823475" lon="12.650155538603961"><ele>92.0</ele><time>2026-04-01T13:36:17.999Z</time></trkpt><trkpt lat="41.842042430972974" lon="12.650136785973551"><ele>92.0</ele><time>2026-04-01T13:36:18.999Z</time></trkpt><trkpt lat="41.84196573737117" lon="12.650128782686878"><ele>92.0</ele><time>2026-04-01T13:36:19.999Z</time></trkpt><trkpt lat="41.84188697375031" lon="12.650119357719065"><ele>92.0</ele><time>2026-04-01T13:36:20.999Z</time></trkpt><trkpt lat="41.84180602779548" lon="12.650079283568223"><ele>92.0</ele><time>2026-04-01T13:36:21.999Z</time></trkpt><trkpt lat="41.84170687576244" lon="12.650021554077027"><ele>92.0</ele><time>2026-04-01T13:36:22.999Z</time></trkpt><trkpt lat="41.84160133397179" lon="12.649975663242483"><ele>92.0</ele><time>2026-04-01T13:36:23.999Z</time></trkpt><trkpt lat="41.84150580300896" lon="12.649961629024013"><ele>92.0</ele><time>2026-04-01T13:36:24.999Z</time></trkpt><trkpt lat="41.84142287065913" lon="12.649976172967373"><ele>92.66666666666667</ele><time>2026-04-01T13:36:25.999Z</time></trkpt><trkpt lat="41.841338361484674" lon="12.650010044817426"><ele>93.33333333333334</ele><time>2026-04-01T13:36:26.999Z</time></trkpt><trkpt lat="41.84127309307618" lon="12.650044306098307"><ele>94.0</ele><time>2026-04-01T13:36:27.999Z</time></trkpt><trkpt lat="41.84121572674205" lon="12.6501365472903"><ele>94.66666666666667</ele><time>2026-04-01T13:36:29.999Z</time></trkpt><trkpt lat="41.84122513033827" lon="12.650278537906505"><ele>95.33333333333333</ele><time>2026-04-01T13:36:31.999Z</time></trkpt><trkpt lat="41.84123549375644" lon="12.650368947601066"><ele>96.0</ele><time>2026-04-01T13:36:32.999Z</time></trkpt><trkpt lat="41.84124556995947" lon="12.650455824716438"><ele>96.16666666666667</ele><time>2026-04-01T13:36:33.999Z</time></trkpt><trkpt lat="41.8412517748361" lon="12.650552476279143"><ele>96.33333333333334</ele><time>2026-04-01T13:36:34.999Z</time></trkpt><trkpt lat="41.841257671861314" lon="12.650670830705895"><ele>96.5</ele><time>2026-04-01T13:36:35.999Z</time></trkpt><trkpt lat="41.84126075850815" lon="12.650792601199392"><ele>96.66666666666667</ele><time>2026-04-01T13:36:36.999Z</time></trkpt><trkpt lat="41.84126538913042" lon="12.650877058466639"><ele>96.83333333333334</ele><time>2026-04-01T13:36:37.999Z</time></trkpt><trkpt lat="41.84126614506989" lon="12.650986384928995"><ele>97.0</ele><time>2026-04-01T13:36:39.999Z</time></trkpt><trkpt lat="41.84129206143764" lon="12.651067884702998"><ele>97.00000000000001</ele><time>2026-04-01T13:36:42.999Z</time></trkpt><trkpt lat="41.8413728110514" lon="12.651101408677997"><ele>97.0</ele><time>2026-04-01T13:37:16.998Z</time></trkpt><trkpt lat="41.841390774102216" lon="12.650986508831782"><ele>97.0</ele><time>2026-04-01T13:37:18.998Z</time></trkpt><trkpt lat="41.84136581404647" lon="12.65089940989568"><ele>97.0</ele><time>2026-04-01T13:37:20.998Z</time></trkpt><trkpt lat="41.84135677923632" lon="12.65079416689331"><ele>97.00000000000001</ele><time>2026-04-01T13:37:45.998Z</time></trkpt><trkpt lat="41.84134192588101" lon="12.650708914594109"><ele>97.0</ele><time>2026-04-01T13:37:46.998Z</time></trkpt><trkpt lat="41.841318067367396" lon="12.650602058433472"><ele>97.0</ele><time>2026-04-01T13:37:47.998Z</time></trkpt><trkpt lat="41.84128824698262" lon="12.650498243333324"><ele>97.0</ele><time>2026-04-01T13:37:48.998Z</time></trkpt><trkpt lat="41.84125727815612" lon="12.650407385586096"><ele>97.0</ele><time>2026-04-01T13:37:49.998Z</time></trkpt><trkpt lat="41.84123939125905" lon="12.650300108391406"><ele>97.0</ele><time>2026-04-01T13:37:51.997Z</time></trkpt><trkpt lat="41.841228401064505" lon="12.650140081240709"><ele>97.0</ele><time>2026-04-01T13:37:53.997Z</time></trkpt><trkpt lat="41.841299536867346" lon="12.650006347716943"><ele>96.8</ele><time>2026-04-01T13:37:55.997Z</time></trkpt><trkpt lat="41.84138778857012" lon="12.64996266430422"><ele>96.6</ele><time>2026-04-01T13:37:56.997Z</time></trkpt><trkpt lat="41.84149433968086" lon="12.649957858083576"><ele>96.39999999999999</ele><time>2026-04-01T13:37:57.997Z</time></trkpt><trkpt lat="41.84160629359511" lon="12.64998356889579"><ele>96.19999999999999</ele><time>2026-04-01T13:37:58.997Z</time></trkpt><trkpt lat="41.84171996416512" lon="12.650034843870413"><ele>96.0</ele><time>2026-04-01T13:37:59.997Z</time></trkpt><trkpt lat="41.841807768918216" lon="12.650085709641523"><ele>95.33333333333333</ele><time>2026-04-01T13:38:00.997Z</time></trkpt><trkpt lat="41.841874771372126" lon="12.65011645433224"><ele>94.66666666666667</ele><time>2026-04-01T13:38:01.997Z</time></trkpt><trkpt lat="41.84200735069544" lon="12.650134021580293"><ele>94.0</ele><time>2026-04-01T13:38:04Z</time></trkpt><trkpt lat="41.842078192203246" lon="12.650141544168735"><ele>93.33333333333334</ele><time>2026-04-01T13:38:04.999Z</time></trkpt><trkpt lat="41.84214472786394" lon="12.650132617376531"><ele>92.66666666666667</ele><time>2026-04-01T13:38:05.999Z</time></trkpt><trkpt lat="41.842214446461895" lon="12.650128692611807"><ele>92.0</ele><time>2026-04-01T13:38:06.999Z</time></trkpt><trkpt lat="41.84228508991011" lon="12.650149248240442"><ele>92.0</ele><time>2026-04-01T13:38:07.999Z</time></trkpt><trkpt lat="41.84237108769549" lon="12.650138176360427"><ele>92.0</ele><time>2026-04-01T13:38:08.999Z</time></trkpt><trkpt lat="41.84241999716081" lon="12.650083264919719"><ele>92.0</ele><time>2026-04-01T13:38:09.999Z</time></trkpt><trkpt lat="41.84251595769397" lon="12.650030027822645"><ele>92.0</ele><time>2026-04-01T13:38:11.999Z</time></trkpt><trkpt lat="41.842547203589625" lon="12.649938159152812"><ele>92.0</ele><time>2026-04-01T13:38:15.999Z</time></trkpt><trkpt lat="41.84255339855229" lon="12.64984803383895"><ele>92.0</ele><time>2026-04-01T13:38:47.999Z</time></trkpt><trkpt lat="41.842466169994765" lon="12.649868518998494"><ele>92.0</ele><time>2026-04-01T13:38:49.999Z</time></trkpt><trkpt lat="41.84243688545155" lon="12.64995941289823"><ele>92.0</ele><time>2026-04-01T13:38:50.999Z</time></trkpt><trkpt lat="41.842401681042325" lon="12.650060613761541"><ele>92.0</ele><time>2026-04-01T13:38:51.999Z</time></trkpt><trkpt lat="41.842324642756566" lon="12.65014775715745"><ele>92.0</ele><time>2026-04-01T13:38:54.999Z</time></trkpt><trkpt lat="41.84226568761747" lon="12.650180292781346"><ele>92.0</ele><time>2026-04-01T13:38:55.999Z</time></trkpt><trkpt lat="41.842199483747585" lon="12.65016525437158"><ele>92.0</ele><time>2026-04-01T13:38:56.999Z</time></trkpt><trkpt lat="41.8421321616402" lon="12.65014931839976"><ele>92.0</ele><time>2026-04-01T13:38:57.999Z</time></trkpt><trkpt lat="41.842045315906674" lon="12.65014402413983"><ele>92.0</ele><time>2026-04-01T13:38:58.999Z</time></trkpt><trkpt lat="41.84196177093981" lon="12.65011924567512"><ele>92.0</ele><time>2026-04-01T13:38:59.999Z</time></trkpt><trkpt lat="41.841893370176194" lon="12.650113827239068"><ele>92.0</ele><time>2026-04-01T13:39:00.999Z</time></trkpt><trkpt lat="41.841830183459095" lon="12.65009023477934"><ele>92.0</ele><time>2026-04-01T13:39:01.999Z</time></trkpt><trkpt lat="41.841759802481675" lon="12.650049155509645"><ele>92.0</ele><time>2026-04-01T13:39:02.999Z</time></trkpt><trkpt lat="41.84167031378617" lon="12.65000706200256"><ele>92.8</ele><time>2026-04-01T13:39:03.999Z</time></trkpt><trkpt lat="41.841564794618265" lon="12.649972807257452"><ele>93.6</ele><time>2026-04-01T13:39:04.998Z</time></trkpt><trkpt lat="41.841477506710426" lon="12.649964948587277"><ele>94.39999999999999</ele><time>2026-04-01T13:39:05.998Z</time></trkpt><trkpt lat="41.84139780320996" lon="12.649978446699283"><ele>95.19999999999999</ele><time>2026-04-01T13:39:06.998Z</time></trkpt><trkpt lat="41.84133068777591" lon="12.65000771541806"><ele>96.0</ele><time>2026-04-01T13:39:07.998Z</time></trkpt><trkpt lat="41.84124230816735" lon="12.650085389757997"><ele>96.0</ele><time>2026-04-01T13:39:09.998Z</time></trkpt><trkpt lat="41.841215349434826" lon="12.650230858961732"><ele>96.0</ele><time>2026-04-01T13:39:11.998Z</time></trkpt><trkpt lat="41.841250399172914" lon="12.650394378746354"><ele>96.0</ele><time>2026-04-01T13:39:13.998Z</time></trkpt><trkpt lat="41.84125965988667" lon="12.650487333469282"><ele>96.0</ele><time>2026-04-01T13:39:14.998Z</time></trkpt><trkpt lat="41.84127421816154" lon="12.650610692333942"><ele>96.0</ele><time>2026-04-01T13:39:16.998Z</time></trkpt><trkpt lat="41.841275461922244" lon="12.650710754183546"><ele>96.0</ele><time>2026-04-01T13:39:19.998Z</time></trkpt><trkpt lat="41.84134001552051" lon="12.650744747888549"><ele>96.0</ele><time>2026-04-01T13:39:55.998Z</time></trkpt><trkpt lat="41.84136083007185" lon="12.650590569996993"><ele>96.0</ele><time>2026-04-01T13:39:57.998Z</time></trkpt><trkpt lat="41.841300542993174" lon="12.650509809162607"><ele>96.0</ele><time>2026-04-01T13:39:58.998Z</time></trkpt><trkpt lat="41.84124053633477" lon="12.650428898090697"><ele>96.0</ele><time>2026-04-01T13:39:59.998Z</time></trkpt><trkpt lat="41.84123894005378" lon="12.650310626723112"><ele>96.0</ele><time>2026-04-01T13:40:01.998Z</time></trkpt><trkpt lat="41.841243198698955" lon="12.6501894189976"><ele>96.0</ele><time>2026-04-01T13:40:03.998Z</time></trkpt><trkpt lat="41.841232218341474" lon="12.65009037723377"><ele>96.0</ele><time>2026-04-01T13:40:04.998Z</time></trkpt><trkpt lat="41.84134355349759" lon="12.64998246587978"><ele>96.0</ele><time>2026-04-01T13:40:06.998Z</time></trkpt><trkpt lat="41.84145113290176" lon="12.649965035445721"><ele>96.0</ele><time>2026-04-01T13:40:08Z</time></trkpt><trkpt lat="41.84155717395251" lon="12.649979901535533"><ele>96.0</ele><time>2026-04-01T13:40:09Z</time></trkpt><trkpt lat="41.84169074663459" lon="12.650024897989125"><ele>96.0</ele><time>2026-04-01T13:40:10Z</time></trkpt><trkpt lat="41.841781716154536" lon="12.650079040734077"><ele>96.0</ele><time>2026-04-01T13:40:11Z</time></trkpt><trkpt lat="41.841851554363664" lon="12.650115713041675"><ele>96.0</ele><time>2026-04-01T13:40:12Z</time></trkpt><trkpt lat="41.84197560756068" lon="12.65013524001266"><ele>96.0</ele><time>2026-04-01T13:40:14Z</time></trkpt><trkpt lat="41.84204882703446" lon="12.650145577031449"><ele>96.0</ele><time>2026-04-01T13:40:15Z</time></trkpt><trkpt lat="41.84213199061568" lon="12.650142672821898"><ele>95.42857142857142</ele><time>2026-04-01T13:40:16Z</time></trkpt><trkpt lat="41.84221027140706" lon="12.6501434211929"><ele>94.85714285714286</ele><time>2026-04-01T13:40:17Z</time></trkpt><trkpt lat="41.84227440696119" lon="12.65013368604936"><ele>94.28571428571428</ele><time>2026-04-01T13:40:18Z</time></trkpt><trkpt lat="41.842349059533504" lon="12.650137691790947"><ele>93.71428571428571</ele><time>2026-04-01T13:40:19Z</time></trkpt><trkpt lat="41.842408813854334" lon="12.650105472488182"><ele>93.14285714285714</ele><time>2026-04-01T13:40:20Z</time></trkpt><trkpt lat="41.84246419767355" lon="12.650058536442186"><ele>92.57142857142857</ele><time>2026-04-01T13:40:21Z</time></trkpt><trkpt lat="41.842533219627974" lon="12.650019723875577"><ele>92.0</ele><time>2026-04-01T13:40:23Z</time></trkpt><trkpt lat="41.84259490059352" lon="12.649991860604267"><ele>92.0</ele><time>2026-04-01T13:40:25Z</time></trkpt><trkpt lat="41.84256803154116" lon="12.649893706098629"><ele>92.0</ele><time>2026-04-01T13:43:04.999Z</time></trkpt><trkpt lat="41.84250003762855" lon="12.64996197220489"><ele>92.0</ele><time>2026-04-01T13:43:06.999Z</time></trkpt><trkpt lat="41.84242575972399" lon="12.650074088725642"><ele>92.0</ele><time>2026-04-01T13:43:08.999Z</time></trkpt><trkpt lat="41.84235416576029" lon="12.650141292741393"><ele>92.0</ele><time>2026-04-01T13:43:10.999Z</time></trkpt><trkpt lat="41.84224206708836" lon="12.650159426188042"><ele>92.0</ele><time>2026-04-01T13:43:12.999Z</time></trkpt><trkpt lat="41.8421214848359" lon="12.650144773671087"><ele>92.0</ele><time>2026-04-01T13:43:14.999Z</time></trkpt><trkpt lat="41.84204560849764" lon="12.650132330230964"><ele>92.0</ele><time>2026-04-01T13:43:15.999Z</time></trkpt><trkpt lat="41.84196379904421" lon="12.6501239625711"><ele>92.0</ele><time>2026-04-01T13:43:16.999Z</time></trkpt><trkpt lat="41.84183899708898" lon="12.650108305656783"><ele>92.0</ele><time>2026-04-01T13:43:18.999Z</time></trkpt><trkpt lat="41.84177262954131" lon="12.65005557655335"><ele>92.66666666666667</ele><time>2026-04-01T13:43:20.999Z</time></trkpt><trkpt lat="41.84169735525928" lon="12.649984792273372"><ele>93.33333333333334</ele><time>2026-04-01T13:43:23.999Z</time></trkpt><trkpt lat="41.84164724734526" lon="12.649909605679673"><ele>94.0</ele><time>2026-04-01T13:43:26.999Z</time></trkpt><trkpt lat="41.841563348793535" lon="12.64977838692687"><ele>94.66666666666667</ele><time>2026-04-01T13:43:49.999Z</time></trkpt><trkpt lat="41.8415091050724" lon="12.649721547157121"><ele>95.33333333333333</ele><time>2026-04-01T13:43:50.999Z</time></trkpt><trkpt lat="41.84144651503877" lon="12.649669211984545"><ele>96.0</ele><time>2026-04-01T13:43:51.999Z</time></trkpt><trkpt lat="41.8413813726847" lon="12.649646100468509"><ele>96.0</ele><time>2026-04-01T13:43:52.999Z</time></trkpt><trkpt lat="41.84131000480161" lon="12.64962821488145"><ele>96.0</ele><time>2026-04-01T13:43:53.998Z</time></trkpt><trkpt lat="41.84124146058173" lon="12.649643848733144"><ele>96.0</ele><time>2026-04-01T13:43:54.998Z</time></trkpt><trkpt lat="41.84116916824152" lon="12.649670759172082"><ele>96.0</ele><time>2026-04-01T13:43:55.998Z</time></trkpt><trkpt lat="41.841099772760685" lon="12.649707943137772"><ele>96.0</ele><time>2026-04-01T13:43:56.998Z</time></trkpt><trkpt lat="41.841024709862666" lon="12.649757700989818"><ele>96.0</ele><time>2026-04-01T13:43:57.998Z</time></trkpt><trkpt lat="41.84093335207229" lon="12.649823353607447"><ele>96.19999999999999</ele><time>2026-04-01T13:43:58.998Z</time></trkpt><trkpt lat="41.8408430603466" lon="12.649879509344649"><ele>96.39999999999999</ele><time>2026-04-01T13:43:59.998Z</time></trkpt><trkpt lat="41.840739735306315" lon="12.649909598124356"><ele>96.6</ele><time>2026-04-01T13:44:00.998Z</time></trkpt><trkpt lat="41.840634136854604" lon="12.649935113342917"><ele>96.8</ele><time>2026-04-01T13:44:01.998Z</time></trkpt><trkpt lat="41.84054235628999" lon="12.649942598793173"><ele>97.0</ele><time>2026-04-01T13:44:02.998Z</time></trkpt><trkpt lat="41.84045179114948" lon="12.649948748337563"><ele>97.0</ele><time>2026-04-01T13:44:03.998Z</time></trkpt><trkpt lat="41.84035024191426" lon="12.649961947424448"><ele>97.0</ele><time>2026-04-01T13:44:04.998Z</time></trkpt><trkpt lat="41.84026233403034" lon="12.649984926275978"><ele>97.0</ele><time>2026-04-01T13:44:05.998Z</time></trkpt><trkpt lat="41.84017783599337" lon="12.649991726027798"><ele>97.0</ele><time>2026-04-01T13:44:06.998Z</time></trkpt><trkpt lat="41.840085994566316" lon="12.650002604825533"><ele>97.0</ele><time>2026-04-01T13:44:07.998Z</time></trkpt><trkpt lat="41.83999898666187" lon="12.650017394164573"><ele>98.19999999999999</ele><time>2026-04-01T13:44:08.998Z</time></trkpt><trkpt lat="41.83990802901164" lon="12.650008291928406"><ele>99.4</ele><time>2026-04-01T13:44:09.998Z</time></trkpt><trkpt lat="41.839817267787794" lon="12.649976800535283"><ele>100.6</ele><time>2026-04-01T13:44:10.998Z</time></trkpt><trkpt lat="41.83971625002895" lon="12.64994830739784"><ele>101.80000000000001</ele><time>2026-04-01T13:44:11.998Z</time></trkpt><trkpt lat="41.83961242782574" lon="12.649919035857092"><ele>103.0</ele><time>2026-04-01T13:44:12.998Z</time></trkpt><trkpt lat="41.839522041814895" lon="12.649908394686735"><ele>103.0</ele><time>2026-04-01T13:44:13.998Z</time></trkpt><trkpt lat="41.83942493041277" lon="12.649905873656241"><ele>103.0</ele><time>2026-04-01T13:44:14.998Z</time></trkpt><trkpt lat="41.839320883749075" lon="12.6499107072163"><ele>103.0</ele><time>2026-04-01T13:44:15.998Z</time></trkpt><trkpt lat="41.83922596269072" lon="12.649925317104712"><ele>103.0</ele><time>2026-04-01T13:44:16.998Z</time></trkpt><trkpt lat="41.839157077903934" lon="12.649925363396507"><ele>103.0</ele><time>2026-04-01T13:44:17.998Z</time></trkpt><trkpt lat="41.839049843017484" lon="12.64988980252721"><ele>103.0</ele><time>2026-04-01T13:44:20Z</time></trkpt><trkpt lat="41.83895303308356" lon="12.649890152145142"><ele>103.0</ele><time>2026-04-01T13:44:22Z</time></trkpt><trkpt lat="41.838869715533995" lon="12.64987804025159"><ele>103.0</ele><time>2026-04-01T13:44:24Z</time></trkpt><trkpt lat="41.83880122129325" lon="12.649856892008748"><ele>103.0</ele><time>2026-04-01T13:44:27Z</time></trkpt><trkpt lat="41.83875760897476" lon="12.649942524639563"><ele>103.0</ele><time>2026-04-01T13:45:28.999Z</time></trkpt><trkpt lat="41.838875199966054" lon="12.649997025886895"><ele>102.99999999999999</ele><time>2026-04-01T13:45:30.999Z</time></trkpt><trkpt lat="41.83894170816509" lon="12.649968854554125"><ele>103.0</ele><time>2026-04-01T13:45:31.999Z</time></trkpt><trkpt lat="41.83901544420271" lon="12.649918538637113"><ele>103.0</ele><time>2026-04-01T13:45:32.999Z</time></trkpt><trkpt lat="41.83908597143408" lon="12.649871915662986"><ele>103.0</ele><time>2026-04-01T13:45:33.999Z</time></trkpt><trkpt lat="41.839152460962374" lon="12.64984750818816"><ele>103.0</ele><time>2026-04-01T13:45:34.999Z</time></trkpt><trkpt lat="41.83922018339756" lon="12.649828151248336"><ele>102.99999999999999</ele><time>2026-04-01T13:45:35.999Z</time></trkpt><trkpt lat="41.83929413845063" lon="12.64979772722245"><ele>103.0</ele><time>2026-04-01T13:45:36.999Z</time></trkpt><trkpt lat="41.83939026523035" lon="12.649767111765055"><ele>103.0</ele><time>2026-04-01T13:45:37.999Z</time></trkpt><trkpt lat="41.83950082096581" lon="12.649743442563134"><ele>103.0</ele><time>2026-04-01T13:45:38.999Z</time></trkpt><trkpt lat="41.83959037511569" lon="12.649707351246485"><ele>103.0</ele><time>2026-04-01T13:45:39.999Z</time></trkpt><trkpt lat="41.83968301027513" lon="12.64964472026904"><ele>103.0</ele><time>2026-04-01T13:45:40.999Z</time></trkpt><trkpt lat="41.83977143297006" lon="12.649556787525992"><ele>103.0</ele><time>2026-04-01T13:45:41.999Z</time></trkpt><trkpt lat="41.83985518584056" lon="12.649462207693032"><ele>102.83333333333334</ele><time>2026-04-01T13:45:42.999Z</time></trkpt><trkpt lat="41.839925922215066" lon="12.649376958327819"><ele>102.66666666666667</ele><time>2026-04-01T13:45:43.999Z</time></trkpt><trkpt lat="41.83999962709798" lon="12.64928072623945"><ele>102.5</ele><time>2026-04-01T13:45:44.999Z</time></trkpt><trkpt lat="41.84006699068424" lon="12.64919244733277"><ele>102.33333333333334</ele><time>2026-04-01T13:45:45.999Z</time></trkpt><trkpt lat="41.84013442410357" lon="12.649128176057237"><ele>102.16666666666667</ele><time>2026-04-01T13:45:46.999Z</time></trkpt><trkpt lat="41.840182512812255" lon="12.649067417066593"><ele>102.0</ele><time>2026-04-01T13:45:47.999Z</time></trkpt><trkpt lat="41.8402690100099" lon="12.648967152125481"><ele>101.39999999999999</ele><time>2026-04-01T13:45:49.999Z</time></trkpt><trkpt lat="41.840362268685574" lon="12.64892522219107"><ele>100.8</ele><time>2026-04-01T13:45:51.999Z</time></trkpt><trkpt lat="41.84042219516579" lon="12.648852933651316"><ele>100.2</ele><time>2026-04-01T13:45:53.999Z</time></trkpt><trkpt lat="41.84048212141357" lon="12.648729190582086"><ele>99.6</ele><time>2026-04-01T13:45:55.999Z</time></trkpt><trkpt lat="41.84056354802641" lon="12.648636398385012"><ele>99.0</ele><time>2026-04-01T13:45:57.999Z</time></trkpt><trkpt lat="41.84068996543917" lon="12.64864417393685"><ele>99.0</ele><time>2026-04-01T13:45:59.999Z</time></trkpt><trkpt lat="41.84076963810766" lon="12.648661257084338"><ele>99.0</ele><time>2026-04-01T13:46:00.998Z</time></trkpt><trkpt lat="41.84085663007087" lon="12.648685137339742"><ele>99.0</ele><time>2026-04-01T13:46:01.998Z</time></trkpt><trkpt lat="41.84093110379158" lon="12.648695058235539"><ele>99.0</ele><time>2026-04-01T13:46:02.998Z</time></trkpt><trkpt lat="41.84100614787274" lon="12.648710382581676"><ele>99.0</ele><time>2026-04-01T13:46:03.998Z</time></trkpt><trkpt lat="41.84109543444882" lon="12.648725273170278"><ele>99.0</ele><time>2026-04-01T13:46:04.998Z</time></trkpt><trkpt lat="41.84119538219781" lon="12.64873692473156"><ele>99.5</ele><time>2026-04-01T13:46:05.998Z</time></trkpt><trkpt lat="41.841301732596044" lon="12.648748746778391"><ele>100.0</ele><time>2026-04-01T13:46:06.998Z</time></trkpt><trkpt lat="41.841413807899215" lon="12.648762172072779"><ele>100.5</ele><time>2026-04-01T13:46:07.998Z</time></trkpt><trkpt lat="41.841539051569015" lon="12.64877270338596"><ele>101.0</ele><time>2026-04-01T13:46:08.998Z</time></trkpt><trkpt lat="41.84165095313525" lon="12.648784363345667"><ele>100.99999999999999</ele><time>2026-04-01T13:46:09.998Z</time></trkpt><trkpt lat="41.84174883060848" lon="12.648802348490499"><ele>101.0</ele><time>2026-04-01T13:46:10.998Z</time></trkpt><trkpt lat="41.84184015599282" lon="12.648818193596421"><ele>101.0</ele><time>2026-04-01T13:46:11.998Z</time></trkpt><trkpt lat="41.8419319091825" lon="12.648823238078837"><ele>101.0</ele><time>2026-04-01T13:46:12.998Z</time></trkpt><trkpt lat="41.84201073229992" lon="12.648830923089285"><ele>100.99999999999999</ele><time>2026-04-01T13:46:13.998Z</time></trkpt><trkpt lat="41.84209425785502" lon="12.648843591187147"><ele>101.0</ele><time>2026-04-01T13:46:15.998Z</time></trkpt><trkpt lat="41.84208713604728" lon="12.648713341575464"><ele>100.99999999999999</ele><time>2026-04-01T13:46:18.998Z</time></trkpt><trkpt lat="41.84202163043314" lon="12.648698135637568"><ele>101.0</ele><time>2026-04-01T13:46:19.998Z</time></trkpt><trkpt lat="41.8419473451879" lon="12.648731153820902"><ele>101.0</ele><time>2026-04-01T13:46:20.998Z</time></trkpt><trkpt lat="41.84186288724703" lon="12.648751637884315"><ele>101.0</ele><time>2026-04-01T13:46:21.998Z</time></trkpt><trkpt lat="41.84177635357812" lon="12.648748783875899"><ele>100.99999999999999</ele><time>2026-04-01T13:46:22.998Z</time></trkpt><trkpt lat="41.84169797052425" lon="12.64874105021763"><ele>101.0</ele><time>2026-04-01T13:46:23.998Z</time></trkpt><trkpt lat="41.841606010608544" lon="12.648733003045471"><ele>101.0</ele><time>2026-04-01T13:46:24.998Z</time></trkpt><trkpt lat="41.841501046881056" lon="12.648723574748264"><ele>101.0</ele><time>2026-04-01T13:46:26Z</time></trkpt><trkpt lat="41.84140090501709" lon="12.648719318430961"><ele>101.0</ele><time>2026-04-01T13:46:27Z</time></trkpt><trkpt lat="41.84129871613922" lon="12.64871311241761"><ele>101.0</ele><time>2026-04-01T13:46:28Z</time></trkpt><trkpt lat="41.8411988849059" lon="12.648693466360898"><ele>101.0</ele><time>2026-04-01T13:46:29Z</time></trkpt><trkpt lat="41.841108320838714" lon="12.648684303260914"><ele>101.0</ele><time>2026-04-01T13:46:30Z</time></trkpt><trkpt lat="41.841016049965674" lon="12.648693115241226"><ele>101.0</ele><time>2026-04-01T13:46:31Z</time></trkpt><trkpt lat="41.8409207088121" lon="12.648661677195639"><ele>101.0</ele><time>2026-04-01T13:46:32Z</time></trkpt><trkpt lat="41.84081409266787" lon="12.648649370175178"><ele>101.0</ele><time>2026-04-01T13:46:33Z</time></trkpt><trkpt lat="41.84071207101762" lon="12.648651011792408"><ele>101.0</ele><time>2026-04-01T13:46:34Z</time></trkpt><trkpt lat="41.840614518848" lon="12.648651865599922"><ele>101.16666666666666</ele><time>2026-04-01T13:46:35Z</time></trkpt><trkpt lat="41.84052726308678" lon="12.648661147227827"><ele>101.33333333333333</ele><time>2026-04-01T13:46:36Z</time></trkpt><trkpt lat="41.84044363697424" lon="12.648687682910086"><ele>101.5</ele><time>2026-04-01T13:46:37Z</time></trkpt><trkpt lat="41.84036203600403" lon="12.64869873946796"><ele>101.66666666666666</ele><time>2026-04-01T13:46:38Z</time></trkpt><trkpt lat="41.84027824611835" lon="12.648726099765485"><ele>101.83333333333333</ele><time>2026-04-01T13:46:39Z</time></trkpt><trkpt lat="41.84019097469486" lon="12.648754741639404"><ele>102.0</ele><time>2026-04-01T13:46:40Z</time></trkpt><trkpt lat="41.84010291875365" lon="12.64878746377966"><ele>102.0</ele><time>2026-04-01T13:46:41Z</time></trkpt><trkpt lat="41.840018723548845" lon="12.648818751255543"><ele>102.0</ele><time>2026-04-01T13:46:42Z</time></trkpt><trkpt lat="41.839895127589074" lon="12.648857647426984"><ele>102.0</ele><time>2026-04-01T13:46:44Z</time></trkpt><trkpt lat="41.83984818081845" lon="12.648928134851353"><ele>102.0</ele><time>2026-04-01T13:46:46Z</time></trkpt><trkpt lat="41.8399973032635" lon="12.649550930039263"><ele>102.16666666666667</ele><time>2026-04-01T13:46:48Z</time></trkpt><trkpt lat="41.84005583104809" lon="12.649607041052604"><ele>102.33333333333334</ele><time>2026-04-01T13:46:49Z</time></trkpt><trkpt lat="41.84010729758209" lon="12.649658582421717"><ele>102.5</ele><time>2026-04-01T13:46:50Z</time></trkpt><trkpt lat="41.84015446831015" lon="12.649742007854263"><ele>102.66666666666667</ele><time>2026-04-01T13:46:51Z</time></trkpt><trkpt lat="41.840190819354575" lon="12.649836175717658"><ele>102.83333333333334</ele><time>2026-04-01T13:46:52Z</time></trkpt><trkpt lat="41.84021998645165" lon="12.649971701153872"><ele>103.0</ele><time>2026-04-01T13:46:54Z</time></trkpt><trkpt lat="41.840271532480116" lon="12.650112293671613"><ele>101.80000000000001</ele><time>2026-04-01T13:46:56Z</time></trkpt><trkpt lat="41.84035525971658" lon="12.650161327710046"><ele>100.6</ele><time>2026-04-01T13:46:58Z</time></trkpt><trkpt lat="41.84041580982844" lon="12.650118814172462"><ele>99.4</ele><time>2026-04-01T13:47:48.999Z</time></trkpt><trkpt lat="41.84048137285344" lon="12.649981582796789"><ele>98.19999999999999</ele><time>2026-04-01T13:47:50.999Z</time></trkpt><trkpt lat="41.840529160451354" lon="12.649842548199581"><ele>97.0</ele><time>2026-04-01T13:47:52.999Z</time></trkpt><trkpt lat="41.84052853174906" lon="12.64969064774475"><ele>97.00000000000001</ele><time>2026-04-01T13:47:54.999Z</time></trkpt><trkpt lat="41.84052989241635" lon="12.649605077822926"><ele>97.0</ele><time>2026-04-01T13:47:55.999Z</time></trkpt><trkpt lat="41.840504384787735" lon="12.64943984067872"><ele>97.0</ele><time>2026-04-01T13:47:57.999Z</time></trkpt><trkpt lat="41.84047912523852" lon="12.649345691603381"><ele>97.0</ele><time>2026-04-01T13:47:58.999Z</time></trkpt><trkpt lat="41.84045622985132" lon="12.649236415751984"><ele>97.00000000000001</ele><time>2026-04-01T13:47:59.999Z</time></trkpt><trkpt lat="41.840431153868174" lon="12.649119730740459"><ele>97.0</ele><time>2026-04-01T13:48:00.999Z</time></trkpt><trkpt lat="41.840399236875264" lon="12.649033185153659"><ele>97.39999999999999</ele><time>2026-04-01T13:48:01.999Z</time></trkpt><trkpt lat="41.84036274997822" lon="12.648928685603957"><ele>97.8</ele><time>2026-04-01T13:48:03.999Z</time></trkpt><trkpt lat="41.84042521399495" lon="12.648831887786187"><ele>98.2</ele><time>2026-04-01T13:48:05.999Z</time></trkpt><trkpt lat="41.84048175339332" lon="12.648712954709671"><ele>98.6</ele><time>2026-04-01T13:48:07.999Z</time></trkpt><trkpt lat="41.8405628843553" lon="12.64863323825499"><ele>99.0</ele><time>2026-04-01T13:48:09.998Z</time></trkpt><trkpt lat="41.840665483458615" lon="12.648646401960173"><ele>99.0</ele><time>2026-04-01T13:48:11.998Z</time></trkpt><trkpt lat="41.840741099957015" lon="12.648626244488222"><ele>99.0</ele><time>2026-04-01T13:48:13.998Z</time></trkpt><trkpt lat="41.84083018972645" lon="12.648630770708932"><ele>99.0</ele><time>2026-04-01T13:48:15.998Z</time></trkpt><trkpt lat="41.84092070595316" lon="12.64856679380541"><ele>99.0</ele><time>2026-04-01T13:48:18.998Z</time></trkpt><trkpt lat="41.84100849783332" lon="12.648549133745767"><ele>99.0</ele><time>2026-04-01T13:48:20.998Z</time></trkpt><trkpt lat="41.840983499582116" lon="12.648467035455088"><ele>99.0</ele><time>2026-04-01T13:48:23.998Z</time></trkpt><trkpt lat="41.84091122025335" lon="12.64852871380823"><ele>99.0</ele><time>2026-04-01T13:48:25.998Z</time></trkpt><trkpt lat="41.84087082864697" lon="12.648608424251243"><ele>99.0</ele><time>2026-04-01T13:48:28.998Z</time></trkpt><trkpt lat="41.84086003870072" lon="12.648698305494285"><ele>99.0</ele><time>2026-04-01T13:48:32Z</time></trkpt><trkpt lat="41.84094911439211" lon="12.648741014412327"><ele>99.0</ele><time>2026-04-01T13:48:34Z</time></trkpt><trkpt lat="41.8410150866807" lon="12.648730784917579"><ele>99.0</ele><time>2026-04-01T13:48:35Z</time></trkpt><trkpt lat="41.8410854678514" lon="12.648739394423947"><ele>99.0</ele><time>2026-04-01T13:48:36Z</time></trkpt><trkpt lat="41.841187663274845" lon="12.648758828728605"><ele>99.33333333333333</ele><time>2026-04-01T13:48:38Z</time></trkpt><trkpt lat="41.84130619566424" lon="12.648770602039896"><ele>99.66666666666666</ele><time>2026-04-01T13:48:40Z</time></trkpt><trkpt lat="41.84137198016221" lon="12.64877576618781"><ele>100.0</ele><time>2026-04-01T13:48:41Z</time></trkpt><trkpt lat="41.84143774922688" lon="12.648776855338001"><ele>100.33333333333333</ele><time>2026-04-01T13:48:42Z</time></trkpt><trkpt lat="41.84150251811224" lon="12.64877812654756"><ele>100.66666666666666</ele><time>2026-04-01T13:48:43Z</time></trkpt><trkpt lat="41.84160034832846" lon="12.648791209127397"><ele>101.0</ele><time>2026-04-01T13:48:45Z</time></trkpt><trkpt lat="41.84168185813009" lon="12.648795992000293"><ele>100.99999999999999</ele><time>2026-04-01T13:48:47Z</time></trkpt><trkpt lat="41.84175688766414" lon="12.648810185005692"><ele>101.0</ele><time>2026-04-01T13:48:49Z</time></trkpt><trkpt lat="41.841819199990155" lon="12.648826949582247"><ele>101.0</ele><time>2026-04-01T13:48:51Z</time></trkpt><trkpt lat="41.84188662735724" lon="12.648832423976286"><ele>101.0</ele><time>2026-04-01T13:49:04Z</time></trkpt><trkpt lat="41.8419880793772" lon="12.648834071769052"><ele>100.99999999999999</ele><time>2026-04-01T13:49:06Z</time></trkpt><trkpt lat="41.84207004578146" lon="12.648833216740474"><ele>101.0</ele><time>2026-04-01T13:49:08Z</time></trkpt><trkpt lat="41.84215073145017" lon="12.648824990125798"><ele>100.83333333333333</ele><time>2026-04-01T13:49:13Z</time></trkpt><trkpt lat="41.84221534675228" lon="12.64877511266795"><ele>100.66666666666666</ele><time>2026-04-01T13:49:15Z</time></trkpt><trkpt lat="41.84222701242828" lon="12.648673769798476"><ele>100.5</ele><time>2026-04-01T13:49:16Z</time></trkpt><trkpt lat="41.842237192645776" lon="12.648551125032778"><ele>100.33333333333334</ele><time>2026-04-01T13:49:17Z</time></trkpt><trkpt lat="41.8422624219185" lon="12.648447844801696"><ele>100.16666666666667</ele><time>2026-04-01T13:49:18Z</time></trkpt><trkpt lat="41.842298734684796" lon="12.648351832293072"><ele>100.0</ele><time>2026-04-01T13:49:19Z</time></trkpt><trkpt lat="41.842343926387585" lon="12.648248605548224"><ele>100.0</ele><time>2026-04-01T13:49:20Z</time></trkpt><trkpt lat="41.84239826930907" lon="12.64813619003302"><ele>100.0</ele><time>2026-04-01T13:49:21Z</time></trkpt><trkpt lat="41.84246741394739" lon="12.648031231906218"><ele>100.0</ele><time>2026-04-01T13:49:22Z</time></trkpt><trkpt lat="41.84254800526073" lon="12.647933894577895"><ele>100.0</ele><time>2026-04-01T13:49:23Z</time></trkpt><trkpt lat="41.842640368926865" lon="12.647847075646522"><ele>100.0</ele><time>2026-04-01T13:49:23.999Z</time></trkpt><trkpt lat="41.842753633644314" lon="12.647786280315783"><ele>100.0</ele><time>2026-04-01T13:49:24.999Z</time></trkpt><trkpt lat="41.842865936880095" lon="12.64776515965284"><ele>100.0</ele><time>2026-04-01T13:49:25.999Z</time></trkpt><trkpt lat="41.84296679586214" lon="12.64777447162084"><ele>100.0</ele><time>2026-04-01T13:49:26.999Z</time></trkpt><trkpt lat="41.84307001790573" lon="12.647798983597253"><ele>100.0</ele><time>2026-04-01T13:49:27.999Z</time></trkpt><trkpt lat="41.84317457492246" lon="12.647846568388728"><ele>100.0</ele><time>2026-04-01T13:49:28.999Z</time></trkpt><trkpt lat="41.843269023987155" lon="12.647901257558129"><ele>100.0</ele><time>2026-04-01T13:49:29.999Z</time></trkpt><trkpt lat="41.84335727147444" lon="12.647921121226908"><ele>100.0</ele><time>2026-04-01T13:49:30.999Z</time></trkpt><trkpt lat="41.84344393380902" lon="12.647890959296056"><ele>100.0</ele><time>2026-04-01T13:49:31.999Z</time></trkpt><trkpt lat="41.843524076138884" lon="12.647818688498733"><ele>100.0</ele><time>2026-04-01T13:49:32.999Z</time></trkpt><trkpt lat="41.84358250771877" lon="12.647715213124933"><ele>100.0</ele><time>2026-04-01T13:49:33.999Z</time></trkpt><trkpt lat="41.843612407845875" lon="12.647587091661027"><ele>99.25</ele><time>2026-04-01T13:49:34.999Z</time></trkpt><trkpt lat="41.84360615805072" lon="12.64744312170572"><ele>98.5</ele><time>2026-04-01T13:49:35.999Z</time></trkpt><trkpt lat="41.843564301231694" lon="12.647307241213648"><ele>97.75</ele><time>2026-04-01T13:49:36.999Z</time></trkpt><trkpt lat="41.843487111130145" lon="12.647189519771258"><ele>97.0</ele><time>2026-04-01T13:49:37.999Z</time></trkpt><trkpt lat="41.84337367414341" lon="12.647133617937754"><ele>98.25</ele><time>2026-04-01T13:49:38.999Z</time></trkpt><trkpt lat="41.84329911505219" lon="12.64696570709063"><ele>99.5</ele><time>2026-04-01T13:49:39.999Z</time></trkpt><trkpt lat="41.84324173741368" lon="12.646812604375981"><ele>100.75</ele><time>2026-04-01T13:49:40.999Z</time></trkpt><trkpt lat="41.84319904567701" lon="12.646646732897167"><ele>102.0</ele><time>2026-04-01T13:49:41.999Z</time></trkpt><trkpt lat="41.84316019489816" lon="12.646466997573755"><ele>102.0</ele><time>2026-04-01T13:49:42.999Z</time></trkpt><trkpt lat="41.84312192154468" lon="12.64628747543685"><ele>102.0</ele><time>2026-04-01T13:49:43.999Z</time></trkpt><trkpt lat="41.84308657621863" lon="12.646127543934432"><ele>102.0</ele><time>2026-04-01T13:49:44.999Z</time></trkpt><trkpt lat="41.84305084176439" lon="12.645967397694362"><ele>102.0</ele><time>2026-04-01T13:49:45.999Z</time></trkpt><trkpt lat="41.84301305215436" lon="12.645798245703011"><ele>101.25</ele><time>2026-04-01T13:49:46.999Z</time></trkpt><trkpt lat="41.84297515560804" lon="12.645626714900004"><ele>100.5</ele><time>2026-04-01T13:49:47.999Z</time></trkpt><trkpt lat="41.84293373566089" lon="12.645447365652158"><ele>99.75</ele><time>2026-04-01T13:49:48.999Z</time></trkpt><trkpt lat="41.842890853459764" lon="12.645262380464862"><ele>99.0</ele><time>2026-04-01T13:49:49.999Z</time></trkpt><trkpt lat="41.84284621414572" lon="12.645073282744653"><ele>98.0</ele><time>2026-04-01T13:49:50.999Z</time></trkpt><trkpt lat="41.84280145211786" lon="12.644875833351254"><ele>97.0</ele><time>2026-04-01T13:49:51.999Z</time></trkpt><trkpt lat="41.842760023378084" lon="12.644675177043087"><ele>96.0</ele><time>2026-04-01T13:49:52.999Z</time></trkpt><trkpt lat="41.84271387938658" lon="12.644467841546481"><ele>96.0</ele><time>2026-04-01T13:49:53.999Z</time></trkpt><trkpt lat="41.84266581306788" lon="12.644270567724135"><ele>96.0</ele><time>2026-04-01T13:49:54.999Z</time></trkpt><trkpt lat="41.84262764411073" lon="12.644088061806343"><ele>96.0</ele><time>2026-04-01T13:49:55.999Z</time></trkpt><trkpt lat="41.8425894992516" lon="12.64390168655097"><ele>96.0</ele><time>2026-04-01T13:49:56.999Z</time></trkpt><trkpt lat="41.842542064118526" lon="12.643709823016419"><ele>95.33333333333333</ele><time>2026-04-01T13:49:57.999Z</time></trkpt><trkpt lat="41.84249842601479" lon="12.643513844639559"><ele>94.66666666666666</ele><time>2026-04-01T13:49:58.999Z</time></trkpt><trkpt lat="41.84247105523881" lon="12.643306688665321"><ele>94.0</ele><time>2026-04-01T13:49:59.999Z</time></trkpt><trkpt lat="41.842473269352205" lon="12.64310478053238"><ele>94.0</ele><time>2026-04-01T13:50:00.999Z</time></trkpt><trkpt lat="41.842501345227134" lon="12.6429065713404"><ele>94.0</ele><time>2026-04-01T13:50:01.999Z</time></trkpt><trkpt lat="41.84254575450841" lon="12.642711275446192"><ele>94.0</ele><time>2026-04-01T13:50:02.999Z</time></trkpt><trkpt lat="41.842611056053116" lon="12.642521348345149"><ele>93.33333333333333</ele><time>2026-04-01T13:50:03.999Z</time></trkpt><trkpt lat="41.84267827465668" lon="12.642333945718537"><ele>92.66666666666667</ele><time>2026-04-01T13:50:04.999Z</time></trkpt><trkpt lat="41.842814772980915" lon="12.64218804005778"><ele>92.0</ele><time>2026-04-01T13:50:05.999Z</time></trkpt><trkpt lat="41.84293945017559" lon="12.642057379243528"><ele>91.0</ele><time>2026-04-01T13:50:06.999Z</time></trkpt><trkpt lat="41.84307878368219" lon="12.641958552553715"><ele>90.0</ele><time>2026-04-01T13:50:07.999Z</time></trkpt><trkpt lat="41.84322784119724" lon="12.641888380538175"><ele>89.0</ele><time>2026-04-01T13:50:08.999Z</time></trkpt><trkpt lat="41.84338194870796" lon="12.641833128241732"><ele>90.0</ele><time>2026-04-01T13:50:09.999Z</time></trkpt><trkpt lat="41.84354438178245" lon="12.641777120149893"><ele>91.0</ele><time>2026-04-01T13:50:10.999Z</time></trkpt><trkpt lat="41.84371681317286" lon="12.641712319536067"><ele>92.0</ele><time>2026-04-01T13:50:11.998Z</time></trkpt><trkpt lat="41.84388413671594" lon="12.641648684953894"><ele>92.0</ele><time>2026-04-01T13:50:12.998Z</time></trkpt><trkpt lat="41.844034794037576" lon="12.641589824345427"><ele>92.0</ele><time>2026-04-01T13:50:13.998Z</time></trkpt><trkpt lat="41.84418620374389" lon="12.64152787923704"><ele>92.0</ele><time>2026-04-01T13:50:14.998Z</time></trkpt><trkpt lat="41.844341621047654" lon="12.641462555021613"><ele>91.0</ele><time>2026-04-01T13:50:15.998Z</time></trkpt><trkpt lat="41.84449473492883" lon="12.641409156444416"><ele>90.0</ele><time>2026-04-01T13:50:16.998Z</time></trkpt><trkpt lat="41.84466100651779" lon="12.641341068448053"><ele>89.0</ele><time>2026-04-01T13:50:17.998Z</time></trkpt><trkpt lat="41.844825462461245" lon="12.641282064992273"><ele>89.0</ele><time>2026-04-01T13:50:18.998Z</time></trkpt><trkpt lat="41.84498876482544" lon="12.641210425425111"><ele>89.0</ele><time>2026-04-01T13:50:19.998Z</time></trkpt><trkpt lat="41.84515627136183" lon="12.641140267546438"><ele>89.0</ele><time>2026-04-01T13:50:20.998Z</time></trkpt><trkpt lat="41.84532370114114" lon="12.641079106330062"><ele>86.33333333333334</ele><time>2026-04-01T13:50:21.998Z</time></trkpt><trkpt lat="41.84549079091227" lon="12.641012366039911"><ele>83.66666666666667</ele><time>2026-04-01T13:50:22.998Z</time></trkpt><trkpt lat="41.84565531233212" lon="12.640938542716906"><ele>81.0</ele><time>2026-04-01T13:50:23.998Z</time></trkpt><trkpt lat="41.84582473539815" lon="12.640872912710405"><ele>81.66666666666667</ele><time>2026-04-01T13:50:24.998Z</time></trkpt><trkpt lat="41.84599567356608" lon="12.64080654966676"><ele>82.33333333333334</ele><time>2026-04-01T13:50:25.998Z</time></trkpt><trkpt lat="41.84616894184955" lon="12.640735165041013"><ele>83.0</ele><time>2026-04-01T13:50:26.998Z</time></trkpt><trkpt lat="41.846344100395925" lon="12.640669872595181"><ele>83.0</ele><time>2026-04-01T13:50:27.998Z</time></trkpt><trkpt lat="41.84652057043983" lon="12.640599077729942"><ele>83.0</ele><time>2026-04-01T13:50:28.998Z</time></trkpt><trkpt lat="41.8466972794747" lon="12.640526166845742"><ele>83.0</ele><time>2026-04-01T13:50:29.998Z</time></trkpt><trkpt lat="41.84687664989018" lon="12.640456435959333"><ele>83.33333333333334</ele><time>2026-04-01T13:50:30.998Z</time></trkpt><trkpt lat="41.84705879124272" lon="12.64037981738427"><ele>83.66666666666667</ele><time>2026-04-01T13:50:31.998Z</time></trkpt><trkpt lat="41.847240363092546" lon="12.640305332510057"><ele>84.0</ele><time>2026-04-01T13:50:32.998Z</time></trkpt><trkpt lat="41.84742386581642" lon="12.640237091054457"><ele>84.0</ele><time>2026-04-01T13:50:33.998Z</time></trkpt><trkpt lat="41.847609575135145" lon="12.640164735826747"><ele>84.0</ele><time>2026-04-01T13:50:34.998Z</time></trkpt><trkpt lat="41.84779955724914" lon="12.64009072945408"><ele>84.0</ele><time>2026-04-01T13:50:35.998Z</time></trkpt><trkpt lat="41.84797418691445" lon="12.64002326638731"><ele>83.33333333333333</ele><time>2026-04-01T13:50:36.998Z</time></trkpt><trkpt lat="41.84814762805881" lon="12.63995965335655"><ele>82.66666666666666</ele><time>2026-04-01T13:50:38Z</time></trkpt><trkpt lat="41.84831962411337" lon="12.639887960782405"><ele>82.0</ele><time>2026-04-01T13:50:39Z</time></trkpt><trkpt lat="41.848491710130844" lon="12.639817960303471"><ele>81.66666666666666</ele><time>2026-04-01T13:50:40Z</time></trkpt><trkpt lat="41.84866570379335" lon="12.639752982516733"><ele>81.33333333333333</ele><time>2026-04-01T13:50:41Z</time></trkpt><trkpt lat="41.84883883003923" lon="12.63968584339177"><ele>81.0</ele><time>2026-04-01T13:50:42Z</time></trkpt><trkpt lat="41.84901254075264" lon="12.639612612140615"><ele>81.0</ele><time>2026-04-01T13:50:43Z</time></trkpt><trkpt lat="41.849186979138395" lon="12.639543559709239"><ele>81.0</ele><time>2026-04-01T13:50:44Z</time></trkpt><trkpt lat="41.849362941752965" lon="12.639474873140045"><ele>81.0</ele><time>2026-04-01T13:50:45Z</time></trkpt><trkpt lat="41.849536165817696" lon="12.63939624353818"><ele>80.33333333333333</ele><time>2026-04-01T13:50:46Z</time></trkpt><trkpt lat="41.84970679174915" lon="12.639305687160665"><ele>79.66666666666666</ele><time>2026-04-01T13:50:47Z</time></trkpt><trkpt lat="41.84987442638823" lon="12.639204727221982"><ele>79.0</ele><time>2026-04-01T13:50:48Z</time></trkpt><trkpt lat="41.850036024119255" lon="12.63908126552317"><ele>79.33333333333333</ele><time>2026-04-01T13:50:49Z</time></trkpt><trkpt lat="41.850192028143205" lon="12.638942147872122"><ele>79.66666666666667</ele><time>2026-04-01T13:50:50Z</time></trkpt><trkpt lat="41.85034037906393" lon="12.638789773311611"><ele>80.0</ele><time>2026-04-01T13:50:51Z</time></trkpt><trkpt lat="41.85048262652048" lon="12.638618835873114"><ele>80.0</ele><time>2026-04-01T13:50:52Z</time></trkpt><trkpt lat="41.850611507254946" lon="12.638438506110674"><ele>80.0</ele><time>2026-04-01T13:50:53Z</time></trkpt><trkpt lat="41.85073541028303" lon="12.63824504948449"><ele>80.0</ele><time>2026-04-01T13:50:54Z</time></trkpt><trkpt lat="41.85084972292833" lon="12.638038824922088"><ele>80.0</ele><time>2026-04-01T13:50:55Z</time></trkpt><trkpt lat="41.850945140757055" lon="12.637829377577695"><ele>80.0</ele><time>2026-04-01T13:50:56Z</time></trkpt><trkpt lat="41.8510236331022" lon="12.637618078879614"><ele>80.0</ele><time>2026-04-01T13:50:57Z</time></trkpt><trkpt lat="41.8510840696398" lon="12.637395566739858"><ele>80.0</ele><time>2026-04-01T13:50:58Z</time></trkpt><trkpt lat="41.851127563639714" lon="12.63716775211902"><ele>80.0</ele><time>2026-04-01T13:50:59Z</time></trkpt><trkpt lat="41.85115543761927" lon="12.636934184201479"><ele>80.0</ele><time>2026-04-01T13:51:00Z</time></trkpt><trkpt lat="41.85116677698276" lon="12.636697078756852"><ele>80.0</ele><time>2026-04-01T13:51:01Z</time></trkpt><trkpt lat="41.85117198875478" lon="12.636460477024828"><ele>80.0</ele><time>2026-04-01T13:51:02Z</time></trkpt><trkpt lat="41.85118477922979" lon="12.636227596439946"><ele>80.0</ele><time>2026-04-01T13:51:03Z</time></trkpt><trkpt lat="41.85121498401749" lon="12.635998377286015"><ele>79.66666666666667</ele><time>2026-04-01T13:51:04Z</time></trkpt><trkpt lat="41.85125885345658" lon="12.635767818042597"><ele>79.33333333333333</ele><time>2026-04-01T13:51:05Z</time></trkpt><trkpt lat="41.85131208378214" lon="12.635540845932258"><ele>79.0</ele><time>2026-04-01T13:51:06Z</time></trkpt><trkpt lat="41.85138210022466" lon="12.635321479550171"><ele>78.33333333333333</ele><time>2026-04-01T13:51:07Z</time></trkpt><trkpt lat="41.85146634505995" lon="12.635104491485013"><ele>77.66666666666667</ele><time>2026-04-01T13:51:08Z</time></trkpt><trkpt lat="41.85156585831924" lon="12.634888432806843"><ele>77.0</ele><time>2026-04-01T13:51:09Z</time></trkpt><trkpt lat="41.85167929374769" lon="12.634680833952272"><ele>77.0</ele><time>2026-04-01T13:51:10Z</time></trkpt><trkpt lat="41.851805476699575" lon="12.634482541610321"><ele>77.0</ele><time>2026-04-01T13:51:11Z</time></trkpt><trkpt lat="41.851945655302345" lon="12.634290234453355"><ele>77.0</ele><time>2026-04-01T13:51:12Z</time></trkpt><trkpt lat="41.852091068634536" lon="12.63409707141241"><ele>77.0</ele><time>2026-04-01T13:51:13Z</time></trkpt><trkpt lat="41.8522203264698" lon="12.633926005894663"><ele>77.0</ele><time>2026-04-01T13:51:14Z</time></trkpt><trkpt lat="41.8523467616142" lon="12.633770571149212"><ele>77.0</ele><time>2026-04-01T13:51:15Z</time></trkpt><trkpt lat="41.85247487142548" lon="12.633623313893692"><ele>76.75</ele><time>2026-04-01T13:51:16Z</time></trkpt><trkpt lat="41.85259395377111" lon="12.633496973383446"><ele>76.5</ele><time>2026-04-01T13:51:17Z</time></trkpt><trkpt lat="41.85270522682825" lon="12.633379135211092"><ele>76.25</ele><time>2026-04-01T13:51:18Z</time></trkpt><trkpt lat="41.85280417809711" lon="12.633274240377938"><ele>76.0</ele><time>2026-04-01T13:51:19Z</time></trkpt><trkpt lat="41.852905779334634" lon="12.633190631343714"><ele>76.0</ele><time>2026-04-01T13:51:20Z</time></trkpt><trkpt lat="41.8530142054315" lon="12.633147849259684"><ele>76.0</ele><time>2026-04-01T13:51:21Z</time></trkpt><trkpt lat="41.853132460641376" lon="12.633119427688671"><ele>76.0</ele><time>2026-04-01T13:51:22Z</time></trkpt><trkpt lat="41.85325268141708" lon="12.633075015344618"><ele>76.0</ele><time>2026-04-01T13:51:23Z</time></trkpt><trkpt lat="41.85336305833416" lon="12.632976463243162"><ele>76.0</ele><time>2026-04-01T13:51:24Z</time></trkpt><trkpt lat="41.853447817641495" lon="12.632822378938082"><ele>76.0</ele><time>2026-04-01T13:51:25Z</time></trkpt><trkpt lat="41.85347436594333" lon="12.632623940794282"><ele>76.0</ele><time>2026-04-01T13:51:25.999Z</time></trkpt><trkpt lat="41.8535372194191" lon="12.632456398075819"><ele>76.0</ele><time>2026-04-01T13:51:26.999Z</time></trkpt><trkpt lat="41.853640273464634" lon="12.632322778158365"><ele>75.0</ele><time>2026-04-01T13:51:27.999Z</time></trkpt><trkpt lat="41.85376388016143" lon="12.632206734967463"><ele>74.0</ele><time>2026-04-01T13:51:28.999Z</time></trkpt><trkpt lat="41.853872548561675" lon="12.632101712616702"><ele>73.0</ele><time>2026-04-01T13:51:29.999Z</time></trkpt><trkpt lat="41.853965034611" lon="12.632002793730997"><ele>72.0</ele><time>2026-04-01T13:51:30.999Z</time></trkpt><trkpt lat="41.85406147243185" lon="12.631891174090768"><ele>72.0</ele><time>2026-04-01T13:51:31.999Z</time></trkpt><trkpt lat="41.85415785312395" lon="12.631777800814836"><ele>72.0</ele><time>2026-04-01T13:51:32.999Z</time></trkpt><trkpt lat="41.8542609222996" lon="12.631666709108718"><ele>72.0</ele><time>2026-04-01T13:51:33.999Z</time></trkpt><trkpt lat="41.8543688790365" lon="12.631557654866825"><ele>72.0</ele><time>2026-04-01T13:51:34.999Z</time></trkpt><trkpt lat="41.85447439793479" lon="12.631438254623244"><ele>71.5</ele><time>2026-04-01T13:51:35.999Z</time></trkpt><trkpt lat="41.854585376379376" lon="12.63131028392942"><ele>71.0</ele><time>2026-04-01T13:51:36.999Z</time></trkpt><trkpt lat="41.85469843358114" lon="12.631184704836501"><ele>70.5</ele><time>2026-04-01T13:51:37.999Z</time></trkpt><trkpt lat="41.85479813810127" lon="12.63108172870293"><ele>70.0</ele><time>2026-04-01T13:51:38.999Z</time></trkpt><trkpt lat="41.85490014542499" lon="12.630983952001065"><ele>70.0</ele><time>2026-04-01T13:51:39.999Z</time></trkpt><trkpt lat="41.85499655904162" lon="12.630882459516474"><ele>70.0</ele><time>2026-04-01T13:51:40.999Z</time></trkpt><trkpt lat="41.85508045828941" lon="12.630786237761564"><ele>70.0</ele><time>2026-04-01T13:51:41.999Z</time></trkpt><trkpt lat="41.85514477005356" lon="12.630711127123007"><ele>70.0</ele><time>2026-04-01T13:51:42.999Z</time></trkpt><trkpt lat="41.855197638308624" lon="12.63065212582082"><ele>70.0</ele><time>2026-04-01T13:51:43.999Z</time></trkpt><trkpt lat="41.855250982195564" lon="12.630598851672547"><ele>69.83333333333333</ele><time>2026-04-01T13:51:44.999Z</time></trkpt><trkpt lat="41.85531149559976" lon="12.630547142657107"><ele>69.66666666666666</ele><time>2026-04-01T13:51:45.999Z</time></trkpt><trkpt lat="41.855389134116294" lon="12.63051629814905"><ele>69.5</ele><time>2026-04-01T13:51:46.999Z</time></trkpt><trkpt lat="41.85547669889258" lon="12.630505022453956"><ele>69.33333333333333</ele><time>2026-04-01T13:51:47.999Z</time></trkpt><trkpt lat="41.85556399973573" lon="12.630498373165583"><ele>69.16666666666667</ele><time>2026-04-01T13:51:48.999Z</time></trkpt><trkpt lat="41.855654579075185" lon="12.630450821691706"><ele>69.0</ele><time>2026-04-01T13:51:49.999Z</time></trkpt><trkpt lat="41.85573218481803" lon="12.630368100061927"><ele>68.8</ele><time>2026-04-01T13:51:50.999Z</time></trkpt><trkpt lat="41.8557953827738" lon="12.630258722991904"><ele>68.60000000000001</ele><time>2026-04-01T13:51:51.999Z</time></trkpt><trkpt lat="41.85583756787975" lon="12.630136766213242"><ele>68.4</ele><time>2026-04-01T13:51:52.999Z</time></trkpt><trkpt lat="41.85586269554702" lon="12.630015771438936"><ele>68.2</ele><time>2026-04-01T13:51:53.999Z</time></trkpt><trkpt lat="41.855892426399386" lon="12.629894798340356"><ele>68.0</ele><time>2026-04-01T13:51:54.999Z</time></trkpt><trkpt lat="41.85595959690958" lon="12.629802164420484"><ele>67.8</ele><time>2026-04-01T13:51:55.999Z</time></trkpt><trkpt lat="41.856041899173434" lon="12.629715610199998"><ele>67.6</ele><time>2026-04-01T13:51:56.999Z</time></trkpt><trkpt lat="41.856120665985266" lon="12.629617834160271"><ele>67.4</ele><time>2026-04-01T13:51:57.999Z</time></trkpt><trkpt lat="41.85619807047452" lon="12.629505634976356"><ele>67.2</ele><time>2026-04-01T13:51:58.999Z</time></trkpt><trkpt lat="41.85627716096606" lon="12.62938517116917"><ele>67.0</ele><time>2026-04-01T13:51:59.999Z</time></trkpt><trkpt lat="41.85634588432833" lon="12.629275417174883"><ele>67.0</ele><time>2026-04-01T13:52:00.999Z</time></trkpt><trkpt lat="41.856397517505606" lon="12.629162777140678"><ele>67.0</ele><time>2026-04-01T13:52:01.999Z</time></trkpt><trkpt lat="41.856447166279" lon="12.629043897068017"><ele>67.0</ele><time>2026-04-01T13:52:02.999Z</time></trkpt><trkpt lat="41.8564963375314" lon="12.628912808557088"><ele>67.0</ele><time>2026-04-01T13:52:03.999Z</time></trkpt><trkpt lat="41.856541725685815" lon="12.628771228712331"><ele>67.0</ele><time>2026-04-01T13:52:04.999Z</time></trkpt><trkpt lat="41.85658188551558" lon="12.62862319457119"><ele>68.5</ele><time>2026-04-01T13:52:05.999Z</time></trkpt><trkpt lat="41.85661603668426" lon="12.628465738340884"><ele>70.0</ele><time>2026-04-01T13:52:06.999Z</time></trkpt><trkpt lat="41.856639467988316" lon="12.628301745574381"><ele>71.5</ele><time>2026-04-01T13:52:07.999Z</time></trkpt><trkpt lat="41.8566499760099" lon="12.6281253748658"><ele>73.0</ele><time>2026-04-01T13:52:08.999Z</time></trkpt><trkpt lat="41.856658500174376" lon="12.627975515577466"><ele>73.0</ele><time>2026-04-01T13:52:09.999Z</time></trkpt><trkpt lat="41.856667578343696" lon="12.62783016025055"><ele>73.0</ele><time>2026-04-01T13:52:10.999Z</time></trkpt><trkpt lat="41.85666984565637" lon="12.62767169443221"><ele>73.0</ele><time>2026-04-01T13:52:11.999Z</time></trkpt><trkpt lat="41.85666128814132" lon="12.627502656038116"><ele>73.0</ele><time>2026-04-01T13:52:12.998Z</time></trkpt><trkpt lat="41.856658111744466" lon="12.627320688737502"><ele>72.5</ele><time>2026-04-01T13:52:13.998Z</time></trkpt><trkpt lat="41.85664495404068" lon="12.6271511899332"><ele>72.0</ele><time>2026-04-01T13:52:14.998Z</time></trkpt><trkpt lat="41.856626279043674" lon="12.627000638553241"><ele>71.5</ele><time>2026-04-01T13:52:15.998Z</time></trkpt><trkpt lat="41.85660958913197" lon="12.626848738868837"><ele>71.0</ele><time>2026-04-01T13:52:16.998Z</time></trkpt><trkpt lat="41.85661460521702" lon="12.626715099141018"><ele>71.0</ele><time>2026-04-01T13:52:17.998Z</time></trkpt><trkpt lat="41.85663101780982" lon="12.626625637208406"><ele>71.0</ele><time>2026-04-01T13:52:18.998Z</time></trkpt><trkpt lat="41.85667049165292" lon="12.626555314693077"><ele>71.0</ele><time>2026-04-01T13:52:19.998Z</time></trkpt><trkpt lat="41.856768524037314" lon="12.62647529521566"><ele>71.0</ele><time>2026-04-01T13:52:21.998Z</time></trkpt><trkpt lat="41.85688238323874" lon="12.626388709848891"><ele>71.0</ele><time>2026-04-01T13:52:23.998Z</time></trkpt><trkpt lat="41.85696423884343" lon="12.626380503337689"><ele>70.6</ele><time>2026-04-01T13:52:24.998Z</time></trkpt><trkpt lat="41.85703906152548" lon="12.626329649598695"><ele>70.19999999999999</ele><time>2026-04-01T13:52:25.998Z</time></trkpt><trkpt lat="41.85712249611572" lon="12.62626481476633"><ele>69.80000000000001</ele><time>2026-04-01T13:52:26.998Z</time></trkpt><trkpt lat="41.8572018168269" lon="12.626183649379167"><ele>69.4</ele><time>2026-04-01T13:52:27.998Z</time></trkpt><trkpt lat="41.85725903075686" lon="12.626108526517937"><ele>69.0</ele><time>2026-04-01T13:52:28.998Z</time></trkpt><trkpt lat="41.857407343657655" lon="12.626047102647158"><ele>69.0</ele><time>2026-04-01T13:52:30.998Z</time></trkpt><trkpt lat="41.85752898072892" lon="12.62603966937205"><ele>69.0</ele><time>2026-04-01T13:52:32.998Z</time></trkpt><trkpt lat="41.85759397744408" lon="12.62606704257284"><ele>69.0</ele><time>2026-04-01T13:52:33.998Z</time></trkpt><trkpt lat="41.85765292188345" lon="12.626124780608793"><ele>69.0</ele><time>2026-04-01T13:52:34.998Z</time></trkpt><trkpt lat="41.857691867229946" lon="12.626206912691595"><ele>69.0</ele><time>2026-04-01T13:52:35.998Z</time></trkpt><trkpt lat="41.857716509646785" lon="12.626304363493645"><ele>69.0</ele><time>2026-04-01T13:52:36.998Z</time></trkpt><trkpt lat="41.857713434694716" lon="12.626402328735809"><ele>69.0</ele><time>2026-04-01T13:52:37.998Z</time></trkpt><trkpt lat="41.85771150780925" lon="12.626501407467615"><ele>69.0</ele><time>2026-04-01T13:52:38.998Z</time></trkpt><trkpt lat="41.857734011981044" lon="12.626607689387042"><ele>69.0</ele><time>2026-04-01T13:52:39.998Z</time></trkpt><trkpt lat="41.85778636769374" lon="12.6266900020755"><ele>69.0</ele><time>2026-04-01T13:52:40.998Z</time></trkpt><trkpt lat="41.857850443846424" lon="12.626739279621628"><ele>69.0</ele><time>2026-04-01T13:52:41.998Z</time></trkpt><trkpt lat="41.85792284365274" lon="12.626780631286453"><ele>69.0</ele><time>2026-04-01T13:52:42.998Z</time></trkpt><trkpt lat="41.857996776144866" lon="12.626822648944307"><ele>69.0</ele><time>2026-04-01T13:52:44Z</time></trkpt><trkpt lat="41.85809330034502" lon="12.626901066401471"><ele>69.0</ele><time>2026-04-01T13:52:45Z</time></trkpt><trkpt lat="41.858198040255125" lon="12.626976114286663"><ele>69.0</ele><time>2026-04-01T13:52:46Z</time></trkpt><trkpt lat="41.85830115052942" lon="12.627050047977733"><ele>69.0</ele><time>2026-04-01T13:52:47Z</time></trkpt><trkpt lat="41.85839116003702" lon="12.627115606764333"><ele>68.2</ele><time>2026-04-01T13:52:48Z</time></trkpt><trkpt lat="41.858483731273324" lon="12.627179509686849"><ele>67.4</ele><time>2026-04-01T13:52:49Z</time></trkpt><trkpt lat="41.85858428093746" lon="12.627241893290945"><ele>66.6</ele><time>2026-04-01T13:52:50Z</time></trkpt><trkpt lat="41.858674991002246" lon="12.627298881134037"><ele>65.8</ele><time>2026-04-01T13:52:51Z</time></trkpt><trkpt lat="41.8587614204853" lon="12.62736240649965"><ele>65.0</ele><time>2026-04-01T13:52:52Z</time></trkpt><trkpt lat="41.85886043348442" lon="12.627400194706398"><ele>65.0</ele><time>2026-04-01T13:52:53Z</time></trkpt><trkpt lat="41.85895826547463" lon="12.627469975202589"><ele>65.0</ele><time>2026-04-01T13:52:54Z</time></trkpt><trkpt lat="41.85904463445479" lon="12.627549073319262"><ele>65.0</ele><time>2026-04-01T13:52:55Z</time></trkpt><trkpt lat="41.85913560794162" lon="12.627630292866613"><ele>65.0</ele><time>2026-04-01T13:52:56Z</time></trkpt><trkpt lat="41.85922968606922" lon="12.62770964921004"><ele>65.0</ele><time>2026-04-01T13:52:57Z</time></trkpt><trkpt lat="41.85932525308145" lon="12.627782332495054"><ele>64.8</ele><time>2026-04-01T13:52:58Z</time></trkpt><trkpt lat="41.859424471989136" lon="12.627848334397289"><ele>64.6</ele><time>2026-04-01T13:52:59Z</time></trkpt><trkpt lat="41.85952026644427" lon="12.627894837963417"><ele>64.4</ele><time>2026-04-01T13:53:00Z</time></trkpt><trkpt lat="41.85961866219193" lon="12.627934277560433"><ele>64.2</ele><time>2026-04-01T13:53:01.069Z</time></trkpt><trkpt lat="41.85970430947623" lon="12.627954857794462"><ele>64.0</ele><time>2026-04-01T13:53:02.064Z</time></trkpt><trkpt lat="41.859873433236075" lon="12.627985193131643"><ele>64.0</ele><time>2026-04-01T13:53:04Z</time></trkpt><trkpt lat="41.860127789123304" lon="12.627974337391686"><ele>64.0</ele><time>2026-04-01T13:53:05Z</time></trkpt><trkpt lat="41.86030149185431" lon="12.627937616835512"><ele>64.0</ele><time>2026-04-01T13:53:06Z</time></trkpt><trkpt lat="41.86046783863078" lon="12.627895665202036"><ele>64.0</ele><time>2026-04-01T13:53:07Z</time></trkpt><trkpt lat="41.86060183706618" lon="12.62786013395557"><ele>64.0</ele><time>2026-04-01T13:53:08Z</time></trkpt><trkpt lat="41.8607544338758" lon="12.627818721248401"><ele>64.0</ele><time>2026-04-01T13:53:09Z</time></trkpt><trkpt lat="41.860888961290776" lon="12.627800317170104"><ele>64.0</ele><time>2026-04-01T13:53:10Z</time></trkpt><trkpt lat="41.86100964461334" lon="12.627764844025432"><ele>64.0</ele><time>2026-04-01T13:53:11Z</time></trkpt><trkpt lat="41.861128273583226" lon="12.627734041067542"><ele>64.0</ele><time>2026-04-01T13:53:12Z</time></trkpt><trkpt lat="41.86124373201616" lon="12.627706519844669"><ele>64.0</ele><time>2026-04-01T13:53:13Z</time></trkpt><trkpt lat="41.8613524575467" lon="12.627655315874698"><ele>64.0</ele><time>2026-04-01T13:53:14Z</time></trkpt><trkpt lat="41.86146953563682" lon="12.627644908713815"><ele>64.0</ele><time>2026-04-01T13:53:15Z</time></trkpt><trkpt lat="41.86158053485538" lon="12.62759247710932"><ele>64.0</ele><time>2026-04-01T13:53:16Z</time></trkpt><trkpt lat="41.861681132563156" lon="12.62756463193984"><ele>64.0</ele><time>2026-04-01T13:53:17Z</time></trkpt><trkpt lat="41.861776960474884" lon="12.627538068899462"><ele>64.0</ele><time>2026-04-01T13:53:18Z</time></trkpt><trkpt lat="41.86187483329125" lon="12.627606442695066"><ele>64.0</ele><time>2026-04-01T13:53:19Z</time></trkpt><trkpt lat="41.86196678802601" lon="12.627613936389052"><ele>63.2</ele><time>2026-04-01T13:53:20Z</time></trkpt><trkpt lat="41.86206085169694" lon="12.627619077195433"><ele>62.400000000000006</ele><time>2026-04-01T13:53:21Z</time></trkpt><trkpt lat="41.86215708184537" lon="12.627626146448728"><ele>61.6</ele><time>2026-04-01T13:53:22Z</time></trkpt><trkpt lat="41.8622567901194" lon="12.627639063994323"><ele>60.8</ele><time>2026-04-01T13:53:23Z</time></trkpt><trkpt lat="41.86235489936425" lon="12.627681651168404"><ele>60.0</ele><time>2026-04-01T13:53:24Z</time></trkpt><trkpt lat="41.862449250130894" lon="12.627761710053276"><ele>60.25</ele><time>2026-04-01T13:53:25Z</time></trkpt><trkpt lat="41.86252765631273" lon="12.627883588910725"><ele>60.5</ele><time>2026-04-01T13:53:26Z</time></trkpt><trkpt lat="41.86257139823452" lon="12.628034424990908"><ele>60.75</ele><time>2026-04-01T13:53:27Z</time></trkpt><trkpt lat="41.86259171438826" lon="12.628198252976103"><ele>61.0</ele><time>2026-04-01T13:53:28Z</time></trkpt><trkpt lat="41.8626143903508" lon="12.628364375080324"><ele>61.25</ele><time>2026-04-01T13:53:28.999Z</time></trkpt><trkpt lat="41.86263364366337" lon="12.628518778375167"><ele>61.5</ele><time>2026-04-01T13:53:29.999Z</time></trkpt><trkpt lat="41.86264501148284" lon="12.628675244550159"><ele>61.75</ele><time>2026-04-01T13:53:30.999Z</time></trkpt><trkpt lat="41.862666002693764" lon="12.628836041857983"><ele>62.0</ele><time>2026-04-01T13:53:31.999Z</time></trkpt><trkpt lat="41.86268733310516" lon="12.62897138383723"><ele>62.2</ele><time>2026-04-01T13:53:32.999Z</time></trkpt><trkpt lat="41.862702120453925" lon="12.629088949334848"><ele>62.400000000000006</ele><time>2026-04-01T13:53:33.999Z</time></trkpt><trkpt lat="41.862724831764424" lon="12.629201852402115"><ele>62.599999999999994</ele><time>2026-04-01T13:53:34.999Z</time></trkpt><trkpt lat="41.862751202706484" lon="12.629316382042987"><ele>62.8</ele><time>2026-04-01T13:53:35.999Z</time></trkpt><trkpt lat="41.86277494848935" lon="12.62943931490842"><ele>63.0</ele><time>2026-04-01T13:53:36.999Z</time></trkpt><trkpt lat="41.86279501698783" lon="12.629574263049179"><ele>63.75</ele><time>2026-04-01T13:53:37.999Z</time></trkpt><trkpt lat="41.86282007624058" lon="12.629717926843487"><ele>64.5</ele><time>2026-04-01T13:53:38.999Z</time></trkpt><trkpt lat="41.86282971611956" lon="12.629878173312646"><ele>65.25</ele><time>2026-04-01T13:53:39.999Z</time></trkpt><trkpt lat="41.86287487251663" lon="12.63003235209002"><ele>66.0</ele><time>2026-04-01T13:53:40.999Z</time></trkpt><trkpt lat="41.86289956692522" lon="12.630195741564915"><ele>66.39999999999999</ele><time>2026-04-01T13:53:41.999Z</time></trkpt><trkpt lat="41.86292231040687" lon="12.630352240681509"><ele>66.8</ele><time>2026-04-01T13:53:42.999Z</time></trkpt><trkpt lat="41.86293847841429" lon="12.630491826219295"><ele>67.19999999999999</ele><time>2026-04-01T13:53:43.999Z</time></trkpt><trkpt lat="41.86294872798436" lon="12.63063276852829"><ele>67.6</ele><time>2026-04-01T13:53:44.999Z</time></trkpt><trkpt lat="41.86295868493954" lon="12.630772598056291"><ele>68.0</ele><time>2026-04-01T13:53:45.999Z</time></trkpt><trkpt lat="41.862963615513365" lon="12.630915606995693"><ele>68.0</ele><time>2026-04-01T13:53:46.999Z</time></trkpt><trkpt lat="41.862963264948284" lon="12.63106336929594"><ele>68.0</ele><time>2026-04-01T13:53:47.999Z</time></trkpt><trkpt lat="41.86297366271877" lon="12.631219227353524"><ele>68.0</ele><time>2026-04-01T13:53:48.999Z</time></trkpt><trkpt lat="41.862981695401736" lon="12.631394932684358"><ele>68.0</ele><time>2026-04-01T13:53:49.999Z</time></trkpt><trkpt lat="41.8629920393823" lon="12.631582308937292"><ele>68.5</ele><time>2026-04-01T13:53:50.999Z</time></trkpt><trkpt lat="41.862999676149336" lon="12.63173667588171"><ele>69.0</ele><time>2026-04-01T13:53:51.999Z</time></trkpt><trkpt lat="41.86300486442257" lon="12.631846560609569"><ele>69.5</ele><time>2026-04-01T13:53:52.999Z</time></trkpt><trkpt lat="41.863010884351425" lon="12.63193367314509"><ele>70.0</ele><time>2026-04-01T13:53:53.999Z</time></trkpt><trkpt lat="41.86301800621675" lon="12.632055347636172"><ele>70.5</ele><time>2026-04-01T13:53:55.999Z</time></trkpt><trkpt lat="41.863031044831416" lon="12.632143442312179"><ele>71.0</ele><time>2026-04-01T13:53:57.999Z</time></trkpt><trkpt lat="41.863035275002495" lon="12.632256003279673"><ele>71.0</ele><time>2026-04-01T13:53:59.999Z</time></trkpt><trkpt lat="41.86320245696836" lon="12.632246019849575"><ele>71.0</ele><time>2026-04-01T13:54:01.999Z</time></trkpt><trkpt lat="41.86330090405031" lon="12.63218915751883"><ele>71.0</ele><time>2026-04-01T13:54:03.999Z</time></trkpt><trkpt lat="41.86341049979302" lon="12.63209746705711"><ele>71.0</ele><time>2026-04-01T13:54:05.999Z</time></trkpt><trkpt lat="41.863494668216106" lon="12.632039820330235"><ele>71.2</ele><time>2026-04-01T13:54:07.999Z</time></trkpt><trkpt lat="41.86358268919379" lon="12.631977026249455"><ele>71.39999999999999</ele><time>2026-04-01T13:54:09.999Z</time></trkpt><trkpt lat="41.86368830752478" lon="12.631923229912921"><ele>71.6</ele><time>2026-04-01T13:54:11.999Z</time></trkpt><trkpt lat="41.86379909302013" lon="12.63185065725579"><ele>71.8</ele><time>2026-04-01T13:54:13.999Z</time></trkpt><trkpt lat="41.86385518466237" lon="12.631811662687307"><ele>72.0</ele><time>2026-04-01T13:54:14.999Z</time></trkpt><trkpt lat="41.863931178174" lon="12.6317700740169"><ele>72.0</ele><time>2026-04-01T13:54:15.998Z</time></trkpt><trkpt lat="41.86400043803642" lon="12.631725794122117"><ele>72.0</ele><time>2026-04-01T13:54:16.998Z</time></trkpt><trkpt lat="41.8640706234973" lon="12.63168347229895"><ele>72.0</ele><time>2026-04-01T13:54:17.998Z</time></trkpt><trkpt lat="41.86414517674353" lon="12.631638947806543"><ele>72.0</ele><time>2026-04-01T13:54:18.998Z</time></trkpt><trkpt lat="41.8642220800231" lon="12.631596677919154"><ele>72.0</ele><time>2026-04-01T13:54:19.998Z</time></trkpt><trkpt lat="41.864295352504705" lon="12.631555502900365"><ele>72.0</ele><time>2026-04-01T13:54:20.998Z</time></trkpt><trkpt lat="41.86435939143472" lon="12.631516195515786"><ele>71.8</ele><time>2026-04-01T13:54:21.998Z</time></trkpt><trkpt lat="41.86442974166767" lon="12.631463315141275"><ele>71.6</ele><time>2026-04-01T13:54:22.998Z</time></trkpt><trkpt lat="41.86451943198722" lon="12.631417085866364"><ele>71.39999999999999</ele><time>2026-04-01T13:54:23.998Z</time></trkpt><trkpt lat="41.86461095323049" lon="12.631357824414147"><ele>71.2</ele><time>2026-04-01T13:54:24.998Z</time></trkpt><trkpt lat="41.864696524885986" lon="12.631277978431013"><ele>71.0</ele><time>2026-04-01T13:54:25.998Z</time></trkpt><trkpt lat="41.864763858647855" lon="12.6311534760012"><ele>70.8</ele><time>2026-04-01T13:54:26.998Z</time></trkpt><trkpt lat="41.86480914295733" lon="12.631027332436126"><ele>70.6</ele><time>2026-04-01T13:54:27.998Z</time></trkpt><trkpt lat="41.86483709789542" lon="12.630911084959196"><ele>70.4</ele><time>2026-04-01T13:54:28.998Z</time></trkpt><trkpt lat="41.864875136570966" lon="12.630797067639016"><ele>70.2</ele><time>2026-04-01T13:54:29.998Z</time></trkpt><trkpt lat="41.864904249576405" lon="12.630672093606774"><ele>70.0</ele><time>2026-04-01T13:54:30.998Z</time></trkpt><trkpt lat="41.86495583079082" lon="12.630564830613244"><ele>70.0</ele><time>2026-04-01T13:54:31.998Z</time></trkpt><trkpt lat="41.86497680124417" lon="12.63045508092862"><ele>70.0</ele><time>2026-04-01T13:54:32.998Z</time></trkpt><trkpt lat="41.86502677415987" lon="12.630310963652255"><ele>70.0</ele><time>2026-04-01T13:54:34.998Z</time></trkpt><trkpt lat="41.865048103671484" lon="12.6302306091996"><ele>70.0</ele><time>2026-04-01T13:54:35.998Z</time></trkpt><trkpt lat="41.86507413233774" lon="12.630151949407917"><ele>70.0</ele><time>2026-04-01T13:54:36.998Z</time></trkpt><trkpt lat="41.865112157070016" lon="12.630060790630205"><ele>70.0</ele><time>2026-04-01T13:54:38.998Z</time></trkpt><trkpt lat="41.865151463773955" lon="12.629935720877672"><ele>70.16666666666666</ele><time>2026-04-01T13:54:41.998Z</time></trkpt><trkpt lat="41.865190136244884" lon="12.629865901713146"><ele>70.33333333333333</ele><time>2026-04-01T13:54:42.998Z</time></trkpt><trkpt lat="41.865233337817486" lon="12.6297728691695"><ele>70.5</ele><time>2026-04-01T13:54:43.998Z</time></trkpt><trkpt lat="41.86528532479328" lon="12.629666147620116"><ele>70.66666666666667</ele><time>2026-04-01T13:54:44.998Z</time></trkpt><trkpt lat="41.865361625110154" lon="12.629589481378849"><ele>70.83333333333334</ele><time>2026-04-01T13:54:45.998Z</time></trkpt><trkpt lat="41.86541116133847" lon="12.62950371180925"><ele>71.0</ele><time>2026-04-01T13:54:46.998Z</time></trkpt><trkpt lat="41.865469992400136" lon="12.629416964725062"><ele>71.2</ele><time>2026-04-01T13:54:47.998Z</time></trkpt><trkpt lat="41.865556342836676" lon="12.629330803751754"><ele>71.39999999999999</ele><time>2026-04-01T13:54:48.998Z</time></trkpt><trkpt lat="41.86562075010237" lon="12.629217170128479"><ele>71.6</ele><time>2026-04-01T13:54:50Z</time></trkpt><trkpt lat="41.86569925173874" lon="12.629116224908179"><ele>71.8</ele><time>2026-04-01T13:54:51Z</time></trkpt><trkpt lat="41.865775286498206" lon="12.629018055867359"><ele>72.0</ele><time>2026-04-01T13:54:52Z</time></trkpt><trkpt lat="41.86584976478601" lon="12.62892971069392"><ele>72.0</ele><time>2026-04-01T13:54:53Z</time></trkpt><trkpt lat="41.86591997514073" lon="12.62884183554711"><ele>72.0</ele><time>2026-04-01T13:54:54Z</time></trkpt><trkpt lat="41.86599349504423" lon="12.62874169482592"><ele>72.0</ele><time>2026-04-01T13:54:55Z</time></trkpt><trkpt lat="41.86607377210051" lon="12.628639675323262"><ele>72.0</ele><time>2026-04-01T13:54:56Z</time></trkpt><trkpt lat="41.86615776888911" lon="12.628526656620974"><ele>72.0</ele><time>2026-04-01T13:54:57Z</time></trkpt><trkpt lat="41.866239074226876" lon="12.628432495319569"><ele>71.4</ele><time>2026-04-01T13:54:58Z</time></trkpt><trkpt lat="41.86630758540841" lon="12.62834147665608"><ele>70.80000000000001</ele><time>2026-04-01T13:54:59Z</time></trkpt><trkpt lat="41.866391511226716" lon="12.628246012506066"><ele>70.2</ele><time>2026-04-01T13:55:00Z</time></trkpt><trkpt lat="41.866472374233794" lon="12.62814304252901"><ele>69.60000000000001</ele><time>2026-04-01T13:55:01Z</time></trkpt><trkpt lat="41.866551257593116" lon="12.62802574428517"><ele>69.0</ele><time>2026-04-01T13:55:02Z</time></trkpt><trkpt lat="41.866630355887985" lon="12.627905453254728"><ele>69.4</ele><time>2026-04-01T13:55:03Z</time></trkpt><trkpt lat="41.866706828020476" lon="12.627799456381455"><ele>69.80000000000001</ele><time>2026-04-01T13:55:04Z</time></trkpt><trkpt lat="41.86677568373823" lon="12.627712296026386"><ele>70.19999999999999</ele><time>2026-04-01T13:55:05Z</time></trkpt><trkpt lat="41.86683544608246" lon="12.627633646721025"><ele>70.6</ele><time>2026-04-01T13:55:06Z</time></trkpt><trkpt lat="41.866891358232365" lon="12.627557655645186"><ele>71.0</ele><time>2026-04-01T13:55:07Z</time></trkpt><trkpt lat="41.8669557011022" lon="12.627481662257374"><ele>71.0</ele><time>2026-04-01T13:55:08Z</time></trkpt><trkpt lat="41.867024334998504" lon="12.627407594906089"><ele>71.0</ele><time>2026-04-01T13:55:09Z</time></trkpt><trkpt lat="41.867092909377675" lon="12.627332152344433"><ele>71.0</ele><time>2026-04-01T13:55:10Z</time></trkpt><trkpt lat="41.86716611581284" lon="12.627248811291492"><ele>71.0</ele><time>2026-04-01T13:55:11Z</time></trkpt><trkpt lat="41.86724034752449" lon="12.627162699472622"><ele>71.0</ele><time>2026-04-01T13:55:12Z</time></trkpt><trkpt lat="41.86731923432403" lon="12.627070093466273"><ele>71.0</ele><time>2026-04-01T13:55:13Z</time></trkpt><trkpt lat="41.867406854909966" lon="12.62698786903564"><ele>71.0</ele><time>2026-04-01T13:55:14Z</time></trkpt><trkpt lat="41.86750113947448" lon="12.626905576711469"><ele>71.0</ele><time>2026-04-01T13:55:15Z</time></trkpt><trkpt lat="41.86759518296884" lon="12.62681486473016"><ele>71.0</ele><time>2026-04-01T13:55:16Z</time></trkpt><trkpt lat="41.86767869663887" lon="12.626731223496119"><ele>71.0</ele><time>2026-04-01T13:55:17Z</time></trkpt><trkpt lat="41.86775273216382" lon="12.626651599831126"><ele>71.39999999999999</ele><time>2026-04-01T13:55:18Z</time></trkpt><trkpt lat="41.867827447653646" lon="12.626570255818816"><ele>71.8</ele><time>2026-04-01T13:55:19Z</time></trkpt><trkpt lat="41.86790417769321" lon="12.626482544758229"><ele>72.19999999999999</ele><time>2026-04-01T13:55:20Z</time></trkpt><trkpt lat="41.86797857508571" lon="12.626391498516472"><ele>72.6</ele><time>2026-04-01T13:55:21Z</time></trkpt><trkpt lat="41.86805388699046" lon="12.626295210879814"><ele>73.0</ele><time>2026-04-01T13:55:22Z</time></trkpt><trkpt lat="41.868133124420304" lon="12.626202636177153"><ele>72.8</ele><time>2026-04-01T13:55:23Z</time></trkpt><trkpt lat="41.86820408942851" lon="12.626123410528738"><ele>72.6</ele><time>2026-04-01T13:55:24Z</time></trkpt><trkpt lat="41.86828309906056" lon="12.626045351032934"><ele>72.4</ele><time>2026-04-01T13:55:25Z</time></trkpt><trkpt lat="41.86835816899572" lon="12.625959987223291"><ele>72.2</ele><time>2026-04-01T13:55:26Z</time></trkpt><trkpt lat="41.868425210246656" lon="12.625880342305578"><ele>72.0</ele><time>2026-04-01T13:55:27Z</time></trkpt><trkpt lat="41.86849078063107" lon="12.62581020679788"><ele>71.6</ele><time>2026-04-01T13:55:28Z</time></trkpt><trkpt lat="41.8685432075328" lon="12.625748980013043"><ele>71.2</ele><time>2026-04-01T13:55:29Z</time></trkpt><trkpt lat="41.8686216081951" lon="12.625620407546538"><ele>70.8</ele><time>2026-04-01T13:55:30.999Z</time></trkpt><trkpt lat="41.868676425896325" lon="12.62557803197273"><ele>70.4</ele><time>2026-04-01T13:55:31.999Z</time></trkpt><trkpt lat="41.86876699191857" lon="12.625457481916053"><ele>70.0</ele><time>2026-04-01T13:55:33.999Z</time></trkpt><trkpt lat="41.86880888872457" lon="12.625374816753363"><ele>69.5</ele><time>2026-04-01T13:55:34.999Z</time></trkpt><trkpt lat="41.86890537347312" lon="12.625276580197964"><ele>69.0</ele><time>2026-04-01T13:55:36.999Z</time></trkpt><trkpt lat="41.868986244915085" lon="12.62515531752969"><ele>68.5</ele><time>2026-04-01T13:55:38.999Z</time></trkpt><trkpt lat="41.86903516295173" lon="12.625096823462234"><ele>68.0</ele><time>2026-04-01T13:55:39.999Z</time></trkpt><trkpt lat="41.86908640316074" lon="12.625039350301282"><ele>67.5</ele><time>2026-04-01T13:55:40.999Z</time></trkpt><trkpt lat="41.86913110622512" lon="12.624979172135998"><ele>67.0</ele><time>2026-04-01T13:55:41.999Z</time></trkpt><trkpt lat="41.86919521398589" lon="12.624884210500147"><ele>67.0</ele><time>2026-04-01T13:55:43.999Z</time></trkpt><trkpt lat="41.869256739536105" lon="12.62478864045421"><ele>67.0</ele><time>2026-04-01T13:55:45.999Z</time></trkpt><trkpt lat="41.86934439200527" lon="12.624690549955922"><ele>67.0</ele><time>2026-04-01T13:55:47.999Z</time></trkpt><trkpt lat="41.86941697832973" lon="12.624600541833782"><ele>67.0</ele><time>2026-04-01T13:55:49.999Z</time></trkpt><trkpt lat="41.86949063528878" lon="12.624501640476877"><ele>67.0</ele><time>2026-04-01T13:55:51.999Z</time></trkpt><trkpt lat="41.869534320337436" lon="12.624438569027074"><ele>66.66666666666666</ele><time>2026-04-01T13:55:52.999Z</time></trkpt><trkpt lat="41.8695846827123" lon="12.624376058951876"><ele>66.33333333333333</ele><time>2026-04-01T13:55:53.999Z</time></trkpt><trkpt lat="41.86963119875899" lon="12.624303492455608"><ele>66.0</ele><time>2026-04-01T13:55:54.999Z</time></trkpt><trkpt lat="41.8696775107433" lon="12.624222764262921"><ele>65.66666666666667</ele><time>2026-04-01T13:55:55.999Z</time></trkpt><trkpt lat="41.86973736217466" lon="12.624150914480648"><ele>65.33333333333334</ele><time>2026-04-01T13:55:56.999Z</time></trkpt><trkpt lat="41.86980095657967" lon="12.624079728003766"><ele>65.0</ele><time>2026-04-01T13:55:57.999Z</time></trkpt><trkpt lat="41.869862116266646" lon="12.624004624933903"><ele>65.0</ele><time>2026-04-01T13:55:58.999Z</time></trkpt><trkpt lat="41.86992473160396" lon="12.623931629817454"><ele>65.0</ele><time>2026-04-01T13:55:59.999Z</time></trkpt><trkpt lat="41.869984646491986" lon="12.623855925012379"><ele>65.0</ele><time>2026-04-01T13:56:00.999Z</time></trkpt><trkpt lat="41.87005352907941" lon="12.623757128706393"><ele>65.0</ele><time>2026-04-01T13:56:02.999Z</time></trkpt><trkpt lat="41.870107802745956" lon="12.62368983463959"><ele>65.0</ele><time>2026-04-01T13:56:04.999Z</time></trkpt><trkpt lat="41.87017166146473" lon="12.623594990707106"><ele>65.0</ele><time>2026-04-01T13:56:06.999Z</time></trkpt><trkpt lat="41.87025229781346" lon="12.623483213199851"><ele>65.33333333333334</ele><time>2026-04-01T13:56:08.999Z</time></trkpt><trkpt lat="41.870344232235794" lon="12.623382628631521"><ele>65.66666666666667</ele><time>2026-04-01T13:56:10.999Z</time></trkpt><trkpt lat="41.870428298469825" lon="12.623282747405424"><ele>66.0</ele><time>2026-04-01T13:56:12.999Z</time></trkpt><trkpt lat="41.87047567750955" lon="12.623219232921363"><ele>66.33333333333333</ele><time>2026-04-01T13:56:13.999Z</time></trkpt><trkpt lat="41.87052742789146" lon="12.62315139298496"><ele>66.66666666666666</ele><time>2026-04-01T13:56:14.999Z</time></trkpt><trkpt lat="41.87058287333945" lon="12.62307914410547"><ele>67.0</ele><time>2026-04-01T13:56:15.999Z</time></trkpt><trkpt lat="41.87064262002854" lon="12.623000664458694"><ele>67.0</ele><time>2026-04-01T13:56:16.998Z</time></trkpt><trkpt lat="41.87070537501397" lon="12.622919095101922"><ele>67.0</ele><time>2026-04-01T13:56:17.998Z</time></trkpt><trkpt lat="41.87077011836574" lon="12.622844134189021"><ele>67.0</ele><time>2026-04-01T13:56:18.998Z</time></trkpt><trkpt lat="41.8708266991998" lon="12.62277900727818"><ele>67.0</ele><time>2026-04-01T13:56:19.998Z</time></trkpt><trkpt lat="41.87087927081323" lon="12.622706403359208"><ele>67.0</ele><time>2026-04-01T13:56:20.998Z</time></trkpt><trkpt lat="41.87093323407968" lon="12.62262650668432"><ele>67.0</ele><time>2026-04-01T13:56:21.998Z</time></trkpt><trkpt lat="41.87099561130095" lon="12.622544314929765"><ele>66.71428571428572</ele><time>2026-04-01T13:56:22.998Z</time></trkpt><trkpt lat="41.87105262587481" lon="12.622475291098647"><ele>66.42857142857143</ele><time>2026-04-01T13:56:23.998Z</time></trkpt><trkpt lat="41.87110603335255" lon="12.622411602193484"><ele>66.14285714285714</ele><time>2026-04-01T13:56:24.998Z</time></trkpt><trkpt lat="41.87116010245943" lon="12.622349886422528"><ele>65.85714285714286</ele><time>2026-04-01T13:56:25.998Z</time></trkpt><trkpt lat="41.87120980413282" lon="12.62229636652409"><ele>65.57142857142857</ele><time>2026-04-01T13:56:26.998Z</time></trkpt><trkpt lat="41.87125999825697" lon="12.622232751543047"><ele>65.28571428571429</ele><time>2026-04-01T13:56:27.998Z</time></trkpt><trkpt lat="41.871298080587636" lon="12.62216432356897"><ele>65.0</ele><time>2026-04-01T13:56:28.998Z</time></trkpt><trkpt lat="41.87138567692916" lon="12.622046312054229"><ele>64.85714285714286</ele><time>2026-04-01T13:56:30.998Z</time></trkpt><trkpt lat="41.87143433234594" lon="12.621971882400404"><ele>64.71428571428572</ele><time>2026-04-01T13:56:31.998Z</time></trkpt><trkpt lat="41.87148970942977" lon="12.621892405671186"><ele>64.57142857142857</ele><time>2026-04-01T13:56:32.998Z</time></trkpt><trkpt lat="41.87155065967431" lon="12.62181996257064"><ele>64.42857142857143</ele><time>2026-04-01T13:56:33.998Z</time></trkpt><trkpt lat="41.87160673105235" lon="12.621762518035627"><ele>64.28571428571428</ele><time>2026-04-01T13:56:34.998Z</time></trkpt><trkpt lat="41.87165395646689" lon="12.621698150632689"><ele>64.14285714285714</ele><time>2026-04-01T13:56:35.998Z</time></trkpt><trkpt lat="41.87170373055278" lon="12.62163572443913"><ele>64.0</ele><time>2026-04-01T13:56:36.998Z</time></trkpt><trkpt lat="41.87175170137487" lon="12.621572307588952"><ele>64.2</ele><time>2026-04-01T13:56:37.998Z</time></trkpt><trkpt lat="41.871840633167416" lon="12.621447316154828"><ele>64.4</ele><time>2026-04-01T13:56:39.998Z</time></trkpt><trkpt lat="41.87189249442708" lon="12.62138745306394"><ele>64.6</ele><time>2026-04-01T13:56:40.998Z</time></trkpt><trkpt lat="41.871984591976855" lon="12.621269954096261"><ele>64.8</ele><time>2026-04-01T13:56:42.998Z</time></trkpt><trkpt lat="41.872033031126975" lon="12.621205071581041"><ele>65.0</ele><time>2026-04-01T13:56:43.998Z</time></trkpt><trkpt lat="41.872086777220154" lon="12.621141719039445"><ele>65.16666666666667</ele><time>2026-04-01T13:56:44.998Z</time></trkpt><trkpt lat="41.87214259753336" lon="12.621078908664856"><ele>65.33333333333334</ele><time>2026-04-01T13:56:45.998Z</time></trkpt><trkpt lat="41.872195462931806" lon="12.62100571629237"><ele>65.5</ele><time>2026-04-01T13:56:46.998Z</time></trkpt><trkpt lat="41.87225129895822" lon="12.62093297979047"><ele>65.66666666666667</ele><time>2026-04-01T13:56:47.998Z</time></trkpt><trkpt lat="41.87230856961623" lon="12.620859336617192"><ele>65.83333333333333</ele><time>2026-04-01T13:56:48.998Z</time></trkpt><trkpt lat="41.87235823798678" lon="12.620784353872727"><ele>66.0</ele><time>2026-04-01T13:56:49.998Z</time></trkpt><trkpt lat="41.87241372319528" lon="12.620698553103905"><ele>66.0</ele><time>2026-04-01T13:56:50.998Z</time></trkpt><trkpt lat="41.87247969621976" lon="12.620616078052759"><ele>66.0</ele><time>2026-04-01T13:56:51.998Z</time></trkpt><trkpt lat="41.872546665405274" lon="12.620532168211152"><ele>66.0</ele><time>2026-04-01T13:56:52.998Z</time></trkpt><trkpt lat="41.87260636204162" lon="12.62046160373129"><ele>66.0</ele><time>2026-04-01T13:56:53.998Z</time></trkpt><trkpt lat="41.87266901757187" lon="12.620390001880358"><ele>66.0</ele><time>2026-04-01T13:56:54.998Z</time></trkpt><trkpt lat="41.8727300085502" lon="12.620313384009071"><ele>66.0</ele><time>2026-04-01T13:56:56Z</time></trkpt><trkpt lat="41.872791859261866" lon="12.620236745269038"><ele>65.66666666666667</ele><time>2026-04-01T13:56:57Z</time></trkpt><trkpt lat="41.87285321149986" lon="12.62015612005726"><ele>65.33333333333333</ele><time>2026-04-01T13:56:58Z</time></trkpt><trkpt lat="41.87292080465355" lon="12.620074887236685"><ele>65.0</ele><time>2026-04-01T13:56:59Z</time></trkpt><trkpt lat="41.872987049889595" lon="12.61999461583736"><ele>64.66666666666666</ele><time>2026-04-01T13:57:00Z</time></trkpt><trkpt lat="41.87305175548494" lon="12.619921429147574"><ele>64.33333333333333</ele><time>2026-04-01T13:57:01Z</time></trkpt><trkpt lat="41.873101290867154" lon="12.619855647153399"><ele>64.0</ele><time>2026-04-01T13:57:02Z</time></trkpt><trkpt lat="41.87314890294094" lon="12.619781614766229"><ele>63.99999999999999</ele><time>2026-04-01T13:57:03Z</time></trkpt><trkpt lat="41.87320127808463" lon="12.619708721135247"><ele>64.0</ele><time>2026-04-01T13:57:04Z</time></trkpt><trkpt lat="41.87326921366765" lon="12.61963786941944"><ele>64.0</ele><time>2026-04-01T13:57:05Z</time></trkpt><trkpt lat="41.873333569020595" lon="12.619555389387422"><ele>64.0</ele><time>2026-04-01T13:57:06Z</time></trkpt><trkpt lat="41.87339734916724" lon="12.619470935998294"><ele>63.99999999999999</ele><time>2026-04-01T13:57:07Z</time></trkpt><trkpt lat="41.873454277381875" lon="12.619400212648676"><ele>64.0</ele><time>2026-04-01T13:57:08Z</time></trkpt><trkpt lat="41.873539867830814" lon="12.6192798827305"><ele>63.666666666666664</ele><time>2026-04-01T13:57:10Z</time></trkpt><trkpt lat="41.87359602343957" lon="12.619230412602011"><ele>63.33333333333333</ele><time>2026-04-01T13:57:11Z</time></trkpt><trkpt lat="41.873663383252655" lon="12.619148284613553"><ele>63.0</ele><time>2026-04-01T13:57:13Z</time></trkpt><trkpt lat="41.87373383118169" lon="12.619099831841796"><ele>62.66666666666667</ele><time>2026-04-01T13:57:16Z</time></trkpt><trkpt lat="41.87380581430253" lon="12.619069428746219"><ele>62.333333333333336</ele><time>2026-04-01T13:57:18Z</time></trkpt><trkpt lat="41.87391757132838" lon="12.619094611797896"><ele>62.0</ele><time>2026-04-01T13:57:20Z</time></trkpt><trkpt lat="41.874021325747044" lon="12.619139641951433"><ele>62.0</ele><time>2026-04-01T13:57:22Z</time></trkpt><trkpt lat="41.874132988603336" lon="12.619194396715432"><ele>62.0</ele><time>2026-04-01T13:57:24Z</time></trkpt><trkpt lat="41.87423755948581" lon="12.619248964405012"><ele>62.0</ele><time>2026-04-01T13:57:26Z</time></trkpt><trkpt lat="41.874304580973245" lon="12.61926928637866"><ele>62.0</ele><time>2026-04-01T13:57:27Z</time></trkpt><trkpt lat="41.874375988162356" lon="12.619295652525617"><ele>62.0</ele><time>2026-04-01T13:57:28Z</time></trkpt><trkpt lat="41.87445115571866" lon="12.619336140569587"><ele>62.400000000000006</ele><time>2026-04-01T13:57:29Z</time></trkpt><trkpt lat="41.87453049433157" lon="12.61937509676454"><ele>62.800000000000004</ele><time>2026-04-01T13:57:30Z</time></trkpt><trkpt lat="41.87459557016985" lon="12.619408520003898"><ele>63.2</ele><time>2026-04-01T13:57:31Z</time></trkpt><trkpt lat="41.874726842331135" lon="12.619457717379262"><ele>63.6</ele><time>2026-04-01T13:57:32.999Z</time></trkpt><trkpt lat="41.87479964452224" lon="12.61948445237662"><ele>64.0</ele><time>2026-04-01T13:57:33.999Z</time></trkpt><trkpt lat="41.874926390089655" lon="12.619538114421571"><ele>64.16666666666666</ele><time>2026-04-01T13:57:35.999Z</time></trkpt><trkpt lat="41.87499443678393" lon="12.619541393912243"><ele>64.33333333333333</ele><time>2026-04-01T13:57:36.999Z</time></trkpt><trkpt lat="41.875091475020014" lon="12.619507714043467"><ele>64.5</ele><time>2026-04-01T13:57:38.999Z</time></trkpt><trkpt lat="41.875159695686065" lon="12.619484358563305"><ele>64.66666666666667</ele><time>2026-04-01T13:57:40.999Z</time></trkpt><trkpt lat="41.8752312564091" lon="12.619464470774666"><ele>64.83333333333334</ele><time>2026-04-01T13:57:42.999Z</time></trkpt><trkpt lat="41.87532019686568" lon="12.619419054389992"><ele>65.0</ele><time>2026-04-01T13:57:44.999Z</time></trkpt><trkpt lat="41.87541078930388" lon="12.619377465605865"><ele>64.6</ele><time>2026-04-01T13:57:46.999Z</time></trkpt><trkpt lat="41.87548632799709" lon="12.619351640629887"><ele>64.2</ele><time>2026-04-01T13:57:51.999Z</time></trkpt><trkpt lat="41.87557499953387" lon="12.619314320796246"><ele>63.8</ele><time>2026-04-01T13:57:54.999Z</time></trkpt><trkpt lat="41.875660038814004" lon="12.61928960074168"><ele>63.4</ele><time>2026-04-01T13:57:56.999Z</time></trkpt><trkpt lat="41.87579082477528" lon="12.619235217457373"><ele>63.0</ele><time>2026-04-01T13:57:58.999Z</time></trkpt><trkpt lat="41.87590548408794" lon="12.619203603605722"><ele>62.833333333333336</ele><time>2026-04-01T13:58:00.999Z</time></trkpt><trkpt lat="41.875987004964465" lon="12.619177097533289"><ele>62.66666666666667</ele><time>2026-04-01T13:58:02.999Z</time></trkpt><trkpt lat="41.87606093808318" lon="12.619129936368225"><ele>62.5</ele><time>2026-04-01T13:58:06.999Z</time></trkpt><trkpt lat="41.876130878699946" lon="12.619105612664303"><ele>62.333333333333336</ele><time>2026-04-01T13:58:08.999Z</time></trkpt><trkpt lat="41.87621107618252" lon="12.619080884463948"><ele>62.16666666666667</ele><time>2026-04-01T13:58:13.999Z</time></trkpt><trkpt lat="41.87627726340307" lon="12.619049774013513"><ele>62.0</ele><time>2026-04-01T13:58:15.999Z</time></trkpt><trkpt lat="41.87639993751866" lon="12.619091637363093"><ele>62.00000000000001</ele><time>2026-04-01T13:58:17.999Z</time></trkpt><trkpt lat="41.876445077068766" lon="12.619180603945567"><ele>62.0</ele><time>2026-04-01T13:58:18.998Z</time></trkpt><trkpt lat="41.8764874018889" lon="12.619285532686918"><ele>62.0</ele><time>2026-04-01T13:58:19.998Z</time></trkpt><trkpt lat="41.87651937122799" lon="12.619370449329256"><ele>62.0</ele><time>2026-04-01T13:58:20.998Z</time></trkpt><trkpt lat="41.8765889899314" lon="12.619486060929281"><ele>62.00000000000001</ele><time>2026-04-01T13:58:22.998Z</time></trkpt><trkpt lat="41.87662088285185" lon="12.619579077678974"><ele>62.0</ele><time>2026-04-01T13:58:24.998Z</time></trkpt><trkpt lat="41.87666614070344" lon="12.619660220992813"><ele>62.16666666666667</ele><time>2026-04-01T13:58:27.998Z</time></trkpt><trkpt lat="41.87672120720693" lon="12.619730423525398"><ele>62.333333333333336</ele><time>2026-04-01T13:58:30.998Z</time></trkpt><trkpt lat="41.87677167183823" lon="12.61980173248241"><ele>62.5</ele><time>2026-04-01T13:58:32.998Z</time></trkpt><trkpt lat="41.876815054280534" lon="12.619894268984359"><ele>62.66666666666667</ele><time>2026-04-01T13:58:34.998Z</time></trkpt><trkpt lat="41.87691118066201" lon="12.619883149355818"><ele>62.833333333333336</ele><time>2026-04-01T13:58:37.998Z</time></trkpt><trkpt lat="41.87696137243736" lon="12.619825515516203"><ele>63.0</ele><time>2026-04-01T13:58:38.998Z</time></trkpt><trkpt lat="41.877043823668124" lon="12.619711056833687"><ele>62.4</ele><time>2026-04-01T13:59:38.999Z</time></trkpt><trkpt lat="41.87712059947829" lon="12.619690755402974"><ele>61.8</ele><time>2026-04-01T13:59:40.999Z</time></trkpt><trkpt lat="41.8772152461641" lon="12.619622275110569"><ele>61.2</ele><time>2026-04-01T13:59:42.999Z</time></trkpt><trkpt lat="41.8773042381809" lon="12.619528658212376"><ele>60.6</ele><time>2026-04-01T13:59:44.999Z</time></trkpt><trkpt lat="41.87740124287906" lon="12.619446269367455"><ele>60.0</ele><time>2026-04-01T13:59:46.999Z</time></trkpt><trkpt lat="41.877485574828704" lon="12.619380738233394"><ele>59.833333333333336</ele><time>2026-04-01T13:59:48.999Z</time></trkpt><trkpt lat="41.87754549963202" lon="12.619354570525692"><ele>59.66666666666667</ele><time>2026-04-01T13:59:49.999Z</time></trkpt><trkpt lat="41.87760518666324" lon="12.619317709766587"><ele>59.5</ele><time>2026-04-01T13:59:50.999Z</time></trkpt><trkpt lat="41.877673424747286" lon="12.61928761705981"><ele>59.333333333333336</ele><time>2026-04-01T13:59:51.999Z</time></trkpt><trkpt lat="41.87775928768003" lon="12.619264313707957"><ele>59.16666666666667</ele><time>2026-04-01T13:59:52.999Z</time></trkpt><trkpt lat="41.877856828536046" lon="12.619200972559174"><ele>59.0</ele><time>2026-04-01T13:59:54.999Z</time></trkpt><trkpt lat="41.87792657386194" lon="12.619207935328534"><ele>59.00000000000001</ele><time>2026-04-01T13:59:56.999Z</time></trkpt><trkpt lat="41.87793081695664" lon="12.619328406051347"><ele>59.0</ele><time>2026-04-01T13:59:58.999Z</time></trkpt><trkpt lat="41.87795924439378" lon="12.619460868602479"><ele>59.0</ele><time>2026-04-01T14:00:02.999Z</time></trkpt><trkpt lat="41.87798412977801" lon="12.619568902373528"><ele>59.0</ele><time>2026-04-01T14:00:03.999Z</time></trkpt><trkpt lat="41.87801173528994" lon="12.619682914444882"><ele>59.00000000000001</ele><time>2026-04-01T14:00:04.999Z</time></trkpt><trkpt lat="41.87803242482163" lon="12.6197683632859"><ele>59.0</ele><time>2026-04-01T14:00:05.999Z</time></trkpt><trkpt lat="41.878059927710176" lon="12.619891693102499"><ele>59.333333333333336</ele><time>2026-04-01T14:00:07.999Z</time></trkpt><trkpt lat="41.87808592645392" lon="12.620009692454646"><ele>59.66666666666667</ele><time>2026-04-01T14:00:09.999Z</time></trkpt><trkpt lat="41.878111950603035" lon="12.620099790572487"><ele>60.0</ele><time>2026-04-01T14:00:11.999Z</time></trkpt><trkpt lat="41.878016786791534" lon="12.620149724665954"><ele>60.33333333333333</ele><time>2026-04-01T14:00:13.999Z</time></trkpt><trkpt lat="41.877933545201856" lon="12.620166390037085"><ele>60.666666666666664</ele><time>2026-04-01T14:00:15.999Z</time></trkpt><trkpt lat="41.87784647447017" lon="12.620192364326858"><ele>61.0</ele><time>2026-04-01T14:00:18.998Z</time></trkpt><trkpt lat="41.87777254911906" lon="12.620193061311298"><ele>60.99999999999999</ele><time>2026-04-01T14:00:26.998Z</time></trkpt><trkpt lat="41.87776546916444" lon="12.620061325407661"><ele>61.0</ele><time>2026-04-01T14:00:28.998Z</time></trkpt><trkpt lat="41.87778441535782" lon="12.619970744669232"><ele>61.0</ele><time>2026-04-01T14:00:29.998Z</time></trkpt><trkpt lat="41.8777491778576" lon="12.619888178320808"><ele>61.0</ele><time>2026-04-01T14:00:31.998Z</time></trkpt><trkpt lat="41.87768652973896" lon="12.619930959259323"><ele>60.99999999999999</ele><time>2026-04-01T14:00:33.998Z</time></trkpt><trkpt lat="41.87771522057701" lon="12.620007423845564"><ele>61.0</ele><time>2026-04-01T14:00:42.998Z</time></trkpt><trkpt lat="41.87764545821139" lon="12.619964266576334"><ele>60.83333333333333</ele><time>2026-04-01T14:01:29Z</time></trkpt><trkpt lat="41.87758219875942" lon="12.619953408593222"><ele>60.666666666666664</ele><time>2026-04-01T14:01:35.999Z</time></trkpt><trkpt lat="41.877517798877875" lon="12.619913633542518"><ele>60.5</ele><time>2026-04-01T14:01:42.999Z</time></trkpt><trkpt lat="41.87760196414258" lon="12.619906236235186"><ele>60.33333333333333</ele><time>2026-04-01T14:03:05.998Z</time></trkpt><trkpt lat="41.877543488249344" lon="12.619757572766677"><ele>60.166666666666664</ele><time>2026-04-01T14:04:30.998Z</time></trkpt><trkpt lat="41.87748357888276" lon="12.6197846911268"><ele>60.0</ele><time>2026-04-01T14:04:34.998Z</time></trkpt><trkpt lat="41.87744221789238" lon="12.619920632641296"><ele>60.0</ele><time>2026-04-01T14:05:34.016Z</time></trkpt><trkpt lat="41.87747416985851" lon="12.619994306743376"><ele>60.0</ele><time>2026-04-01T14:05:55.015Z</time></trkpt><trkpt lat="41.87756602719762" lon="12.619892139901532"><ele>60.0</ele><time>2026-04-01T14:07:31.409Z</time></trkpt><trkpt lat="41.87744897250194" lon="12.619909324820759"><ele>60.0</ele><time>2026-04-01T14:09:41.924Z</time></trkpt><trkpt lat="41.877542362558884" lon="12.619889880461091"><ele>60.0</ele><time>2026-04-01T14:11:05.786Z</time></trkpt><trkpt lat="41.87745473954043" lon="12.619906058423144"><ele>60.0</ele><time>2026-04-01T14:21:53.311Z</time></trkpt><trkpt lat="41.87756226967903" lon="12.619887185629736"><ele>60.0</ele><time>2026-04-01T14:23:06.686Z</time></trkpt><trkpt lat="41.87746002913886" lon="12.619907087570331"><ele>60.0</ele><time>2026-04-01T14:23:32.369Z</time></trkpt><trkpt lat="41.877554942336616" lon="12.619888504408436"><ele>60.0</ele><time>2026-04-01T14:26:27.614Z</time></trkpt><trkpt lat="41.87744950163434" lon="12.619908268035733"><ele>60.0</ele><time>2026-04-01T14:26:53.828Z</time></trkpt><trkpt lat="41.87750795655251" lon="12.619863516536476"><ele>60.0</ele><time>2026-04-01T14:30:49.343Z</time></trkpt><trkpt lat="41.87745286655516" lon="12.619912036636915"><ele>60.0</ele><time>2026-04-01T14:31:18.02Z</time></trkpt><trkpt lat="41.8775545621194" lon="12.619888456909257"><ele>60.0</ele><time>2026-04-01T14:32:01.446Z</time></trkpt><trkpt lat="41.8774678517145" lon="12.619899868899127"><ele>60.0</ele><time>2026-04-01T14:47:34.773Z</time></trkpt><trkpt lat="41.87755128273841" lon="12.619889087566582"><ele>60.0</ele><time>2026-04-01T14:47:51.946Z</time></trkpt><trkpt lat="41.877445201411746" lon="12.619909667136449"><ele>60.0</ele><time>2026-04-01T14:48:11.468Z</time></trkpt></trkseg></trk></gpx>